<?xml version="1.0" encoding="UTF-8" standalone="no" ?>
<gpx xmlns="http://www.topografix.com/GPX/1/1" creator="CompeGPS" version="1.1" xmlns:xsi="http://www.w3.org/2001/XMLSchema-instance" xsi:schemaLocation="http://www.topografix.com/GPX/1/1 http://www.topografix.com/GPX/1/1/gpx.xsd http://www.garmin.com/xmlschemas/GpxExtensions/v3 http://www.garmin.com/xmlschemas/GpxExtensionsv3.xsd http://www.garmin.com/xmlschemas/TrackPointExtension/v1 http://www.garmin.com/xmlschemas/TrackPointExtensionv1.xsd" xmlns:gpxtpx="http://www.garmin.com/xmlschemas/TrackPointExtension/v1">
  <metadata>
    <link href="http://www.compegps.com">
      <text>CompeGPS TEAM, SL</text>
    </link>
    <time>2020-02-22T19:54:48Z</time>
    <bounds maxlat="42.912832" maxlon="0.794838" minlat="42.888833" minlon="0.728549"/>
  </metadata>
    <wpt lat="42.912802" lon="0.770995">
    <ele>1424.8</ele>
    <time>2020-02-29T20:28:05Z</time>
    <name>Depart</name>
    <desc></desc>
    <sym>Waypoint</sym>
  </wpt>
  <wpt lat="42.903511" lon="0.788390">
    <ele>1459.4</ele>
    <time>2020-02-29T20:28:24Z</time>
    <name>Route forestiere</name>
    <desc></desc>
    <sym>Waypoint</sym>
  </wpt>
  <wpt lat="42.888853" lon="0.787675">
    <ele>1365.7</ele>
    <time>2020-02-29T20:29:00Z</time>
    <name>Col d Artigascou</name>
    <desc></desc>
    <sym>Waypoint</sym>
  </wpt>
  <wpt lat="42.894842" lon="0.777525">
    <ele>1730.8</ele>
    <time>2020-02-29T20:29:21Z</time>
    <name>Mont Sijol</name>
    <desc></desc>
    <sym>Waypoint</sym>
  </wpt>
  <wpt lat="42.901986" lon="0.765701">
    <ele>1767.9</ele>
    <time>2020-02-29T20:29:41Z</time>
    <name>Tuc de l Etang</name>
    <desc></desc>
    <sym>Waypoint</sym>
  </wpt>
  <wpt lat="42.898407" lon="0.754320">
    <ele>1695.5</ele>
    <time>2020-02-29T20:29:59Z</time>
    <name>Tuc de Pan</name>
    <desc></desc>
    <sym>Waypoint</sym>
  </wpt>
  <wpt lat="42.901202" lon="0.728549">
    <ele>1346.5</ele>
    <time>2020-02-29T20:30:11Z</time>
    <name>Bifurcation </name>
    <desc></desc>
    <sym>Waypoint</sym>
  </wpt>
<trk>
    <name>cretes-mourtis</name>
    <userMyTwoNav></userMyTwoNav>
    <serialNumber></serialNumber>
    <trkseg>
      <trkpt lat="42.912802" lon="0.770995">
        <ele>1287.0</ele>
        <time>2020-02-22T08:50:17Z</time>
      </trkpt>
      <trkpt lat="42.912784" lon="0.771113">
        <ele>1287.9</ele>
        <time>2020-02-22T08:50:29Z</time>
      </trkpt>
      <trkpt lat="42.912777" lon="0.771254">
        <ele>1288.6</ele>
        <time>2020-02-22T08:50:39Z</time>
      </trkpt>
      <trkpt lat="42.912750" lon="0.771385">
        <ele>1289.4</ele>
        <time>2020-02-22T08:50:50Z</time>
      </trkpt>
      <trkpt lat="42.912720" lon="0.771513">
        <ele>1290.3</ele>
        <time>2020-02-22T08:51:01Z</time>
      </trkpt>
      <trkpt lat="42.912711" lon="0.771645">
        <ele>1291.0</ele>
        <time>2020-02-22T08:51:11Z</time>
      </trkpt>
      <trkpt lat="42.912679" lon="0.771762">
        <ele>1291.6</ele>
        <time>2020-02-22T08:51:20Z</time>
      </trkpt>
      <trkpt lat="42.912625" lon="0.771869">
        <ele>1292.4</ele>
        <time>2020-02-22T08:51:30Z</time>
      </trkpt>
      <trkpt lat="42.912604" lon="0.771998">
        <ele>1293.0</ele>
        <time>2020-02-22T08:51:39Z</time>
      </trkpt>
      <trkpt lat="42.912585" lon="0.772135">
        <ele>1293.6</ele>
        <time>2020-02-22T08:51:48Z</time>
      </trkpt>
      <trkpt lat="42.912543" lon="0.772260">
        <ele>1296.8</ele>
        <time>2020-02-22T08:51:59Z</time>
      </trkpt>
      <trkpt lat="42.912501" lon="0.772393">
        <ele>1297.5</ele>
        <time>2020-02-22T08:52:08Z</time>
      </trkpt>
      <trkpt lat="42.912414" lon="0.772419">
        <ele>1298.1</ele>
        <time>2020-02-22T08:52:17Z</time>
      </trkpt>
      <trkpt lat="42.912329" lon="0.772359">
        <ele>1298.8</ele>
        <time>2020-02-22T08:52:26Z</time>
      </trkpt>
      <trkpt lat="42.912234" lon="0.772289">
        <ele>1300.4</ele>
        <time>2020-02-22T08:52:36Z</time>
      </trkpt>
      <trkpt lat="42.912139" lon="0.772246">
        <ele>1302.9</ele>
        <time>2020-02-22T08:52:47Z</time>
      </trkpt>
      <trkpt lat="42.912040" lon="0.772201">
        <ele>1304.4</ele>
        <time>2020-02-22T08:52:58Z</time>
      </trkpt>
      <trkpt lat="42.911941" lon="0.772163">
        <ele>1307.7</ele>
        <time>2020-02-22T08:53:11Z</time>
      </trkpt>
      <trkpt lat="42.911850" lon="0.772085">
        <ele>1309.2</ele>
        <time>2020-02-22T08:53:22Z</time>
      </trkpt>
      <trkpt lat="42.911755" lon="0.772083">
        <ele>1312.2</ele>
        <time>2020-02-22T08:53:33Z</time>
      </trkpt>
      <trkpt lat="42.911682" lon="0.772143">
        <ele>1312.7</ele>
        <time>2020-02-22T08:53:43Z</time>
      </trkpt>
      <trkpt lat="42.911635" lon="0.772245">
        <ele>1313.4</ele>
        <time>2020-02-22T08:53:54Z</time>
      </trkpt>
      <trkpt lat="42.911575" lon="0.772346">
        <ele>1310.7</ele>
        <time>2020-02-22T08:54:06Z</time>
      </trkpt>
      <trkpt lat="42.911479" lon="0.772411">
        <ele>1309.7</ele>
        <time>2020-02-22T08:54:17Z</time>
      </trkpt>
      <trkpt lat="42.911392" lon="0.772467">
        <ele>1307.8</ele>
        <time>2020-02-22T08:54:27Z</time>
      </trkpt>
      <trkpt lat="42.911289" lon="0.772514">
        <ele>1305.6</ele>
        <time>2020-02-22T08:54:38Z</time>
      </trkpt>
      <trkpt lat="42.911193" lon="0.772538">
        <ele>1305.1</ele>
        <time>2020-02-22T08:54:47Z</time>
      </trkpt>
      <trkpt lat="42.911097" lon="0.772560">
        <ele>1302.1</ele>
        <time>2020-02-22T08:54:58Z</time>
      </trkpt>
      <trkpt lat="42.910997" lon="0.772592">
        <ele>1300.8</ele>
        <time>2020-02-22T08:55:08Z</time>
      </trkpt>
      <trkpt lat="42.910889" lon="0.772679">
        <ele>1299.6</ele>
        <time>2020-02-22T08:55:17Z</time>
      </trkpt>
      <trkpt lat="42.910797" lon="0.772755">
        <ele>1298.5</ele>
        <time>2020-02-22T08:55:28Z</time>
      </trkpt>
      <trkpt lat="42.910748" lon="0.772868">
        <ele>1296.1</ele>
        <time>2020-02-22T08:55:37Z</time>
      </trkpt>
      <trkpt lat="42.910702" lon="0.773002">
        <ele>1292.9</ele>
        <time>2020-02-22T08:55:48Z</time>
      </trkpt>
      <trkpt lat="42.910655" lon="0.773122">
        <ele>1291.5</ele>
        <time>2020-02-22T08:55:56Z</time>
      </trkpt>
      <trkpt lat="42.910635" lon="0.773262">
        <ele>1290.7</ele>
        <time>2020-02-22T08:56:09Z</time>
      </trkpt>
      <trkpt lat="42.910580" lon="0.773400">
        <ele>1289.3</ele>
        <time>2020-02-22T08:56:18Z</time>
      </trkpt>
      <trkpt lat="42.910518" lon="0.773510">
        <ele>1288.2</ele>
        <time>2020-02-22T08:56:27Z</time>
      </trkpt>
      <trkpt lat="42.910459" lon="0.773615">
        <ele>1286.3</ele>
        <time>2020-02-22T08:56:36Z</time>
      </trkpt>
      <trkpt lat="42.910408" lon="0.773733">
        <ele>1284.9</ele>
        <time>2020-02-22T08:56:45Z</time>
      </trkpt>
      <trkpt lat="42.910354" lon="0.773833">
        <ele>1283.7</ele>
        <time>2020-02-22T08:56:54Z</time>
      </trkpt>
      <trkpt lat="42.910292" lon="0.773921">
        <ele>1283.5</ele>
        <time>2020-02-22T08:57:03Z</time>
      </trkpt>
      <trkpt lat="42.910216" lon="0.774003">
        <ele>1282.3</ele>
        <time>2020-02-22T08:57:12Z</time>
      </trkpt>
      <trkpt lat="42.910136" lon="0.774068">
        <ele>1282.0</ele>
        <time>2020-02-22T08:57:21Z</time>
      </trkpt>
      <trkpt lat="42.910057" lon="0.774122">
        <ele>1280.8</ele>
        <time>2020-02-22T08:57:29Z</time>
      </trkpt>
      <trkpt lat="42.909971" lon="0.774153">
        <ele>1279.6</ele>
        <time>2020-02-22T08:57:37Z</time>
      </trkpt>
      <trkpt lat="42.909881" lon="0.774175">
        <ele>1279.3</ele>
        <time>2020-02-22T08:57:45Z</time>
      </trkpt>
      <trkpt lat="42.909789" lon="0.774208">
        <ele>1279.0</ele>
        <time>2020-02-22T08:57:54Z</time>
      </trkpt>
      <trkpt lat="42.909710" lon="0.774260">
        <ele>1279.5</ele>
        <time>2020-02-22T08:58:02Z</time>
      </trkpt>
      <trkpt lat="42.909625" lon="0.774313">
        <ele>1280.0</ele>
        <time>2020-02-22T08:58:11Z</time>
      </trkpt>
      <trkpt lat="42.909535" lon="0.774371">
        <ele>1280.5</ele>
        <time>2020-02-22T08:58:21Z</time>
      </trkpt>
      <trkpt lat="42.909430" lon="0.774403">
        <ele>1281.1</ele>
        <time>2020-02-22T08:58:31Z</time>
      </trkpt>
      <trkpt lat="42.909332" lon="0.774429">
        <ele>1284.9</ele>
        <time>2020-02-22T08:58:41Z</time>
      </trkpt>
      <trkpt lat="42.909231" lon="0.774440">
        <ele>1288.7</ele>
        <time>2020-02-22T08:58:53Z</time>
      </trkpt>
      <trkpt lat="42.909140" lon="0.774396">
        <ele>1290.2</ele>
        <time>2020-02-22T08:59:06Z</time>
      </trkpt>
      <trkpt lat="42.909053" lon="0.774348">
        <ele>1293.7</ele>
        <time>2020-02-22T08:59:17Z</time>
      </trkpt>
      <trkpt lat="42.908953" lon="0.774323">
        <ele>1295.1</ele>
        <time>2020-02-22T08:59:27Z</time>
      </trkpt>
      <trkpt lat="42.908865" lon="0.774309">
        <ele>1297.3</ele>
        <time>2020-02-22T08:59:37Z</time>
      </trkpt>
      <trkpt lat="42.908782" lon="0.774243">
        <ele>1300.3</ele>
        <time>2020-02-22T08:59:48Z</time>
      </trkpt>
      <trkpt lat="42.908723" lon="0.774126">
        <ele>1302.6</ele>
        <time>2020-02-22T08:59:57Z</time>
      </trkpt>
      <trkpt lat="42.908624" lon="0.774056">
        <ele>1306.0</ele>
        <time>2020-02-22T09:00:10Z</time>
      </trkpt>
      <trkpt lat="42.908533" lon="0.774112">
        <ele>1308.5</ele>
        <time>2020-02-22T09:00:20Z</time>
      </trkpt>
      <trkpt lat="42.908445" lon="0.774182">
        <ele>1309.7</ele>
        <time>2020-02-22T09:00:30Z</time>
      </trkpt>
      <trkpt lat="42.908376" lon="0.774264">
        <ele>1311.9</ele>
        <time>2020-02-22T09:00:41Z</time>
      </trkpt>
      <trkpt lat="42.908310" lon="0.774342">
        <ele>1314.8</ele>
        <time>2020-02-22T09:00:51Z</time>
      </trkpt>
      <trkpt lat="42.908231" lon="0.774438">
        <ele>1315.2</ele>
        <time>2020-02-22T09:01:00Z</time>
      </trkpt>
      <trkpt lat="42.908175" lon="0.774528">
        <ele>1318.3</ele>
        <time>2020-02-22T09:01:11Z</time>
      </trkpt>
      <trkpt lat="42.908111" lon="0.774641">
        <ele>1321.7</ele>
        <time>2020-02-22T09:01:22Z</time>
      </trkpt>
      <trkpt lat="42.908049" lon="0.774759">
        <ele>1324.0</ele>
        <time>2020-02-22T09:01:32Z</time>
      </trkpt>
      <trkpt lat="42.907982" lon="0.774870">
        <ele>1324.4</ele>
        <time>2020-02-22T09:01:41Z</time>
      </trkpt>
      <trkpt lat="42.907911" lon="0.774964">
        <ele>1324.8</ele>
        <time>2020-02-22T09:01:49Z</time>
      </trkpt>
      <trkpt lat="42.907900" lon="0.775083">
        <ele>1325.3</ele>
        <time>2020-02-22T09:01:58Z</time>
      </trkpt>
      <trkpt lat="42.907878" lon="0.775211">
        <ele>1326.5</ele>
        <time>2020-02-22T09:02:06Z</time>
      </trkpt>
      <trkpt lat="42.907843" lon="0.775337">
        <ele>1327.8</ele>
        <time>2020-02-22T09:02:14Z</time>
      </trkpt>
      <trkpt lat="42.907817" lon="0.775456">
        <ele>1328.9</ele>
        <time>2020-02-22T09:02:22Z</time>
      </trkpt>
      <trkpt lat="42.907788" lon="0.775582">
        <ele>1330.2</ele>
        <time>2020-02-22T09:02:31Z</time>
      </trkpt>
      <trkpt lat="42.907734" lon="0.775694">
        <ele>1331.6</ele>
        <time>2020-02-22T09:02:40Z</time>
      </trkpt>
      <trkpt lat="42.907707" lon="0.775815">
        <ele>1332.9</ele>
        <time>2020-02-22T09:02:49Z</time>
      </trkpt>
      <trkpt lat="42.907678" lon="0.775938">
        <ele>1333.3</ele>
        <time>2020-02-22T09:02:58Z</time>
      </trkpt>
      <trkpt lat="42.907638" lon="0.776058">
        <ele>1333.7</ele>
        <time>2020-02-22T09:03:06Z</time>
      </trkpt>
      <trkpt lat="42.907604" lon="0.776186">
        <ele>1334.8</ele>
        <time>2020-02-22T09:03:14Z</time>
      </trkpt>
      <trkpt lat="42.907568" lon="0.776302">
        <ele>1338.1</ele>
        <time>2020-02-22T09:03:25Z</time>
      </trkpt>
      <trkpt lat="42.907550" lon="0.776411">
        <ele>1342.4</ele>
        <time>2020-02-22T09:03:38Z</time>
      </trkpt>
      <trkpt lat="42.907560" lon="0.776520">
        <ele>1345.7</ele>
        <time>2020-02-22T09:03:53Z</time>
      </trkpt>
      <trkpt lat="42.907555" lon="0.776629">
        <ele>1349.7</ele>
        <time>2020-02-22T09:04:07Z</time>
      </trkpt>
      <trkpt lat="42.907532" lon="0.776755">
        <ele>1354.3</ele>
        <time>2020-02-22T09:04:24Z</time>
      </trkpt>
      <trkpt lat="42.907498" lon="0.776862">
        <ele>1357.8</ele>
        <time>2020-02-22T09:04:39Z</time>
      </trkpt>
      <trkpt lat="42.907489" lon="0.776984">
        <ele>1361.2</ele>
        <time>2020-02-22T09:04:53Z</time>
      </trkpt>
      <trkpt lat="42.907437" lon="0.777093">
        <ele>1365.6</ele>
        <time>2020-02-22T09:05:12Z</time>
      </trkpt>
      <trkpt lat="42.907384" lon="0.777198">
        <ele>1368.7</ele>
        <time>2020-02-22T09:05:28Z</time>
      </trkpt>
      <trkpt lat="42.907328" lon="0.777309">
        <ele>1372.7</ele>
        <time>2020-02-22T09:05:46Z</time>
      </trkpt>
      <trkpt lat="42.907282" lon="0.777417">
        <ele>1376.7</ele>
        <time>2020-02-22T09:06:03Z</time>
      </trkpt>
      <trkpt lat="42.907207" lon="0.777493">
        <ele>1380.2</ele>
        <time>2020-02-22T09:06:19Z</time>
      </trkpt>
      <trkpt lat="42.907180" lon="0.777615">
        <ele>1384.3</ele>
        <time>2020-02-22T09:06:35Z</time>
      </trkpt>
      <trkpt lat="42.907196" lon="0.777734">
        <ele>1388.4</ele>
        <time>2020-02-22T09:06:52Z</time>
      </trkpt>
      <trkpt lat="42.907248" lon="0.777854">
        <ele>1394.0</ele>
        <time>2020-02-22T09:07:10Z</time>
      </trkpt>
      <trkpt lat="42.907304" lon="0.778006">
        <ele>1397.5</ele>
        <time>2020-02-22T09:07:27Z</time>
      </trkpt>
      <trkpt lat="42.907334" lon="0.778142">
        <ele>1400.9</ele>
        <time>2020-02-22T09:07:44Z</time>
      </trkpt>
      <trkpt lat="42.907397" lon="0.778241">
        <ele>1405.1</ele>
        <time>2020-02-22T09:08:00Z</time>
      </trkpt>
      <trkpt lat="42.907460" lon="0.778343">
        <ele>1409.2</ele>
        <time>2020-02-22T09:08:15Z</time>
      </trkpt>
      <trkpt lat="42.907517" lon="0.778450">
        <ele>1412.2</ele>
        <time>2020-02-22T09:08:29Z</time>
      </trkpt>
      <trkpt lat="42.907556" lon="0.778577">
        <ele>1415.4</ele>
        <time>2020-02-22T09:08:43Z</time>
      </trkpt>
      <trkpt lat="42.907565" lon="0.778641">
        <ele>1419.0</ele>
        <time>2020-02-22T09:09:14Z</time>
      </trkpt>
      <trkpt lat="42.907570" lon="0.778800">
        <ele>1422.3</ele>
        <time>2020-02-22T09:09:26Z</time>
      </trkpt>
      <trkpt lat="42.907582" lon="0.778946">
        <ele>1424.6</ele>
        <time>2020-02-22T09:09:36Z</time>
      </trkpt>
      <trkpt lat="42.907596" lon="0.779075">
        <ele>1427.4</ele>
        <time>2020-02-22T09:09:46Z</time>
      </trkpt>
      <trkpt lat="42.907595" lon="0.779206">
        <ele>1430.4</ele>
        <time>2020-02-22T09:09:59Z</time>
      </trkpt>
      <trkpt lat="42.907608" lon="0.779325">
        <ele>1434.2</ele>
        <time>2020-02-22T09:10:51Z</time>
      </trkpt>
      <trkpt lat="42.907584" lon="0.779445">
        <ele>1436.4</ele>
        <time>2020-02-22T09:11:05Z</time>
      </trkpt>
      <trkpt lat="42.907551" lon="0.779568">
        <ele>1438.5</ele>
        <time>2020-02-22T09:11:17Z</time>
      </trkpt>
      <trkpt lat="42.907541" lon="0.779700">
        <ele>1441.4</ele>
        <time>2020-02-22T09:11:27Z</time>
      </trkpt>
      <trkpt lat="42.907532" lon="0.779833">
        <ele>1441.8</ele>
        <time>2020-02-22T09:11:38Z</time>
      </trkpt>
      <trkpt lat="42.907517" lon="0.779968">
        <ele>1442.3</ele>
        <time>2020-02-22T09:11:49Z</time>
      </trkpt>
      <trkpt lat="42.907459" lon="0.780074">
        <ele>1443.7</ele>
        <time>2020-02-22T09:12:07Z</time>
      </trkpt>
      <trkpt lat="42.907345" lon="0.780195">
        <ele>1448.1</ele>
        <time>2020-02-22T09:12:26Z</time>
      </trkpt>
      <trkpt lat="42.907245" lon="0.780343">
        <ele>1448.6</ele>
        <time>2020-02-22T09:12:44Z</time>
      </trkpt>
      <trkpt lat="42.907149" lon="0.780469">
        <ele>1450.8</ele>
        <time>2020-02-22T09:13:00Z</time>
      </trkpt>
      <trkpt lat="42.907096" lon="0.780560">
        <ele>1452.1</ele>
        <time>2020-02-22T09:13:17Z</time>
      </trkpt>
      <trkpt lat="42.906990" lon="0.780671">
        <ele>1456.0</ele>
        <time>2020-02-22T09:13:36Z</time>
      </trkpt>
      <trkpt lat="42.906932" lon="0.780875">
        <ele>1457.2</ele>
        <time>2020-02-22T09:13:53Z</time>
      </trkpt>
      <trkpt lat="42.906904" lon="0.781005">
        <ele>1457.6</ele>
        <time>2020-02-22T09:14:05Z</time>
      </trkpt>
      <trkpt lat="42.906829" lon="0.781165">
        <ele>1458.0</ele>
        <time>2020-02-22T09:14:20Z</time>
      </trkpt>
      <trkpt lat="42.906752" lon="0.781328">
        <ele>1458.7</ele>
        <time>2020-02-22T09:14:39Z</time>
      </trkpt>
      <trkpt lat="42.906687" lon="0.781534">
        <ele>1456.1</ele>
        <time>2020-02-22T09:14:56Z</time>
      </trkpt>
      <trkpt lat="42.906647" lon="0.781661">
        <ele>1455.7</ele>
        <time>2020-02-22T09:15:12Z</time>
      </trkpt>
      <trkpt lat="42.906580" lon="0.781838">
        <ele>1456.1</ele>
        <time>2020-02-22T09:15:25Z</time>
      </trkpt>
      <trkpt lat="42.906548" lon="0.781992">
        <ele>1456.4</ele>
        <time>2020-02-22T09:15:36Z</time>
      </trkpt>
      <trkpt lat="42.906460" lon="0.782080">
        <ele>1458.2</ele>
        <time>2020-02-22T09:15:50Z</time>
      </trkpt>
      <trkpt lat="42.906403" lon="0.782288">
        <ele>1458.6</ele>
        <time>2020-02-22T09:16:02Z</time>
      </trkpt>
      <trkpt lat="42.906363" lon="0.782453">
        <ele>1456.6</ele>
        <time>2020-02-22T09:16:13Z</time>
      </trkpt>
      <trkpt lat="42.906294" lon="0.782592">
        <ele>1456.1</ele>
        <time>2020-02-22T09:16:26Z</time>
      </trkpt>
      <trkpt lat="42.906232" lon="0.782756">
        <ele>1456.4</ele>
        <time>2020-02-22T09:16:38Z</time>
      </trkpt>
      <trkpt lat="42.906170" lon="0.782924">
        <ele>1455.9</ele>
        <time>2020-02-22T09:16:50Z</time>
      </trkpt>
      <trkpt lat="42.906111" lon="0.783093">
        <ele>1456.1</ele>
        <time>2020-02-22T09:17:01Z</time>
      </trkpt>
      <trkpt lat="42.906090" lon="0.783254">
        <ele>1455.6</ele>
        <time>2020-02-22T09:17:13Z</time>
      </trkpt>
      <trkpt lat="42.906022" lon="0.783424">
        <ele>1455.9</ele>
        <time>2020-02-22T09:17:26Z</time>
      </trkpt>
      <trkpt lat="42.905973" lon="0.783612">
        <ele>1456.2</ele>
        <time>2020-02-22T09:17:39Z</time>
      </trkpt>
      <trkpt lat="42.905928" lon="0.783804">
        <ele>1456.5</ele>
        <time>2020-02-22T09:17:52Z</time>
      </trkpt>
      <trkpt lat="42.905883" lon="0.783990">
        <ele>1456.8</ele>
        <time>2020-02-22T09:18:05Z</time>
      </trkpt>
      <trkpt lat="42.905911" lon="0.784204">
        <ele>1458.2</ele>
        <time>2020-02-22T09:19:04Z</time>
      </trkpt>
      <trkpt lat="42.906009" lon="0.784218">
        <ele>1458.5</ele>
        <time>2020-02-22T09:19:18Z</time>
      </trkpt>
      <trkpt lat="42.906003" lon="0.784430">
        <ele>1458.3</ele>
        <time>2020-02-22T09:19:37Z</time>
      </trkpt>
      <trkpt lat="42.905970" lon="0.784631">
        <ele>1458.6</ele>
        <time>2020-02-22T09:19:47Z</time>
      </trkpt>
      <trkpt lat="42.905935" lon="0.784809">
        <ele>1458.1</ele>
        <time>2020-02-22T09:19:58Z</time>
      </trkpt>
      <trkpt lat="42.905941" lon="0.784941">
        <ele>1456.5</ele>
        <time>2020-02-22T09:20:07Z</time>
      </trkpt>
      <trkpt lat="42.905963" lon="0.785087">
        <ele>1454.8</ele>
        <time>2020-02-22T09:20:17Z</time>
      </trkpt>
      <trkpt lat="42.905991" lon="0.785235">
        <ele>1452.2</ele>
        <time>2020-02-22T09:20:27Z</time>
      </trkpt>
      <trkpt lat="42.906026" lon="0.785357">
        <ele>1449.9</ele>
        <time>2020-02-22T09:20:36Z</time>
      </trkpt>
      <trkpt lat="42.906064" lon="0.785505">
        <ele>1448.3</ele>
        <time>2020-02-22T09:20:46Z</time>
      </trkpt>
      <trkpt lat="42.906059" lon="0.785668">
        <ele>1446.0</ele>
        <time>2020-02-22T09:20:56Z</time>
      </trkpt>
      <trkpt lat="42.906015" lon="0.785808">
        <ele>1446.4</ele>
        <time>2020-02-22T09:21:06Z</time>
      </trkpt>
      <trkpt lat="42.906036" lon="0.785962">
        <ele>1444.8</ele>
        <time>2020-02-22T09:21:17Z</time>
      </trkpt>
      <trkpt lat="42.906085" lon="0.786116">
        <ele>1443.6</ele>
        <time>2020-02-22T09:21:28Z</time>
      </trkpt>
      <trkpt lat="42.906147" lon="0.786263">
        <ele>1439.7</ele>
        <time>2020-02-22T09:21:39Z</time>
      </trkpt>
      <trkpt lat="42.906208" lon="0.786385">
        <ele>1438.3</ele>
        <time>2020-02-22T09:21:48Z</time>
      </trkpt>
      <trkpt lat="42.906268" lon="0.786483">
        <ele>1434.7</ele>
        <time>2020-02-22T09:22:00Z</time>
      </trkpt>
      <trkpt lat="42.906350" lon="0.786621">
        <ele>1431.7</ele>
        <time>2020-02-22T09:22:14Z</time>
      </trkpt>
      <trkpt lat="42.906445" lon="0.786770">
        <ele>1429.3</ele>
        <time>2020-02-22T09:22:26Z</time>
      </trkpt>
      <trkpt lat="42.906540" lon="0.786880">
        <ele>1427.3</ele>
        <time>2020-02-22T09:22:37Z</time>
      </trkpt>
      <trkpt lat="42.906532" lon="0.787028">
        <ele>1425.7</ele>
        <time>2020-02-22T09:22:48Z</time>
      </trkpt>
      <trkpt lat="42.906447" lon="0.787208">
        <ele>1426.1</ele>
        <time>2020-02-22T09:23:00Z</time>
      </trkpt>
      <trkpt lat="42.906356" lon="0.787333">
        <ele>1426.4</ele>
        <time>2020-02-22T09:23:11Z</time>
      </trkpt>
      <trkpt lat="42.906245" lon="0.787409">
        <ele>1426.6</ele>
        <time>2020-02-22T09:23:23Z</time>
      </trkpt>
      <trkpt lat="42.906158" lon="0.787552">
        <ele>1426.9</ele>
        <time>2020-02-22T09:23:35Z</time>
      </trkpt>
      <trkpt lat="42.906047" lon="0.787621">
        <ele>1427.1</ele>
        <time>2020-02-22T09:23:45Z</time>
      </trkpt>
      <trkpt lat="42.905928" lon="0.787684">
        <ele>1427.3</ele>
        <time>2020-02-22T09:23:56Z</time>
      </trkpt>
      <trkpt lat="42.905882" lon="0.787829">
        <ele>1427.5</ele>
        <time>2020-02-22T09:24:13Z</time>
      </trkpt>
      <trkpt lat="42.905828" lon="0.787917">
        <ele>1427.9</ele>
        <time>2020-02-22T09:24:33Z</time>
      </trkpt>
      <trkpt lat="42.905846" lon="0.787881">
        <ele>1428.6</ele>
        <time>2020-02-22T09:25:07Z</time>
      </trkpt>
      <trkpt lat="42.905832" lon="0.787949">
        <ele>1429.3</ele>
        <time>2020-02-22T09:25:41Z</time>
      </trkpt>
      <trkpt lat="42.905751" lon="0.787982">
        <ele>1428.7</ele>
        <time>2020-02-22T09:25:52Z</time>
      </trkpt>
      <trkpt lat="42.905643" lon="0.788136">
        <ele>1426.1</ele>
        <time>2020-02-22T09:26:04Z</time>
      </trkpt>
      <trkpt lat="42.905554" lon="0.788247">
        <ele>1422.8</ele>
        <time>2020-02-22T09:26:15Z</time>
      </trkpt>
      <trkpt lat="42.905461" lon="0.788320">
        <ele>1420.4</ele>
        <time>2020-02-22T09:26:26Z</time>
      </trkpt>
      <trkpt lat="42.905361" lon="0.788422">
        <ele>1416.9</ele>
        <time>2020-02-22T09:26:37Z</time>
      </trkpt>
      <trkpt lat="42.905257" lon="0.788613">
        <ele>1414.2</ele>
        <time>2020-02-22T09:26:47Z</time>
      </trkpt>
      <trkpt lat="42.905185" lon="0.788755">
        <ele>1411.4</ele>
        <time>2020-02-22T09:26:56Z</time>
      </trkpt>
      <trkpt lat="42.905080" lon="0.788816">
        <ele>1408.7</ele>
        <time>2020-02-22T09:27:06Z</time>
      </trkpt>
      <trkpt lat="42.904987" lon="0.788796">
        <ele>1405.6</ele>
        <time>2020-02-22T09:27:20Z</time>
      </trkpt>
      <trkpt lat="42.904877" lon="0.788700">
        <ele>1402.2</ele>
        <time>2020-02-22T09:27:33Z</time>
      </trkpt>
      <trkpt lat="42.904755" lon="0.788616">
        <ele>1400.5</ele>
        <time>2020-02-22T09:27:42Z</time>
      </trkpt>
      <trkpt lat="42.904653" lon="0.788581">
        <ele>1397.0</ele>
        <time>2020-02-22T09:27:51Z</time>
      </trkpt>
      <trkpt lat="42.904548" lon="0.788522">
        <ele>1393.5</ele>
        <time>2020-02-22T09:28:01Z</time>
      </trkpt>
      <trkpt lat="42.904449" lon="0.788483">
        <ele>1391.8</ele>
        <time>2020-02-22T09:28:11Z</time>
      </trkpt>
      <trkpt lat="42.904359" lon="0.788472">
        <ele>1389.6</ele>
        <time>2020-02-22T09:28:22Z</time>
      </trkpt>
      <trkpt lat="42.904234" lon="0.788400">
        <ele>1388.0</ele>
        <time>2020-02-22T09:28:32Z</time>
      </trkpt>
      <trkpt lat="42.904111" lon="0.788291">
        <ele>1386.4</ele>
        <time>2020-02-22T09:28:42Z</time>
      </trkpt>
      <trkpt lat="42.903969" lon="0.788257">
        <ele>1382.8</ele>
        <time>2020-02-22T09:28:52Z</time>
      </trkpt>
      <trkpt lat="42.903830" lon="0.788252">
        <ele>1380.2</ele>
        <time>2020-02-22T09:29:01Z</time>
      </trkpt>
      <trkpt lat="42.903690" lon="0.788245">
        <ele>1379.6</ele>
        <time>2020-02-22T09:29:12Z</time>
      </trkpt>
      <trkpt lat="42.903574" lon="0.788250">
        <ele>1379.1</ele>
        <time>2020-02-22T09:29:20Z</time>
      </trkpt>
      <trkpt lat="42.903511" lon="0.788390">
        <ele>1377.4</ele>
        <time>2020-02-22T09:29:28Z</time>
      </trkpt>
      <trkpt lat="42.903441" lon="0.788517">
        <ele>1375.7</ele>
        <time>2020-02-22T09:29:37Z</time>
      </trkpt>
      <trkpt lat="42.903379" lon="0.788533">
        <ele>1375.6</ele>
        <time>2020-02-22T09:29:56Z</time>
      </trkpt>
      <trkpt lat="42.903336" lon="0.788633">
        <ele>1376.8</ele>
        <time>2020-02-22T09:30:43Z</time>
      </trkpt>
      <trkpt lat="42.903268" lon="0.788704">
        <ele>1377.1</ele>
        <time>2020-02-22T09:30:53Z</time>
      </trkpt>
      <trkpt lat="42.903185" lon="0.788742">
        <ele>1376.6</ele>
        <time>2020-02-22T09:31:03Z</time>
      </trkpt>
      <trkpt lat="42.903085" lon="0.788805">
        <ele>1376.0</ele>
        <time>2020-02-22T09:31:14Z</time>
      </trkpt>
      <trkpt lat="42.902983" lon="0.788819">
        <ele>1376.9</ele>
        <time>2020-02-22T09:31:43Z</time>
      </trkpt>
      <trkpt lat="42.902902" lon="0.788745">
        <ele>1377.5</ele>
        <time>2020-02-22T09:32:07Z</time>
      </trkpt>
      <trkpt lat="42.902844" lon="0.788694">
        <ele>1372.8</ele>
        <time>2020-02-22T09:32:21Z</time>
      </trkpt>
      <trkpt lat="42.902780" lon="0.788737">
        <ele>1368.1</ele>
        <time>2020-02-22T09:32:40Z</time>
      </trkpt>
      <trkpt lat="42.902698" lon="0.788766">
        <ele>1363.7</ele>
        <time>2020-02-22T09:32:56Z</time>
      </trkpt>
      <trkpt lat="42.902626" lon="0.788695">
        <ele>1364.3</ele>
        <time>2020-02-22T09:33:11Z</time>
      </trkpt>
      <trkpt lat="42.902553" lon="0.788579">
        <ele>1364.0</ele>
        <time>2020-02-22T09:33:31Z</time>
      </trkpt>
      <trkpt lat="42.902508" lon="0.788335">
        <ele>1364.4</ele>
        <time>2020-02-22T09:33:45Z</time>
      </trkpt>
      <trkpt lat="42.902420" lon="0.788176">
        <ele>1363.1</ele>
        <time>2020-02-22T09:34:00Z</time>
      </trkpt>
      <trkpt lat="42.902400" lon="0.788024">
        <ele>1361.2</ele>
        <time>2020-02-22T09:34:17Z</time>
      </trkpt>
      <trkpt lat="42.902340" lon="0.787816">
        <ele>1360.3</ele>
        <time>2020-02-22T09:34:32Z</time>
      </trkpt>
      <trkpt lat="42.902285" lon="0.787604">
        <ele>1357.9</ele>
        <time>2020-02-22T09:34:44Z</time>
      </trkpt>
      <trkpt lat="42.902161" lon="0.787382">
        <ele>1354.5</ele>
        <time>2020-02-22T09:34:59Z</time>
      </trkpt>
      <trkpt lat="42.902124" lon="0.787199">
        <ele>1351.5</ele>
        <time>2020-02-22T09:35:16Z</time>
      </trkpt>
      <trkpt lat="42.901971" lon="0.787088">
        <ele>1350.1</ele>
        <time>2020-02-22T09:35:28Z</time>
      </trkpt>
      <trkpt lat="42.901873" lon="0.787023">
        <ele>1348.6</ele>
        <time>2020-02-22T09:35:38Z</time>
      </trkpt>
      <trkpt lat="42.901787" lon="0.786953">
        <ele>1346.4</ele>
        <time>2020-02-22T09:35:50Z</time>
      </trkpt>
      <trkpt lat="42.901676" lon="0.786814">
        <ele>1344.2</ele>
        <time>2020-02-22T09:36:05Z</time>
      </trkpt>
      <trkpt lat="42.901587" lon="0.786678">
        <ele>1343.0</ele>
        <time>2020-02-22T09:36:20Z</time>
      </trkpt>
      <trkpt lat="42.901482" lon="0.786510">
        <ele>1339.8</ele>
        <time>2020-02-22T09:36:34Z</time>
      </trkpt>
      <trkpt lat="42.901396" lon="0.786359">
        <ele>1339.2</ele>
        <time>2020-02-22T09:36:45Z</time>
      </trkpt>
      <trkpt lat="42.901312" lon="0.786274">
        <ele>1336.6</ele>
        <time>2020-02-22T09:36:59Z</time>
      </trkpt>
      <trkpt lat="42.901253" lon="0.786128">
        <ele>1335.2</ele>
        <time>2020-02-22T09:37:13Z</time>
      </trkpt>
      <trkpt lat="42.901224" lon="0.786001">
        <ele>1331.3</ele>
        <time>2020-02-22T09:37:30Z</time>
      </trkpt>
      <trkpt lat="42.901129" lon="0.785869">
        <ele>1330.9</ele>
        <time>2020-02-22T09:37:42Z</time>
      </trkpt>
      <trkpt lat="42.901064" lon="0.785694">
        <ele>1329.4</ele>
        <time>2020-02-22T09:37:56Z</time>
      </trkpt>
      <trkpt lat="42.900992" lon="0.785559">
        <ele>1327.8</ele>
        <time>2020-02-22T09:38:06Z</time>
      </trkpt>
      <trkpt lat="42.900948" lon="0.785407">
        <ele>1326.3</ele>
        <time>2020-02-22T09:38:17Z</time>
      </trkpt>
      <trkpt lat="42.900899" lon="0.785261">
        <ele>1325.0</ele>
        <time>2020-02-22T09:38:28Z</time>
      </trkpt>
      <trkpt lat="42.900874" lon="0.785129">
        <ele>1323.5</ele>
        <time>2020-02-22T09:38:39Z</time>
      </trkpt>
      <trkpt lat="42.900808" lon="0.784874">
        <ele>1322.2</ele>
        <time>2020-02-22T09:38:52Z</time>
      </trkpt>
      <trkpt lat="42.900710" lon="0.784894">
        <ele>1321.6</ele>
        <time>2020-02-22T09:39:07Z</time>
      </trkpt>
      <trkpt lat="42.900661" lon="0.785004">
        <ele>1319.2</ele>
        <time>2020-02-22T09:39:19Z</time>
      </trkpt>
      <trkpt lat="42.900625" lon="0.785129">
        <ele>1316.8</ele>
        <time>2020-02-22T09:39:30Z</time>
      </trkpt>
      <trkpt lat="42.900588" lon="0.785244">
        <ele>1316.2</ele>
        <time>2020-02-22T09:39:45Z</time>
      </trkpt>
      <trkpt lat="42.900557" lon="0.785368">
        <ele>1315.5</ele>
        <time>2020-02-22T09:39:55Z</time>
      </trkpt>
      <trkpt lat="42.900476" lon="0.785540">
        <ele>1314.9</ele>
        <time>2020-02-22T09:40:07Z</time>
      </trkpt>
      <trkpt lat="42.900360" lon="0.785639">
        <ele>1315.2</ele>
        <time>2020-02-22T09:40:21Z</time>
      </trkpt>
      <trkpt lat="42.900259" lon="0.785736">
        <ele>1314.4</ele>
        <time>2020-02-22T09:40:32Z</time>
      </trkpt>
      <trkpt lat="42.900154" lon="0.785843">
        <ele>1312.7</ele>
        <time>2020-02-22T09:40:43Z</time>
      </trkpt>
      <trkpt lat="42.900075" lon="0.785983">
        <ele>1312.1</ele>
        <time>2020-02-22T09:40:57Z</time>
      </trkpt>
      <trkpt lat="42.899990" lon="0.786112">
        <ele>1311.4</ele>
        <time>2020-02-22T09:41:09Z</time>
      </trkpt>
      <trkpt lat="42.899897" lon="0.786242">
        <ele>1309.7</ele>
        <time>2020-02-22T09:41:22Z</time>
      </trkpt>
      <trkpt lat="42.899738" lon="0.786290">
        <ele>1309.1</ele>
        <time>2020-02-22T09:41:37Z</time>
      </trkpt>
      <trkpt lat="42.899654" lon="0.786271">
        <ele>1307.5</ele>
        <time>2020-02-22T09:41:47Z</time>
      </trkpt>
      <trkpt lat="42.899491" lon="0.786197">
        <ele>1303.8</ele>
        <time>2020-02-22T09:42:01Z</time>
      </trkpt>
      <trkpt lat="42.899310" lon="0.786250">
        <ele>1300.4</ele>
        <time>2020-02-22T09:42:16Z</time>
      </trkpt>
      <trkpt lat="42.899207" lon="0.786368">
        <ele>1297.3</ele>
        <time>2020-02-22T09:42:32Z</time>
      </trkpt>
      <trkpt lat="42.899270" lon="0.786447">
        <ele>1296.6</ele>
        <time>2020-02-22T09:42:44Z</time>
      </trkpt>
      <trkpt lat="42.899254" lon="0.786550">
        <ele>1295.8</ele>
        <time>2020-02-22T09:42:57Z</time>
      </trkpt>
      <trkpt lat="42.899226" lon="0.786671">
        <ele>1296.0</ele>
        <time>2020-02-22T09:43:12Z</time>
      </trkpt>
      <trkpt lat="42.899198" lon="0.786817">
        <ele>1296.2</ele>
        <time>2020-02-22T09:43:25Z</time>
      </trkpt>
      <trkpt lat="42.899133" lon="0.786972">
        <ele>1294.0</ele>
        <time>2020-02-22T09:43:38Z</time>
      </trkpt>
      <trkpt lat="42.899087" lon="0.787178">
        <ele>1294.2</ele>
        <time>2020-02-22T09:43:52Z</time>
      </trkpt>
      <trkpt lat="42.899036" lon="0.787339">
        <ele>1293.4</ele>
        <time>2020-02-22T09:44:04Z</time>
      </trkpt>
      <trkpt lat="42.899015" lon="0.787517">
        <ele>1293.6</ele>
        <time>2020-02-22T09:44:16Z</time>
      </trkpt>
      <trkpt lat="42.898956" lon="0.787662">
        <ele>1293.7</ele>
        <time>2020-02-22T09:44:27Z</time>
      </trkpt>
      <trkpt lat="42.898942" lon="0.787835">
        <ele>1293.8</ele>
        <time>2020-02-22T09:44:40Z</time>
      </trkpt>
      <trkpt lat="42.898914" lon="0.787998">
        <ele>1293.9</ele>
        <time>2020-02-22T09:44:51Z</time>
      </trkpt>
      <trkpt lat="42.898853" lon="0.788168">
        <ele>1294.0</ele>
        <time>2020-02-22T09:45:03Z</time>
      </trkpt>
      <trkpt lat="42.898774" lon="0.788328">
        <ele>1292.5</ele>
        <time>2020-02-22T09:45:13Z</time>
      </trkpt>
      <trkpt lat="42.898735" lon="0.788458">
        <ele>1292.6</ele>
        <time>2020-02-22T09:45:22Z</time>
      </trkpt>
      <trkpt lat="42.898689" lon="0.788614">
        <ele>1291.9</ele>
        <time>2020-02-22T09:45:34Z</time>
      </trkpt>
      <trkpt lat="42.898626" lon="0.788766">
        <ele>1291.1</ele>
        <time>2020-02-22T09:45:44Z</time>
      </trkpt>
      <trkpt lat="42.898615" lon="0.788913">
        <ele>1291.2</ele>
        <time>2020-02-22T09:45:54Z</time>
      </trkpt>
      <trkpt lat="42.898669" lon="0.789081">
        <ele>1291.3</ele>
        <time>2020-02-22T09:46:05Z</time>
      </trkpt>
      <trkpt lat="42.898599" lon="0.789219">
        <ele>1290.6</ele>
        <time>2020-02-22T09:46:18Z</time>
      </trkpt>
      <trkpt lat="42.898469" lon="0.789360">
        <ele>1290.7</ele>
        <time>2020-02-22T09:46:32Z</time>
      </trkpt>
      <trkpt lat="42.898313" lon="0.789494">
        <ele>1289.1</ele>
        <time>2020-02-22T09:46:45Z</time>
      </trkpt>
      <trkpt lat="42.898200" lon="0.789601">
        <ele>1289.2</ele>
        <time>2020-02-22T09:46:56Z</time>
      </trkpt>
      <trkpt lat="42.898075" lon="0.789739">
        <ele>1289.3</ele>
        <time>2020-02-22T09:47:12Z</time>
      </trkpt>
      <trkpt lat="42.898027" lon="0.789905">
        <ele>1289.3</ele>
        <time>2020-02-22T09:47:24Z</time>
      </trkpt>
      <trkpt lat="42.897950" lon="0.790018">
        <ele>1286.5</ele>
        <time>2020-02-22T09:47:36Z</time>
      </trkpt>
      <trkpt lat="42.897838" lon="0.790126">
        <ele>1285.0</ele>
        <time>2020-02-22T09:47:48Z</time>
      </trkpt>
      <trkpt lat="42.897774" lon="0.790323">
        <ele>1285.1</ele>
        <time>2020-02-22T09:48:05Z</time>
      </trkpt>
      <trkpt lat="42.897682" lon="0.790512">
        <ele>1285.2</ele>
        <time>2020-02-22T09:48:21Z</time>
      </trkpt>
      <trkpt lat="42.897645" lon="0.790654">
        <ele>1285.2</ele>
        <time>2020-02-22T09:48:33Z</time>
      </trkpt>
      <trkpt lat="42.897569" lon="0.790852">
        <ele>1285.3</ele>
        <time>2020-02-22T09:48:48Z</time>
      </trkpt>
      <trkpt lat="42.897546" lon="0.791033">
        <ele>1285.3</ele>
        <time>2020-02-22T09:49:01Z</time>
      </trkpt>
      <trkpt lat="42.897478" lon="0.791222">
        <ele>1285.4</ele>
        <time>2020-02-22T09:49:14Z</time>
      </trkpt>
      <trkpt lat="42.897429" lon="0.791342">
        <ele>1285.4</ele>
        <time>2020-02-22T09:49:24Z</time>
      </trkpt>
      <trkpt lat="42.897364" lon="0.791470">
        <ele>1285.5</ele>
        <time>2020-02-22T09:49:35Z</time>
      </trkpt>
      <trkpt lat="42.897291" lon="0.791627">
        <ele>1285.6</ele>
        <time>2020-02-22T09:49:46Z</time>
      </trkpt>
      <trkpt lat="42.897225" lon="0.791761">
        <ele>1285.6</ele>
        <time>2020-02-22T09:49:56Z</time>
      </trkpt>
      <trkpt lat="42.897147" lon="0.791873">
        <ele>1285.7</ele>
        <time>2020-02-22T09:50:08Z</time>
      </trkpt>
      <trkpt lat="42.897146" lon="0.792051">
        <ele>1285.8</ele>
        <time>2020-02-22T09:50:20Z</time>
      </trkpt>
      <trkpt lat="42.897104" lon="0.792210">
        <ele>1285.9</ele>
        <time>2020-02-22T09:50:32Z</time>
      </trkpt>
      <trkpt lat="42.897027" lon="0.792345">
        <ele>1286.0</ele>
        <time>2020-02-22T09:50:45Z</time>
      </trkpt>
      <trkpt lat="42.896943" lon="0.792515">
        <ele>1286.1</ele>
        <time>2020-02-22T09:50:59Z</time>
      </trkpt>
      <trkpt lat="42.896895" lon="0.792676">
        <ele>1288.4</ele>
        <time>2020-02-22T09:51:10Z</time>
      </trkpt>
      <trkpt lat="42.896856" lon="0.792823">
        <ele>1289.3</ele>
        <time>2020-02-22T09:51:22Z</time>
      </trkpt>
      <trkpt lat="42.896848" lon="0.792977">
        <ele>1291.0</ele>
        <time>2020-02-22T09:51:33Z</time>
      </trkpt>
      <trkpt lat="42.896845" lon="0.793136">
        <ele>1293.7</ele>
        <time>2020-02-22T09:51:48Z</time>
      </trkpt>
      <trkpt lat="42.896816" lon="0.793322">
        <ele>1295.5</ele>
        <time>2020-02-22T09:52:03Z</time>
      </trkpt>
      <trkpt lat="42.896787" lon="0.793486">
        <ele>1296.3</ele>
        <time>2020-02-22T09:52:16Z</time>
      </trkpt>
      <trkpt lat="42.896755" lon="0.793649">
        <ele>1298.0</ele>
        <time>2020-02-22T09:52:30Z</time>
      </trkpt>
      <trkpt lat="42.896703" lon="0.793815">
        <ele>1299.0</ele>
        <time>2020-02-22T09:52:44Z</time>
      </trkpt>
      <trkpt lat="42.896651" lon="0.793994">
        <ele>1299.8</ele>
        <time>2020-02-22T09:52:56Z</time>
      </trkpt>
      <trkpt lat="42.896616" lon="0.794132">
        <ele>1300.7</ele>
        <time>2020-02-22T09:53:06Z</time>
      </trkpt>
      <trkpt lat="42.896568" lon="0.794281">
        <ele>1300.8</ele>
        <time>2020-02-22T09:53:17Z</time>
      </trkpt>
      <trkpt lat="42.896507" lon="0.794458">
        <ele>1317.7</ele>
        <time>2020-02-22T10:08:09Z</time>
      </trkpt>
      <trkpt lat="42.896490" lon="0.794599">
        <ele>1316.9</ele>
        <time>2020-02-22T10:08:17Z</time>
      </trkpt>
      <trkpt lat="42.896462" lon="0.794725">
        <ele>1316.2</ele>
        <time>2020-02-22T10:08:24Z</time>
      </trkpt>
      <trkpt lat="42.896380" lon="0.794838">
        <ele>1315.3</ele>
        <time>2020-02-22T10:08:33Z</time>
      </trkpt>
      <trkpt lat="42.896274" lon="0.794824">
        <ele>1314.7</ele>
        <time>2020-02-22T10:08:43Z</time>
      </trkpt>
      <trkpt lat="42.896159" lon="0.794760">
        <ele>1314.0</ele>
        <time>2020-02-22T10:08:52Z</time>
      </trkpt>
      <trkpt lat="42.896066" lon="0.794690">
        <ele>1313.3</ele>
        <time>2020-02-22T10:08:58Z</time>
      </trkpt>
      <trkpt lat="42.895976" lon="0.794638">
        <ele>1313.4</ele>
        <time>2020-02-22T10:09:05Z</time>
      </trkpt>
      <trkpt lat="42.895887" lon="0.794581">
        <ele>1312.5</ele>
        <time>2020-02-22T10:09:12Z</time>
      </trkpt>
      <trkpt lat="42.895802" lon="0.794557">
        <ele>1311.8</ele>
        <time>2020-02-22T10:09:19Z</time>
      </trkpt>
      <trkpt lat="42.895728" lon="0.794472">
        <ele>1312.0</ele>
        <time>2020-02-22T10:09:27Z</time>
      </trkpt>
      <trkpt lat="42.895652" lon="0.794391">
        <ele>1312.1</ele>
        <time>2020-02-22T10:09:34Z</time>
      </trkpt>
      <trkpt lat="42.895578" lon="0.794291">
        <ele>1311.3</ele>
        <time>2020-02-22T10:09:42Z</time>
      </trkpt>
      <trkpt lat="42.895508" lon="0.794221">
        <ele>1310.5</ele>
        <time>2020-02-22T10:09:49Z</time>
      </trkpt>
      <trkpt lat="42.895430" lon="0.794126">
        <ele>1309.8</ele>
        <time>2020-02-22T10:09:56Z</time>
      </trkpt>
      <trkpt lat="42.895344" lon="0.794066">
        <ele>1310.0</ele>
        <time>2020-02-22T10:10:04Z</time>
      </trkpt>
      <trkpt lat="42.895255" lon="0.794028">
        <ele>1309.2</ele>
        <time>2020-02-22T10:10:11Z</time>
      </trkpt>
      <trkpt lat="42.895164" lon="0.793988">
        <ele>1309.4</ele>
        <time>2020-02-22T10:10:20Z</time>
      </trkpt>
      <trkpt lat="42.895048" lon="0.793921">
        <ele>1308.8</ele>
        <time>2020-02-22T10:10:30Z</time>
      </trkpt>
      <trkpt lat="42.894955" lon="0.793839">
        <ele>1309.0</ele>
        <time>2020-02-22T10:10:38Z</time>
      </trkpt>
      <trkpt lat="42.894862" lon="0.793775">
        <ele>1309.1</ele>
        <time>2020-02-22T10:10:46Z</time>
      </trkpt>
      <trkpt lat="42.894747" lon="0.793735">
        <ele>1309.3</ele>
        <time>2020-02-22T10:10:55Z</time>
      </trkpt>
      <trkpt lat="42.894652" lon="0.793688">
        <ele>1309.5</ele>
        <time>2020-02-22T10:11:03Z</time>
      </trkpt>
      <trkpt lat="42.894562" lon="0.793572">
        <ele>1309.7</ele>
        <time>2020-02-22T10:11:10Z</time>
      </trkpt>
      <trkpt lat="42.894486" lon="0.793440">
        <ele>1309.8</ele>
        <time>2020-02-22T10:11:17Z</time>
      </trkpt>
      <trkpt lat="42.894435" lon="0.793318">
        <ele>1309.9</ele>
        <time>2020-02-22T10:11:24Z</time>
      </trkpt>
      <trkpt lat="42.894387" lon="0.793197">
        <ele>1310.1</ele>
        <time>2020-02-22T10:11:31Z</time>
      </trkpt>
      <trkpt lat="42.894314" lon="0.793114">
        <ele>1310.2</ele>
        <time>2020-02-22T10:11:38Z</time>
      </trkpt>
      <trkpt lat="42.894255" lon="0.793009">
        <ele>1310.2</ele>
        <time>2020-02-22T10:11:46Z</time>
      </trkpt>
      <trkpt lat="42.894172" lon="0.792910">
        <ele>1310.4</ele>
        <time>2020-02-22T10:11:54Z</time>
      </trkpt>
      <trkpt lat="42.894121" lon="0.792806">
        <ele>1310.5</ele>
        <time>2020-02-22T10:12:01Z</time>
      </trkpt>
      <trkpt lat="42.894059" lon="0.792705">
        <ele>1310.6</ele>
        <time>2020-02-22T10:12:10Z</time>
      </trkpt>
      <trkpt lat="42.893936" lon="0.792636">
        <ele>1312.3</ele>
        <time>2020-02-22T10:12:17Z</time>
      </trkpt>
      <trkpt lat="42.893828" lon="0.792611">
        <ele>1312.3</ele>
        <time>2020-02-22T10:12:24Z</time>
      </trkpt>
      <trkpt lat="42.893735" lon="0.792572">
        <ele>1312.5</ele>
        <time>2020-02-22T10:12:33Z</time>
      </trkpt>
      <trkpt lat="42.893633" lon="0.792517">
        <ele>1312.6</ele>
        <time>2020-02-22T10:12:41Z</time>
      </trkpt>
      <trkpt lat="42.893546" lon="0.792490">
        <ele>1312.7</ele>
        <time>2020-02-22T10:12:49Z</time>
      </trkpt>
      <trkpt lat="42.893466" lon="0.792399">
        <ele>1312.8</ele>
        <time>2020-02-22T10:12:57Z</time>
      </trkpt>
      <trkpt lat="42.893391" lon="0.792330">
        <ele>1312.9</ele>
        <time>2020-02-22T10:13:04Z</time>
      </trkpt>
      <trkpt lat="42.893299" lon="0.792271">
        <ele>1313.0</ele>
        <time>2020-02-22T10:13:12Z</time>
      </trkpt>
      <trkpt lat="42.893204" lon="0.792199">
        <ele>1313.1</ele>
        <time>2020-02-22T10:13:20Z</time>
      </trkpt>
      <trkpt lat="42.893131" lon="0.792128">
        <ele>1313.2</ele>
        <time>2020-02-22T10:13:27Z</time>
      </trkpt>
      <trkpt lat="42.893052" lon="0.792064">
        <ele>1313.3</ele>
        <time>2020-02-22T10:13:35Z</time>
      </trkpt>
      <trkpt lat="42.892974" lon="0.791989">
        <ele>1313.5</ele>
        <time>2020-02-22T10:13:45Z</time>
      </trkpt>
      <trkpt lat="42.892874" lon="0.791952">
        <ele>1314.5</ele>
        <time>2020-02-22T10:13:54Z</time>
      </trkpt>
      <trkpt lat="42.892777" lon="0.791881">
        <ele>1314.7</ele>
        <time>2020-02-22T10:14:03Z</time>
      </trkpt>
      <trkpt lat="42.892694" lon="0.791761">
        <ele>1315.6</ele>
        <time>2020-02-22T10:14:13Z</time>
      </trkpt>
      <trkpt lat="42.892624" lon="0.791646">
        <ele>1316.5</ele>
        <time>2020-02-22T10:14:22Z</time>
      </trkpt>
      <trkpt lat="42.892556" lon="0.791549">
        <ele>1316.7</ele>
        <time>2020-02-22T10:14:31Z</time>
      </trkpt>
      <trkpt lat="42.892462" lon="0.791477">
        <ele>1316.8</ele>
        <time>2020-02-22T10:14:42Z</time>
      </trkpt>
      <trkpt lat="42.892353" lon="0.791379">
        <ele>1316.9</ele>
        <time>2020-02-22T10:14:52Z</time>
      </trkpt>
      <trkpt lat="42.892255" lon="0.791317">
        <ele>1317.0</ele>
        <time>2020-02-22T10:15:01Z</time>
      </trkpt>
      <trkpt lat="42.892175" lon="0.791202">
        <ele>1317.9</ele>
        <time>2020-02-22T10:15:10Z</time>
      </trkpt>
      <trkpt lat="42.892098" lon="0.791120">
        <ele>1318.8</ele>
        <time>2020-02-22T10:15:17Z</time>
      </trkpt>
      <trkpt lat="42.892023" lon="0.791019">
        <ele>1318.9</ele>
        <time>2020-02-22T10:15:25Z</time>
      </trkpt>
      <trkpt lat="42.891957" lon="0.790925">
        <ele>1319.8</ele>
        <time>2020-02-22T10:15:32Z</time>
      </trkpt>
      <trkpt lat="42.891881" lon="0.790837">
        <ele>1319.8</ele>
        <time>2020-02-22T10:15:39Z</time>
      </trkpt>
      <trkpt lat="42.891808" lon="0.790730">
        <ele>1320.8</ele>
        <time>2020-02-22T10:15:47Z</time>
      </trkpt>
      <trkpt lat="42.891745" lon="0.790620">
        <ele>1320.9</ele>
        <time>2020-02-22T10:15:56Z</time>
      </trkpt>
      <trkpt lat="42.891688" lon="0.790502">
        <ele>1321.8</ele>
        <time>2020-02-22T10:16:04Z</time>
      </trkpt>
      <trkpt lat="42.891642" lon="0.790381">
        <ele>1322.7</ele>
        <time>2020-02-22T10:16:13Z</time>
      </trkpt>
      <trkpt lat="42.891584" lon="0.790284">
        <ele>1323.6</ele>
        <time>2020-02-22T10:16:21Z</time>
      </trkpt>
      <trkpt lat="42.891537" lon="0.790150">
        <ele>1323.7</ele>
        <time>2020-02-22T10:16:30Z</time>
      </trkpt>
      <trkpt lat="42.891481" lon="0.790035">
        <ele>1324.5</ele>
        <time>2020-02-22T10:16:38Z</time>
      </trkpt>
      <trkpt lat="42.891411" lon="0.789930">
        <ele>1324.6</ele>
        <time>2020-02-22T10:16:46Z</time>
      </trkpt>
      <trkpt lat="42.891332" lon="0.789867">
        <ele>1325.4</ele>
        <time>2020-02-22T10:16:54Z</time>
      </trkpt>
      <trkpt lat="42.891257" lon="0.789791">
        <ele>1326.4</ele>
        <time>2020-02-22T10:17:03Z</time>
      </trkpt>
      <trkpt lat="42.891180" lon="0.789709">
        <ele>1326.5</ele>
        <time>2020-02-22T10:17:12Z</time>
      </trkpt>
      <trkpt lat="42.891106" lon="0.789634">
        <ele>1327.3</ele>
        <time>2020-02-22T10:17:21Z</time>
      </trkpt>
      <trkpt lat="42.891012" lon="0.789581">
        <ele>1328.2</ele>
        <time>2020-02-22T10:17:31Z</time>
      </trkpt>
      <trkpt lat="42.890927" lon="0.789507">
        <ele>1329.2</ele>
        <time>2020-02-22T10:17:41Z</time>
      </trkpt>
      <trkpt lat="42.890822" lon="0.789480">
        <ele>1330.1</ele>
        <time>2020-02-22T10:17:51Z</time>
      </trkpt>
      <trkpt lat="42.890714" lon="0.789454">
        <ele>1331.9</ele>
        <time>2020-02-22T10:18:02Z</time>
      </trkpt>
      <trkpt lat="42.890612" lon="0.789397">
        <ele>1333.7</ele>
        <time>2020-02-22T10:18:12Z</time>
      </trkpt>
      <trkpt lat="42.890527" lon="0.789306">
        <ele>1334.6</ele>
        <time>2020-02-22T10:18:21Z</time>
      </trkpt>
      <trkpt lat="42.890447" lon="0.789222">
        <ele>1335.6</ele>
        <time>2020-02-22T10:18:29Z</time>
      </trkpt>
      <trkpt lat="42.890364" lon="0.789132">
        <ele>1336.4</ele>
        <time>2020-02-22T10:18:37Z</time>
      </trkpt>
      <trkpt lat="42.890295" lon="0.789031">
        <ele>1337.5</ele>
        <time>2020-02-22T10:18:46Z</time>
      </trkpt>
      <trkpt lat="42.890204" lon="0.788959">
        <ele>1338.5</ele>
        <time>2020-02-22T10:18:56Z</time>
      </trkpt>
      <trkpt lat="42.890118" lon="0.788892">
        <ele>1339.3</ele>
        <time>2020-02-22T10:19:04Z</time>
      </trkpt>
      <trkpt lat="42.890037" lon="0.788835">
        <ele>1339.4</ele>
        <time>2020-02-22T10:19:11Z</time>
      </trkpt>
      <trkpt lat="42.889958" lon="0.788756">
        <ele>1339.4</ele>
        <time>2020-02-22T10:19:18Z</time>
      </trkpt>
      <trkpt lat="42.889872" lon="0.788680">
        <ele>1339.5</ele>
        <time>2020-02-22T10:19:25Z</time>
      </trkpt>
      <trkpt lat="42.889803" lon="0.788590">
        <ele>1339.6</ele>
        <time>2020-02-22T10:19:32Z</time>
      </trkpt>
      <trkpt lat="42.889724" lon="0.788510">
        <ele>1339.7</ele>
        <time>2020-02-22T10:19:39Z</time>
      </trkpt>
      <trkpt lat="42.889638" lon="0.788423">
        <ele>1339.7</ele>
        <time>2020-02-22T10:19:47Z</time>
      </trkpt>
      <trkpt lat="42.889554" lon="0.788344">
        <ele>1339.8</ele>
        <time>2020-02-22T10:19:54Z</time>
      </trkpt>
      <trkpt lat="42.889463" lon="0.788298">
        <ele>1339.9</ele>
        <time>2020-02-22T10:20:00Z</time>
      </trkpt>
      <trkpt lat="42.889389" lon="0.788221">
        <ele>1339.9</ele>
        <time>2020-02-22T10:20:07Z</time>
      </trkpt>
      <trkpt lat="42.889309" lon="0.788149">
        <ele>1340.0</ele>
        <time>2020-02-22T10:20:14Z</time>
      </trkpt>
      <trkpt lat="42.889224" lon="0.788083">
        <ele>1340.9</ele>
        <time>2020-02-22T10:20:21Z</time>
      </trkpt>
      <trkpt lat="42.889125" lon="0.788020">
        <ele>1341.0</ele>
        <time>2020-02-22T10:20:29Z</time>
      </trkpt>
      <trkpt lat="42.889035" lon="0.787961">
        <ele>1341.1</ele>
        <time>2020-02-22T10:20:36Z</time>
      </trkpt>
      <trkpt lat="42.888958" lon="0.787885">
        <ele>1341.1</ele>
        <time>2020-02-22T10:20:43Z</time>
      </trkpt>
      <trkpt lat="42.888902" lon="0.787780">
        <ele>1341.2</ele>
        <time>2020-02-22T10:20:50Z</time>
      </trkpt>
      <trkpt lat="42.888853" lon="0.787675">
        <ele>1341.2</ele>
        <time>2020-02-22T10:20:58Z</time>
      </trkpt>
      <trkpt lat="42.888833" lon="0.787627">
        <ele>1343.3</ele>
        <time>2020-02-22T10:27:04Z</time>
      </trkpt>
      <trkpt lat="42.888909" lon="0.787616">
        <ele>1344.8</ele>
        <time>2020-02-22T10:29:10Z</time>
      </trkpt>
      <trkpt lat="42.889000" lon="0.787567">
        <ele>1347.5</ele>
        <time>2020-02-22T10:29:23Z</time>
      </trkpt>
      <trkpt lat="42.889091" lon="0.787564">
        <ele>1350.9</ele>
        <time>2020-02-22T10:29:35Z</time>
      </trkpt>
      <trkpt lat="42.889186" lon="0.787526">
        <ele>1354.6</ele>
        <time>2020-02-22T10:29:50Z</time>
      </trkpt>
      <trkpt lat="42.889287" lon="0.787480">
        <ele>1356.7</ele>
        <time>2020-02-22T10:30:03Z</time>
      </trkpt>
      <trkpt lat="42.889394" lon="0.787446">
        <ele>1357.6</ele>
        <time>2020-02-22T10:30:15Z</time>
      </trkpt>
      <trkpt lat="42.889486" lon="0.787380">
        <ele>1359.4</ele>
        <time>2020-02-22T10:30:27Z</time>
      </trkpt>
      <trkpt lat="42.889562" lon="0.787295">
        <ele>1361.2</ele>
        <time>2020-02-22T10:30:41Z</time>
      </trkpt>
      <trkpt lat="42.889622" lon="0.787267">
        <ele>1363.1</ele>
        <time>2020-02-22T10:31:04Z</time>
      </trkpt>
      <trkpt lat="42.889711" lon="0.787251">
        <ele>1365.2</ele>
        <time>2020-02-22T10:31:44Z</time>
      </trkpt>
      <trkpt lat="42.889802" lon="0.787199">
        <ele>1369.6</ele>
        <time>2020-02-22T10:32:08Z</time>
      </trkpt>
      <trkpt lat="42.889888" lon="0.787125">
        <ele>1371.4</ele>
        <time>2020-02-22T10:32:21Z</time>
      </trkpt>
      <trkpt lat="42.889983" lon="0.787074">
        <ele>1375.1</ele>
        <time>2020-02-22T10:32:36Z</time>
      </trkpt>
      <trkpt lat="42.890079" lon="0.787044">
        <ele>1379.4</ele>
        <time>2020-02-22T10:32:53Z</time>
      </trkpt>
      <trkpt lat="42.890179" lon="0.786992">
        <ele>1381.2</ele>
        <time>2020-02-22T10:33:07Z</time>
      </trkpt>
      <trkpt lat="42.890275" lon="0.786912">
        <ele>1383.8</ele>
        <time>2020-02-22T10:33:22Z</time>
      </trkpt>
      <trkpt lat="42.890353" lon="0.786806">
        <ele>1386.9</ele>
        <time>2020-02-22T10:33:38Z</time>
      </trkpt>
      <trkpt lat="42.890440" lon="0.786731">
        <ele>1390.4</ele>
        <time>2020-02-22T10:33:52Z</time>
      </trkpt>
      <trkpt lat="42.890550" lon="0.786660">
        <ele>1392.2</ele>
        <time>2020-02-22T10:34:05Z</time>
      </trkpt>
      <trkpt lat="42.890627" lon="0.786586">
        <ele>1395.0</ele>
        <time>2020-02-22T10:34:20Z</time>
      </trkpt>
      <trkpt lat="42.890716" lon="0.786529">
        <ele>1399.8</ele>
        <time>2020-02-22T10:34:37Z</time>
      </trkpt>
      <trkpt lat="42.890816" lon="0.786499">
        <ele>1403.2</ele>
        <time>2020-02-22T10:34:56Z</time>
      </trkpt>
      <trkpt lat="42.890874" lon="0.786420">
        <ele>1406.6</ele>
        <time>2020-02-22T10:35:12Z</time>
      </trkpt>
      <trkpt lat="42.890910" lon="0.786315">
        <ele>1411.3</ele>
        <time>2020-02-22T10:35:32Z</time>
      </trkpt>
      <trkpt lat="42.890975" lon="0.786220">
        <ele>1416.4</ele>
        <time>2020-02-22T10:36:00Z</time>
      </trkpt>
      <trkpt lat="42.891017" lon="0.786065">
        <ele>1420.9</ele>
        <time>2020-02-22T10:36:19Z</time>
      </trkpt>
      <trkpt lat="42.891050" lon="0.785946">
        <ele>1425.0</ele>
        <time>2020-02-22T10:36:40Z</time>
      </trkpt>
      <trkpt lat="42.891086" lon="0.785786">
        <ele>1428.3</ele>
        <time>2020-02-22T10:36:58Z</time>
      </trkpt>
      <trkpt lat="42.891120" lon="0.785635">
        <ele>1431.5</ele>
        <time>2020-02-22T10:37:17Z</time>
      </trkpt>
      <trkpt lat="42.891162" lon="0.785474">
        <ele>1434.8</ele>
        <time>2020-02-22T10:37:35Z</time>
      </trkpt>
      <trkpt lat="42.891145" lon="0.785333">
        <ele>1439.0</ele>
        <time>2020-02-22T10:37:52Z</time>
      </trkpt>
      <trkpt lat="42.891186" lon="0.785212">
        <ele>1441.4</ele>
        <time>2020-02-22T10:38:07Z</time>
      </trkpt>
      <trkpt lat="42.891187" lon="0.785026">
        <ele>1443.8</ele>
        <time>2020-02-22T10:38:25Z</time>
      </trkpt>
      <trkpt lat="42.891221" lon="0.784870">
        <ele>1447.9</ele>
        <time>2020-02-22T10:38:44Z</time>
      </trkpt>
      <trkpt lat="42.891252" lon="0.784734">
        <ele>1450.4</ele>
        <time>2020-02-22T10:38:59Z</time>
      </trkpt>
      <trkpt lat="42.891275" lon="0.784588">
        <ele>1452.9</ele>
        <time>2020-02-22T10:39:12Z</time>
      </trkpt>
      <trkpt lat="42.891264" lon="0.784439">
        <ele>1455.2</ele>
        <time>2020-02-22T10:39:27Z</time>
      </trkpt>
      <trkpt lat="42.891253" lon="0.784290">
        <ele>1457.2</ele>
        <time>2020-02-22T10:39:43Z</time>
      </trkpt>
      <trkpt lat="42.891289" lon="0.784160">
        <ele>1459.5</ele>
        <time>2020-02-22T10:39:56Z</time>
      </trkpt>
      <trkpt lat="42.891282" lon="0.784003">
        <ele>1460.9</ele>
        <time>2020-02-22T10:40:09Z</time>
      </trkpt>
      <trkpt lat="42.891260" lon="0.783836">
        <ele>1462.6</ele>
        <time>2020-02-22T10:40:24Z</time>
      </trkpt>
      <trkpt lat="42.891212" lon="0.783654">
        <ele>1464.9</ele>
        <time>2020-02-22T10:40:39Z</time>
      </trkpt>
      <trkpt lat="42.891200" lon="0.783511">
        <ele>1467.1</ele>
        <time>2020-02-22T10:40:58Z</time>
      </trkpt>
      <trkpt lat="42.891209" lon="0.783375">
        <ele>1470.3</ele>
        <time>2020-02-22T10:41:18Z</time>
      </trkpt>
      <trkpt lat="42.891179" lon="0.783216">
        <ele>1473.8</ele>
        <time>2020-02-22T10:41:35Z</time>
      </trkpt>
      <trkpt lat="42.891139" lon="0.783059">
        <ele>1477.2</ele>
        <time>2020-02-22T10:41:52Z</time>
      </trkpt>
      <trkpt lat="42.891124" lon="0.782913">
        <ele>1479.5</ele>
        <time>2020-02-22T10:42:05Z</time>
      </trkpt>
      <trkpt lat="42.891100" lon="0.782744">
        <ele>1483.1</ele>
        <time>2020-02-22T10:42:22Z</time>
      </trkpt>
      <trkpt lat="42.891144" lon="0.782610">
        <ele>1487.0</ele>
        <time>2020-02-22T10:42:44Z</time>
      </trkpt>
      <trkpt lat="42.891191" lon="0.782479">
        <ele>1489.6</ele>
        <time>2020-02-22T10:43:00Z</time>
      </trkpt>
      <trkpt lat="42.891222" lon="0.782350">
        <ele>1493.7</ele>
        <time>2020-02-22T10:43:17Z</time>
      </trkpt>
      <trkpt lat="42.891249" lon="0.782225">
        <ele>1496.0</ele>
        <time>2020-02-22T10:43:31Z</time>
      </trkpt>
      <trkpt lat="42.891239" lon="0.782083">
        <ele>1497.7</ele>
        <time>2020-02-22T10:43:45Z</time>
      </trkpt>
      <trkpt lat="42.891253" lon="0.782012">
        <ele>1500.2</ele>
        <time>2020-02-22T10:44:16Z</time>
      </trkpt>
      <trkpt lat="42.891291" lon="0.782023">
        <ele>1502.1</ele>
        <time>2020-02-22T10:48:46Z</time>
      </trkpt>
      <trkpt lat="42.891358" lon="0.782124">
        <ele>1503.7</ele>
        <time>2020-02-22T10:49:04Z</time>
      </trkpt>
      <trkpt lat="42.891413" lon="0.782237">
        <ele>1505.5</ele>
        <time>2020-02-22T10:49:18Z</time>
      </trkpt>
      <trkpt lat="42.891463" lon="0.782345">
        <ele>1508.8</ele>
        <time>2020-02-22T10:49:33Z</time>
      </trkpt>
      <trkpt lat="42.891531" lon="0.782437">
        <ele>1513.5</ele>
        <time>2020-02-22T10:49:55Z</time>
      </trkpt>
      <trkpt lat="42.891572" lon="0.782544">
        <ele>1518.2</ele>
        <time>2020-02-22T10:50:13Z</time>
      </trkpt>
      <trkpt lat="42.891607" lon="0.782671">
        <ele>1519.8</ele>
        <time>2020-02-22T10:50:28Z</time>
      </trkpt>
      <trkpt lat="42.891648" lon="0.782766">
        <ele>1522.2</ele>
        <time>2020-02-22T10:50:47Z</time>
      </trkpt>
      <trkpt lat="42.891702" lon="0.782872">
        <ele>1525.2</ele>
        <time>2020-02-22T10:51:15Z</time>
      </trkpt>
      <trkpt lat="42.891752" lon="0.782983">
        <ele>1528.6</ele>
        <time>2020-02-22T10:51:29Z</time>
      </trkpt>
      <trkpt lat="42.891799" lon="0.783101">
        <ele>1531.1</ele>
        <time>2020-02-22T10:51:44Z</time>
      </trkpt>
      <trkpt lat="42.891840" lon="0.783231">
        <ele>1532.8</ele>
        <time>2020-02-22T10:51:58Z</time>
      </trkpt>
      <trkpt lat="42.891890" lon="0.783358">
        <ele>1534.6</ele>
        <time>2020-02-22T10:52:13Z</time>
      </trkpt>
      <trkpt lat="42.891955" lon="0.783467">
        <ele>1537.2</ele>
        <time>2020-02-22T10:52:29Z</time>
      </trkpt>
      <trkpt lat="42.892027" lon="0.783550">
        <ele>1541.6</ele>
        <time>2020-02-22T10:52:47Z</time>
      </trkpt>
      <trkpt lat="42.892078" lon="0.783680">
        <ele>1544.5</ele>
        <time>2020-02-22T10:53:02Z</time>
      </trkpt>
      <trkpt lat="42.892142" lon="0.783788">
        <ele>1546.2</ele>
        <time>2020-02-22T10:53:17Z</time>
      </trkpt>
      <trkpt lat="42.892197" lon="0.783887">
        <ele>1548.7</ele>
        <time>2020-02-22T10:53:29Z</time>
      </trkpt>
      <trkpt lat="42.892249" lon="0.784000">
        <ele>1550.5</ele>
        <time>2020-02-22T10:53:42Z</time>
      </trkpt>
      <trkpt lat="42.892301" lon="0.784125">
        <ele>1552.3</ele>
        <time>2020-02-22T10:53:56Z</time>
      </trkpt>
      <trkpt lat="42.892323" lon="0.784243">
        <ele>1553.7</ele>
        <time>2020-02-22T10:54:07Z</time>
      </trkpt>
      <trkpt lat="42.892358" lon="0.784358">
        <ele>1553.8</ele>
        <time>2020-02-22T10:54:22Z</time>
      </trkpt>
      <trkpt lat="42.892425" lon="0.784448">
        <ele>1556.5</ele>
        <time>2020-02-22T10:54:38Z</time>
      </trkpt>
      <trkpt lat="42.892467" lon="0.784558">
        <ele>1558.3</ele>
        <time>2020-02-22T10:54:51Z</time>
      </trkpt>
      <trkpt lat="42.892509" lon="0.784674">
        <ele>1559.9</ele>
        <time>2020-02-22T10:55:04Z</time>
      </trkpt>
      <trkpt lat="42.892579" lon="0.784768">
        <ele>1562.0</ele>
        <time>2020-02-22T10:55:18Z</time>
      </trkpt>
      <trkpt lat="42.892638" lon="0.784864">
        <ele>1564.6</ele>
        <time>2020-02-22T10:55:32Z</time>
      </trkpt>
      <trkpt lat="42.892699" lon="0.784962">
        <ele>1566.5</ele>
        <time>2020-02-22T10:55:45Z</time>
      </trkpt>
      <trkpt lat="42.892757" lon="0.785061">
        <ele>1569.7</ele>
        <time>2020-02-22T10:55:59Z</time>
      </trkpt>
      <trkpt lat="42.892821" lon="0.785166">
        <ele>1572.3</ele>
        <time>2020-02-22T10:56:15Z</time>
      </trkpt>
      <trkpt lat="42.892894" lon="0.785265">
        <ele>1575.0</ele>
        <time>2020-02-22T10:56:30Z</time>
      </trkpt>
      <trkpt lat="42.892950" lon="0.785362">
        <ele>1576.0</ele>
        <time>2020-02-22T10:56:42Z</time>
      </trkpt>
      <trkpt lat="42.893043" lon="0.785425">
        <ele>1579.3</ele>
        <time>2020-02-22T10:56:59Z</time>
      </trkpt>
      <trkpt lat="42.893116" lon="0.785515">
        <ele>1581.1</ele>
        <time>2020-02-22T10:57:13Z</time>
      </trkpt>
      <trkpt lat="42.893188" lon="0.785600">
        <ele>1583.6</ele>
        <time>2020-02-22T10:57:26Z</time>
      </trkpt>
      <trkpt lat="42.893263" lon="0.785680">
        <ele>1586.2</ele>
        <time>2020-02-22T10:57:41Z</time>
      </trkpt>
      <trkpt lat="42.893335" lon="0.785769">
        <ele>1589.5</ele>
        <time>2020-02-22T10:57:58Z</time>
      </trkpt>
      <trkpt lat="42.893409" lon="0.785869">
        <ele>1592.0</ele>
        <time>2020-02-22T10:58:13Z</time>
      </trkpt>
      <trkpt lat="42.893470" lon="0.785954">
        <ele>1596.3</ele>
        <time>2020-02-22T10:58:28Z</time>
      </trkpt>
      <trkpt lat="42.893535" lon="0.786051">
        <ele>1598.8</ele>
        <time>2020-02-22T10:58:43Z</time>
      </trkpt>
      <trkpt lat="42.893605" lon="0.786143">
        <ele>1601.3</ele>
        <time>2020-02-22T10:58:56Z</time>
      </trkpt>
      <trkpt lat="42.893670" lon="0.786231">
        <ele>1603.1</ele>
        <time>2020-02-22T10:59:10Z</time>
      </trkpt>
      <trkpt lat="42.893738" lon="0.786327">
        <ele>1606.4</ele>
        <time>2020-02-22T10:59:27Z</time>
      </trkpt>
      <trkpt lat="42.893751" lon="0.786219">
        <ele>1609.6</ele>
        <time>2020-02-22T11:02:35Z</time>
      </trkpt>
      <trkpt lat="42.893787" lon="0.786104">
        <ele>1612.1</ele>
        <time>2020-02-22T11:02:53Z</time>
      </trkpt>
      <trkpt lat="42.893824" lon="0.785983">
        <ele>1615.3</ele>
        <time>2020-02-22T11:03:09Z</time>
      </trkpt>
      <trkpt lat="42.893863" lon="0.785864">
        <ele>1617.1</ele>
        <time>2020-02-22T11:03:25Z</time>
      </trkpt>
      <trkpt lat="42.893894" lon="0.785741">
        <ele>1618.7</ele>
        <time>2020-02-22T11:03:40Z</time>
      </trkpt>
      <trkpt lat="42.893925" lon="0.785620">
        <ele>1620.4</ele>
        <time>2020-02-22T11:03:53Z</time>
      </trkpt>
      <trkpt lat="42.893955" lon="0.785497">
        <ele>1622.1</ele>
        <time>2020-02-22T11:04:06Z</time>
      </trkpt>
      <trkpt lat="42.893977" lon="0.785379">
        <ele>1623.6</ele>
        <time>2020-02-22T11:04:18Z</time>
      </trkpt>
      <trkpt lat="42.894000" lon="0.785254">
        <ele>1625.2</ele>
        <time>2020-02-22T11:04:31Z</time>
      </trkpt>
      <trkpt lat="42.894044" lon="0.785154">
        <ele>1627.8</ele>
        <time>2020-02-22T11:04:43Z</time>
      </trkpt>
      <trkpt lat="42.894073" lon="0.785036">
        <ele>1628.6</ele>
        <time>2020-02-22T11:04:55Z</time>
      </trkpt>
      <trkpt lat="42.894100" lon="0.784931">
        <ele>1629.5</ele>
        <time>2020-02-22T11:05:06Z</time>
      </trkpt>
      <trkpt lat="42.894136" lon="0.784803">
        <ele>1631.2</ele>
        <time>2020-02-22T11:05:19Z</time>
      </trkpt>
      <trkpt lat="42.894157" lon="0.784672">
        <ele>1632.9</ele>
        <time>2020-02-22T11:05:32Z</time>
      </trkpt>
      <trkpt lat="42.894178" lon="0.784553">
        <ele>1635.2</ele>
        <time>2020-02-22T11:05:47Z</time>
      </trkpt>
      <trkpt lat="42.894163" lon="0.784419">
        <ele>1636.2</ele>
        <time>2020-02-22T11:05:59Z</time>
      </trkpt>
      <trkpt lat="42.894158" lon="0.784287">
        <ele>1636.2</ele>
        <time>2020-02-22T11:06:09Z</time>
      </trkpt>
      <trkpt lat="42.894156" lon="0.784156">
        <ele>1637.0</ele>
        <time>2020-02-22T11:06:20Z</time>
      </trkpt>
      <trkpt lat="42.894141" lon="0.784032">
        <ele>1637.8</ele>
        <time>2020-02-22T11:06:31Z</time>
      </trkpt>
      <trkpt lat="42.894111" lon="0.783904">
        <ele>1638.7</ele>
        <time>2020-02-22T11:06:58Z</time>
      </trkpt>
      <trkpt lat="42.894090" lon="0.783783">
        <ele>1641.2</ele>
        <time>2020-02-22T11:07:12Z</time>
      </trkpt>
      <trkpt lat="42.894056" lon="0.783663">
        <ele>1642.2</ele>
        <time>2020-02-22T11:07:25Z</time>
      </trkpt>
      <trkpt lat="42.894045" lon="0.783539">
        <ele>1644.1</ele>
        <time>2020-02-22T11:07:38Z</time>
      </trkpt>
      <trkpt lat="42.894028" lon="0.783420">
        <ele>1646.5</ele>
        <time>2020-02-22T11:07:51Z</time>
      </trkpt>
      <trkpt lat="42.894012" lon="0.783297">
        <ele>1648.2</ele>
        <time>2020-02-22T11:08:04Z</time>
      </trkpt>
      <trkpt lat="42.893997" lon="0.783177">
        <ele>1651.2</ele>
        <time>2020-02-22T11:08:21Z</time>
      </trkpt>
      <trkpt lat="42.893975" lon="0.783052">
        <ele>1654.1</ele>
        <time>2020-02-22T11:08:38Z</time>
      </trkpt>
      <trkpt lat="42.893961" lon="0.782922">
        <ele>1656.0</ele>
        <time>2020-02-22T11:08:53Z</time>
      </trkpt>
      <trkpt lat="42.893973" lon="0.782796">
        <ele>1659.0</ele>
        <time>2020-02-22T11:09:09Z</time>
      </trkpt>
      <trkpt lat="42.893998" lon="0.782678">
        <ele>1661.3</ele>
        <time>2020-02-22T11:09:25Z</time>
      </trkpt>
      <trkpt lat="42.894050" lon="0.782575">
        <ele>1664.1</ele>
        <time>2020-02-22T11:09:42Z</time>
      </trkpt>
      <trkpt lat="42.894102" lon="0.782461">
        <ele>1666.7</ele>
        <time>2020-02-22T11:09:59Z</time>
      </trkpt>
      <trkpt lat="42.894172" lon="0.782371">
        <ele>1670.5</ele>
        <time>2020-02-22T11:10:17Z</time>
      </trkpt>
      <trkpt lat="42.894265" lon="0.782381">
        <ele>1672.3</ele>
        <time>2020-02-22T11:10:31Z</time>
      </trkpt>
      <trkpt lat="42.894366" lon="0.782397">
        <ele>1675.0</ele>
        <time>2020-02-22T11:10:46Z</time>
      </trkpt>
      <trkpt lat="42.894461" lon="0.782409">
        <ele>1678.4</ele>
        <time>2020-02-22T11:11:00Z</time>
      </trkpt>
      <trkpt lat="42.894553" lon="0.782400">
        <ele>1680.2</ele>
        <time>2020-02-22T11:11:16Z</time>
      </trkpt>
      <trkpt lat="42.894584" lon="0.782301">
        <ele>1680.9</ele>
        <time>2020-02-22T11:11:33Z</time>
      </trkpt>
      <trkpt lat="42.894568" lon="0.782179">
        <ele>1683.5</ele>
        <time>2020-02-22T11:11:49Z</time>
      </trkpt>
      <trkpt lat="42.894547" lon="0.782053">
        <ele>1686.4</ele>
        <time>2020-02-22T11:12:04Z</time>
      </trkpt>
      <trkpt lat="42.894561" lon="0.781944">
        <ele>1690.0</ele>
        <time>2020-02-22T11:12:21Z</time>
      </trkpt>
      <trkpt lat="42.894495" lon="0.781859">
        <ele>1692.6</ele>
        <time>2020-02-22T11:12:36Z</time>
      </trkpt>
      <trkpt lat="42.894433" lon="0.781766">
        <ele>1694.2</ele>
        <time>2020-02-22T11:12:49Z</time>
      </trkpt>
      <trkpt lat="42.894390" lon="0.781644">
        <ele>1697.6</ele>
        <time>2020-02-22T11:13:05Z</time>
      </trkpt>
      <trkpt lat="42.894345" lon="0.781528">
        <ele>1699.3</ele>
        <time>2020-02-22T11:13:19Z</time>
      </trkpt>
      <trkpt lat="42.894314" lon="0.781401">
        <ele>1701.9</ele>
        <time>2020-02-22T11:13:33Z</time>
      </trkpt>
      <trkpt lat="42.894291" lon="0.781278">
        <ele>1703.9</ele>
        <time>2020-02-22T11:13:47Z</time>
      </trkpt>
      <trkpt lat="42.894289" lon="0.781156">
        <ele>1707.2</ele>
        <time>2020-02-22T11:14:02Z</time>
      </trkpt>
      <trkpt lat="42.894289" lon="0.781029">
        <ele>1709.7</ele>
        <time>2020-02-22T11:14:19Z</time>
      </trkpt>
      <trkpt lat="42.894347" lon="0.781006">
        <ele>1712.3</ele>
        <time>2020-02-22T11:14:36Z</time>
      </trkpt>
      <trkpt lat="42.894446" lon="0.781026">
        <ele>1715.9</ele>
        <time>2020-02-22T11:14:52Z</time>
      </trkpt>
      <trkpt lat="42.894544" lon="0.781028">
        <ele>1717.5</ele>
        <time>2020-02-22T11:15:08Z</time>
      </trkpt>
      <trkpt lat="42.894636" lon="0.781012">
        <ele>1720.1</ele>
        <time>2020-02-22T11:15:23Z</time>
      </trkpt>
      <trkpt lat="42.894695" lon="0.780965">
        <ele>1722.5</ele>
        <time>2020-02-22T11:16:46Z</time>
      </trkpt>
      <trkpt lat="42.894697" lon="0.780917">
        <ele>1723.9</ele>
        <time>2020-02-22T11:20:52Z</time>
      </trkpt>
      <trkpt lat="42.894727" lon="0.780808">
        <ele>1726.7</ele>
        <time>2020-02-22T11:21:10Z</time>
      </trkpt>
      <trkpt lat="42.894787" lon="0.780706">
        <ele>1729.6</ele>
        <time>2020-02-22T11:21:24Z</time>
      </trkpt>
      <trkpt lat="42.894835" lon="0.780608">
        <ele>1731.6</ele>
        <time>2020-02-22T11:21:37Z</time>
      </trkpt>
      <trkpt lat="42.894880" lon="0.780513">
        <ele>1733.2</ele>
        <time>2020-02-22T11:21:51Z</time>
      </trkpt>
      <trkpt lat="42.894916" lon="0.780413">
        <ele>1734.9</ele>
        <time>2020-02-22T11:22:33Z</time>
      </trkpt>
      <trkpt lat="42.894889" lon="0.780312">
        <ele>1737.0</ele>
        <time>2020-02-22T11:22:50Z</time>
      </trkpt>
      <trkpt lat="42.894914" lon="0.780196">
        <ele>1738.7</ele>
        <time>2020-02-22T11:23:02Z</time>
      </trkpt>
      <trkpt lat="42.894894" lon="0.780084">
        <ele>1741.0</ele>
        <time>2020-02-22T11:23:25Z</time>
      </trkpt>
      <trkpt lat="42.894812" lon="0.780021">
        <ele>1742.8</ele>
        <time>2020-02-22T11:23:37Z</time>
      </trkpt>
      <trkpt lat="42.894740" lon="0.779944">
        <ele>1744.5</ele>
        <time>2020-02-22T11:23:49Z</time>
      </trkpt>
      <trkpt lat="42.894708" lon="0.779830">
        <ele>1746.2</ele>
        <time>2020-02-22T11:24:00Z</time>
      </trkpt>
      <trkpt lat="42.894682" lon="0.779714">
        <ele>1748.1</ele>
        <time>2020-02-22T11:24:11Z</time>
      </trkpt>
      <trkpt lat="42.894680" lon="0.779586">
        <ele>1750.6</ele>
        <time>2020-02-22T11:24:25Z</time>
      </trkpt>
      <trkpt lat="42.894680" lon="0.779461">
        <ele>1752.3</ele>
        <time>2020-02-22T11:24:39Z</time>
      </trkpt>
      <trkpt lat="42.894683" lon="0.779330">
        <ele>1754.8</ele>
        <time>2020-02-22T11:24:52Z</time>
      </trkpt>
      <trkpt lat="42.894683" lon="0.779193">
        <ele>1757.5</ele>
        <time>2020-02-22T11:25:05Z</time>
      </trkpt>
      <trkpt lat="42.894686" lon="0.779056">
        <ele>1759.3</ele>
        <time>2020-02-22T11:25:20Z</time>
      </trkpt>
      <trkpt lat="42.894695" lon="0.778929">
        <ele>1761.7</ele>
        <time>2020-02-22T11:25:33Z</time>
      </trkpt>
      <trkpt lat="42.894708" lon="0.778801">
        <ele>1765.5</ele>
        <time>2020-02-22T11:25:48Z</time>
      </trkpt>
      <trkpt lat="42.894716" lon="0.778671">
        <ele>1768.2</ele>
        <time>2020-02-22T11:26:04Z</time>
      </trkpt>
      <trkpt lat="42.894710" lon="0.778541">
        <ele>1771.4</ele>
        <time>2020-02-22T11:26:21Z</time>
      </trkpt>
      <trkpt lat="42.894703" lon="0.778410">
        <ele>1773.4</ele>
        <time>2020-02-22T11:26:37Z</time>
      </trkpt>
      <trkpt lat="42.894695" lon="0.778277">
        <ele>1776.9</ele>
        <time>2020-02-22T11:26:52Z</time>
      </trkpt>
      <trkpt lat="42.894695" lon="0.778145">
        <ele>1779.4</ele>
        <time>2020-02-22T11:27:07Z</time>
      </trkpt>
      <trkpt lat="42.894724" lon="0.778022">
        <ele>1781.1</ele>
        <time>2020-02-22T11:27:20Z</time>
      </trkpt>
      <trkpt lat="42.894765" lon="0.777903">
        <ele>1781.9</ele>
        <time>2020-02-22T11:27:32Z</time>
      </trkpt>
      <trkpt lat="42.894795" lon="0.777784">
        <ele>1782.7</ele>
        <time>2020-02-22T11:27:43Z</time>
      </trkpt>
      <trkpt lat="42.894820" lon="0.777651">
        <ele>1782.7</ele>
        <time>2020-02-22T11:27:55Z</time>
      </trkpt>
      <trkpt lat="42.894842" lon="0.777525">
        <ele>1783.5</ele>
        <time>2020-02-22T11:28:08Z</time>
      </trkpt>
      <trkpt lat="42.894863" lon="0.777397">
        <ele>1783.5</ele>
        <time>2020-02-22T11:28:23Z</time>
      </trkpt>
      <trkpt lat="42.894819" lon="0.777356">
        <ele>1784.5</ele>
        <time>2020-02-22T11:31:41Z</time>
      </trkpt>
      <trkpt lat="42.894825" lon="0.777260">
        <ele>1785.3</ele>
        <time>2020-02-22T11:32:49Z</time>
      </trkpt>
      <trkpt lat="42.894841" lon="0.777191">
        <ele>1785.3</ele>
        <time>2020-02-22T11:33:54Z</time>
      </trkpt>
      <trkpt lat="42.894884" lon="0.777092">
        <ele>1782.9</ele>
        <time>2020-02-22T11:34:08Z</time>
      </trkpt>
      <trkpt lat="42.894878" lon="0.776961">
        <ele>1780.5</ele>
        <time>2020-02-22T11:34:28Z</time>
      </trkpt>
      <trkpt lat="42.894911" lon="0.776824">
        <ele>1778.9</ele>
        <time>2020-02-22T11:34:40Z</time>
      </trkpt>
      <trkpt lat="42.894958" lon="0.776706">
        <ele>1777.2</ele>
        <time>2020-02-22T11:34:50Z</time>
      </trkpt>
      <trkpt lat="42.894996" lon="0.776585">
        <ele>1776.3</ele>
        <time>2020-02-22T11:35:00Z</time>
      </trkpt>
      <trkpt lat="42.895037" lon="0.776464">
        <ele>1775.6</ele>
        <time>2020-02-22T11:35:10Z</time>
      </trkpt>
      <trkpt lat="42.895078" lon="0.776344">
        <ele>1774.8</ele>
        <time>2020-02-22T11:35:20Z</time>
      </trkpt>
      <trkpt lat="42.895118" lon="0.776233">
        <ele>1774.0</ele>
        <time>2020-02-22T11:35:29Z</time>
      </trkpt>
      <trkpt lat="42.895181" lon="0.776134">
        <ele>1774.0</ele>
        <time>2020-02-22T11:35:39Z</time>
      </trkpt>
      <trkpt lat="42.895235" lon="0.776012">
        <ele>1774.0</ele>
        <time>2020-02-22T11:35:49Z</time>
      </trkpt>
      <trkpt lat="42.895279" lon="0.775888">
        <ele>1774.0</ele>
        <time>2020-02-22T11:35:58Z</time>
      </trkpt>
      <trkpt lat="42.895319" lon="0.775773">
        <ele>1774.0</ele>
        <time>2020-02-22T11:36:07Z</time>
      </trkpt>
      <trkpt lat="42.895381" lon="0.775671">
        <ele>1776.2</ele>
        <time>2020-02-22T11:36:17Z</time>
      </trkpt>
      <trkpt lat="42.895435" lon="0.775560">
        <ele>1777.9</ele>
        <time>2020-02-22T11:36:27Z</time>
      </trkpt>
      <trkpt lat="42.895485" lon="0.775448">
        <ele>1779.7</ele>
        <time>2020-02-22T11:36:37Z</time>
      </trkpt>
      <trkpt lat="42.895557" lon="0.775374">
        <ele>1780.5</ele>
        <time>2020-02-22T11:36:46Z</time>
      </trkpt>
      <trkpt lat="42.895631" lon="0.775301">
        <ele>1780.5</ele>
        <time>2020-02-22T11:36:54Z</time>
      </trkpt>
      <trkpt lat="42.895704" lon="0.775226">
        <ele>1780.5</ele>
        <time>2020-02-22T11:37:02Z</time>
      </trkpt>
      <trkpt lat="42.895783" lon="0.775164">
        <ele>1780.5</ele>
        <time>2020-02-22T11:37:10Z</time>
      </trkpt>
      <trkpt lat="42.895856" lon="0.775077">
        <ele>1780.5</ele>
        <time>2020-02-22T11:37:20Z</time>
      </trkpt>
      <trkpt lat="42.895928" lon="0.774994">
        <ele>1781.4</ele>
        <time>2020-02-22T11:37:29Z</time>
      </trkpt>
      <trkpt lat="42.896005" lon="0.774916">
        <ele>1781.4</ele>
        <time>2020-02-22T11:37:38Z</time>
      </trkpt>
      <trkpt lat="42.896074" lon="0.774825">
        <ele>1781.4</ele>
        <time>2020-02-22T11:37:46Z</time>
      </trkpt>
      <trkpt lat="42.896150" lon="0.774758">
        <ele>1779.0</ele>
        <time>2020-02-22T11:37:54Z</time>
      </trkpt>
      <trkpt lat="42.896234" lon="0.774687">
        <ele>1779.1</ele>
        <time>2020-02-22T11:38:03Z</time>
      </trkpt>
      <trkpt lat="42.896320" lon="0.774641">
        <ele>1779.0</ele>
        <time>2020-02-22T11:38:12Z</time>
      </trkpt>
      <trkpt lat="42.896398" lon="0.774579">
        <ele>1778.3</ele>
        <time>2020-02-22T11:38:21Z</time>
      </trkpt>
      <trkpt lat="42.896447" lon="0.774492">
        <ele>1775.5</ele>
        <time>2020-02-22T11:38:30Z</time>
      </trkpt>
      <trkpt lat="42.896529" lon="0.774436">
        <ele>1772.4</ele>
        <time>2020-02-22T11:38:39Z</time>
      </trkpt>
      <trkpt lat="42.896623" lon="0.774401">
        <ele>1769.8</ele>
        <time>2020-02-22T11:38:49Z</time>
      </trkpt>
      <trkpt lat="42.896709" lon="0.774340">
        <ele>1767.3</ele>
        <time>2020-02-22T11:38:58Z</time>
      </trkpt>
      <trkpt lat="42.896792" lon="0.774286">
        <ele>1765.7</ele>
        <time>2020-02-22T11:39:07Z</time>
      </trkpt>
      <trkpt lat="42.896881" lon="0.774230">
        <ele>1764.8</ele>
        <time>2020-02-22T11:39:16Z</time>
      </trkpt>
      <trkpt lat="42.896971" lon="0.774198">
        <ele>1764.0</ele>
        <time>2020-02-22T11:39:25Z</time>
      </trkpt>
      <trkpt lat="42.897066" lon="0.774157">
        <ele>1762.4</ele>
        <time>2020-02-22T11:39:34Z</time>
      </trkpt>
      <trkpt lat="42.897164" lon="0.774120">
        <ele>1762.4</ele>
        <time>2020-02-22T11:39:43Z</time>
      </trkpt>
      <trkpt lat="42.897260" lon="0.774074">
        <ele>1762.4</ele>
        <time>2020-02-22T11:39:52Z</time>
      </trkpt>
      <trkpt lat="42.897351" lon="0.774070">
        <ele>1762.4</ele>
        <time>2020-02-22T11:40:00Z</time>
      </trkpt>
      <trkpt lat="42.897436" lon="0.774028">
        <ele>1762.4</ele>
        <time>2020-02-22T11:40:09Z</time>
      </trkpt>
      <trkpt lat="42.897522" lon="0.773967">
        <ele>1764.7</ele>
        <time>2020-02-22T11:40:18Z</time>
      </trkpt>
      <trkpt lat="42.897615" lon="0.773908">
        <ele>1765.5</ele>
        <time>2020-02-22T11:40:28Z</time>
      </trkpt>
      <trkpt lat="42.897710" lon="0.773874">
        <ele>1766.3</ele>
        <time>2020-02-22T11:40:38Z</time>
      </trkpt>
      <trkpt lat="42.897812" lon="0.773869">
        <ele>1767.0</ele>
        <time>2020-02-22T11:40:49Z</time>
      </trkpt>
      <trkpt lat="42.897912" lon="0.773867">
        <ele>1767.8</ele>
        <time>2020-02-22T11:40:58Z</time>
      </trkpt>
      <trkpt lat="42.898011" lon="0.773858">
        <ele>1768.6</ele>
        <time>2020-02-22T11:41:07Z</time>
      </trkpt>
      <trkpt lat="42.898112" lon="0.773862">
        <ele>1769.4</ele>
        <time>2020-02-22T11:41:16Z</time>
      </trkpt>
      <trkpt lat="42.898214" lon="0.773868">
        <ele>1769.4</ele>
        <time>2020-02-22T11:41:25Z</time>
      </trkpt>
      <trkpt lat="42.898311" lon="0.773887">
        <ele>1769.4</ele>
        <time>2020-02-22T11:41:34Z</time>
      </trkpt>
      <trkpt lat="42.898401" lon="0.773902">
        <ele>1769.3</ele>
        <time>2020-02-22T11:41:42Z</time>
      </trkpt>
      <trkpt lat="42.898494" lon="0.773905">
        <ele>1769.3</ele>
        <time>2020-02-22T11:41:50Z</time>
      </trkpt>
      <trkpt lat="42.898588" lon="0.773883">
        <ele>1769.3</ele>
        <time>2020-02-22T11:41:58Z</time>
      </trkpt>
      <trkpt lat="42.898680" lon="0.773863">
        <ele>1769.3</ele>
        <time>2020-02-22T11:42:06Z</time>
      </trkpt>
      <trkpt lat="42.898776" lon="0.773833">
        <ele>1770.2</ele>
        <time>2020-02-22T11:42:15Z</time>
      </trkpt>
      <trkpt lat="42.898871" lon="0.773797">
        <ele>1771.0</ele>
        <time>2020-02-22T11:42:24Z</time>
      </trkpt>
      <trkpt lat="42.898953" lon="0.773741">
        <ele>1770.9</ele>
        <time>2020-02-22T11:43:05Z</time>
      </trkpt>
      <trkpt lat="42.899049" lon="0.773706">
        <ele>1770.9</ele>
        <time>2020-02-22T11:43:14Z</time>
      </trkpt>
      <trkpt lat="42.899142" lon="0.773685">
        <ele>1771.0</ele>
        <time>2020-02-22T11:43:22Z</time>
      </trkpt>
      <trkpt lat="42.899230" lon="0.773649">
        <ele>1771.8</ele>
        <time>2020-02-22T11:43:30Z</time>
      </trkpt>
      <trkpt lat="42.899317" lon="0.773604">
        <ele>1771.8</ele>
        <time>2020-02-22T11:43:38Z</time>
      </trkpt>
      <trkpt lat="42.899398" lon="0.773540">
        <ele>1771.7</ele>
        <time>2020-02-22T11:43:46Z</time>
      </trkpt>
      <trkpt lat="42.899483" lon="0.773483">
        <ele>1771.7</ele>
        <time>2020-02-22T11:43:54Z</time>
      </trkpt>
      <trkpt lat="42.899566" lon="0.773403">
        <ele>1771.7</ele>
        <time>2020-02-22T11:44:03Z</time>
      </trkpt>
      <trkpt lat="42.899649" lon="0.773351">
        <ele>1771.7</ele>
        <time>2020-02-22T11:44:12Z</time>
      </trkpt>
      <trkpt lat="42.899720" lon="0.773263">
        <ele>1772.7</ele>
        <time>2020-02-22T11:44:21Z</time>
      </trkpt>
      <trkpt lat="42.899793" lon="0.773176">
        <ele>1772.6</ele>
        <time>2020-02-22T11:44:30Z</time>
      </trkpt>
      <trkpt lat="42.899879" lon="0.773100">
        <ele>1773.5</ele>
        <time>2020-02-22T11:44:39Z</time>
      </trkpt>
      <trkpt lat="42.899953" lon="0.772999">
        <ele>1773.5</ele>
        <time>2020-02-22T11:44:48Z</time>
      </trkpt>
      <trkpt lat="42.900003" lon="0.772888">
        <ele>1773.4</ele>
        <time>2020-02-22T11:44:56Z</time>
      </trkpt>
      <trkpt lat="42.900065" lon="0.772788">
        <ele>1773.4</ele>
        <time>2020-02-22T11:45:05Z</time>
      </trkpt>
      <trkpt lat="42.900118" lon="0.772687">
        <ele>1774.2</ele>
        <time>2020-02-22T11:45:13Z</time>
      </trkpt>
      <trkpt lat="42.900172" lon="0.772573">
        <ele>1774.2</ele>
        <time>2020-02-22T11:45:22Z</time>
      </trkpt>
      <trkpt lat="42.900209" lon="0.772458">
        <ele>1775.0</ele>
        <time>2020-02-22T11:45:30Z</time>
      </trkpt>
      <trkpt lat="42.900251" lon="0.772338">
        <ele>1774.9</ele>
        <time>2020-02-22T11:45:39Z</time>
      </trkpt>
      <trkpt lat="42.900299" lon="0.772222">
        <ele>1774.9</ele>
        <time>2020-02-22T11:45:48Z</time>
      </trkpt>
      <trkpt lat="42.900346" lon="0.772096">
        <ele>1774.9</ele>
        <time>2020-02-22T11:45:57Z</time>
      </trkpt>
      <trkpt lat="42.900385" lon="0.771981">
        <ele>1774.9</ele>
        <time>2020-02-22T11:46:05Z</time>
      </trkpt>
      <trkpt lat="42.900430" lon="0.771859">
        <ele>1774.8</ele>
        <time>2020-02-22T11:46:14Z</time>
      </trkpt>
      <trkpt lat="42.900479" lon="0.771747">
        <ele>1774.8</ele>
        <time>2020-02-22T11:46:22Z</time>
      </trkpt>
      <trkpt lat="42.900529" lon="0.771634">
        <ele>1774.7</ele>
        <time>2020-02-22T11:46:30Z</time>
      </trkpt>
      <trkpt lat="42.900582" lon="0.771533">
        <ele>1771.5</ele>
        <time>2020-02-22T11:46:38Z</time>
      </trkpt>
      <trkpt lat="42.900646" lon="0.771440">
        <ele>1771.5</ele>
        <time>2020-02-22T11:46:46Z</time>
      </trkpt>
      <trkpt lat="42.900712" lon="0.771358">
        <ele>1770.5</ele>
        <time>2020-02-22T11:46:54Z</time>
      </trkpt>
      <trkpt lat="42.900768" lon="0.771260">
        <ele>1769.7</ele>
        <time>2020-02-22T11:47:02Z</time>
      </trkpt>
      <trkpt lat="42.900822" lon="0.771149">
        <ele>1768.7</ele>
        <time>2020-02-22T11:47:10Z</time>
      </trkpt>
      <trkpt lat="42.900874" lon="0.771042">
        <ele>1768.7</ele>
        <time>2020-02-22T11:47:19Z</time>
      </trkpt>
      <trkpt lat="42.900939" lon="0.770955">
        <ele>1768.7</ele>
        <time>2020-02-22T11:47:28Z</time>
      </trkpt>
      <trkpt lat="42.900977" lon="0.770832">
        <ele>1768.7</ele>
        <time>2020-02-22T11:47:36Z</time>
      </trkpt>
      <trkpt lat="42.901014" lon="0.770717">
        <ele>1768.6</ele>
        <time>2020-02-22T11:47:44Z</time>
      </trkpt>
      <trkpt lat="42.901051" lon="0.770592">
        <ele>1767.9</ele>
        <time>2020-02-22T11:47:52Z</time>
      </trkpt>
      <trkpt lat="42.901091" lon="0.770474">
        <ele>1767.1</ele>
        <time>2020-02-22T11:48:00Z</time>
      </trkpt>
      <trkpt lat="42.901132" lon="0.770359">
        <ele>1767.1</ele>
        <time>2020-02-22T11:48:08Z</time>
      </trkpt>
      <trkpt lat="42.901184" lon="0.770246">
        <ele>1767.1</ele>
        <time>2020-02-22T11:48:17Z</time>
      </trkpt>
      <trkpt lat="42.901221" lon="0.770120">
        <ele>1767.1</ele>
        <time>2020-02-22T11:48:27Z</time>
      </trkpt>
      <trkpt lat="42.901266" lon="0.770004">
        <ele>1767.1</ele>
        <time>2020-02-22T11:48:37Z</time>
      </trkpt>
      <trkpt lat="42.901330" lon="0.769913">
        <ele>1769.5</ele>
        <time>2020-02-22T11:48:46Z</time>
      </trkpt>
      <trkpt lat="42.901413" lon="0.769867">
        <ele>1770.2</ele>
        <time>2020-02-22T11:48:55Z</time>
      </trkpt>
      <trkpt lat="42.901500" lon="0.769835">
        <ele>1772.2</ele>
        <time>2020-02-22T11:49:12Z</time>
      </trkpt>
      <trkpt lat="42.901541" lon="0.769717">
        <ele>1772.2</ele>
        <time>2020-02-22T11:49:22Z</time>
      </trkpt>
      <trkpt lat="42.901558" lon="0.769590">
        <ele>1772.1</ele>
        <time>2020-02-22T11:49:30Z</time>
      </trkpt>
      <trkpt lat="42.901581" lon="0.769467">
        <ele>1772.9</ele>
        <time>2020-02-22T11:49:39Z</time>
      </trkpt>
      <trkpt lat="42.901628" lon="0.769362">
        <ele>1773.8</ele>
        <time>2020-02-22T11:49:49Z</time>
      </trkpt>
      <trkpt lat="42.901684" lon="0.769252">
        <ele>1774.5</ele>
        <time>2020-02-22T11:50:01Z</time>
      </trkpt>
      <trkpt lat="42.901738" lon="0.769137">
        <ele>1775.4</ele>
        <time>2020-02-22T11:50:13Z</time>
      </trkpt>
      <trkpt lat="42.901777" lon="0.769009">
        <ele>1776.2</ele>
        <time>2020-02-22T11:50:27Z</time>
      </trkpt>
      <trkpt lat="42.901841" lon="0.768904">
        <ele>1778.9</ele>
        <time>2020-02-22T11:50:41Z</time>
      </trkpt>
      <trkpt lat="42.901893" lon="0.768773">
        <ele>1780.7</ele>
        <time>2020-02-22T11:50:54Z</time>
      </trkpt>
      <trkpt lat="42.901943" lon="0.768647">
        <ele>1783.0</ele>
        <time>2020-02-22T11:51:05Z</time>
      </trkpt>
      <trkpt lat="42.902013" lon="0.768548">
        <ele>1784.6</ele>
        <time>2020-02-22T11:51:16Z</time>
      </trkpt>
      <trkpt lat="42.902077" lon="0.768450">
        <ele>1786.3</ele>
        <time>2020-02-22T11:51:28Z</time>
      </trkpt>
      <trkpt lat="42.902135" lon="0.768346">
        <ele>1787.9</ele>
        <time>2020-02-22T11:51:40Z</time>
      </trkpt>
      <trkpt lat="42.902171" lon="0.768231">
        <ele>1790.4</ele>
        <time>2020-02-22T11:51:51Z</time>
      </trkpt>
      <trkpt lat="42.902194" lon="0.768110">
        <ele>1792.1</ele>
        <time>2020-02-22T11:52:06Z</time>
      </trkpt>
      <trkpt lat="42.902198" lon="0.767982">
        <ele>1793.8</ele>
        <time>2020-02-22T11:52:17Z</time>
      </trkpt>
      <trkpt lat="42.902205" lon="0.767846">
        <ele>1794.6</ele>
        <time>2020-02-22T11:52:28Z</time>
      </trkpt>
      <trkpt lat="42.902226" lon="0.767718">
        <ele>1794.5</ele>
        <time>2020-02-22T11:52:38Z</time>
      </trkpt>
      <trkpt lat="42.902255" lon="0.767587">
        <ele>1795.3</ele>
        <time>2020-02-22T11:52:49Z</time>
      </trkpt>
      <trkpt lat="42.902298" lon="0.767486">
        <ele>1795.3</ele>
        <time>2020-02-22T11:53:01Z</time>
      </trkpt>
      <trkpt lat="42.902291" lon="0.767395">
        <ele>1796.0</ele>
        <time>2020-02-22T11:53:16Z</time>
      </trkpt>
      <trkpt lat="42.902225" lon="0.767301">
        <ele>1796.1</ele>
        <time>2020-02-22T11:53:26Z</time>
      </trkpt>
      <trkpt lat="42.902191" lon="0.767188">
        <ele>1796.8</ele>
        <time>2020-02-22T11:53:35Z</time>
      </trkpt>
      <trkpt lat="42.902164" lon="0.767052">
        <ele>1798.3</ele>
        <time>2020-02-22T11:53:45Z</time>
      </trkpt>
      <trkpt lat="42.902144" lon="0.766925">
        <ele>1800.2</ele>
        <time>2020-02-22T11:53:54Z</time>
      </trkpt>
      <trkpt lat="42.902122" lon="0.766804">
        <ele>1801.0</ele>
        <time>2020-02-22T11:54:03Z</time>
      </trkpt>
      <trkpt lat="42.902090" lon="0.766684">
        <ele>1802.8</ele>
        <time>2020-02-22T11:54:13Z</time>
      </trkpt>
      <trkpt lat="42.902042" lon="0.766581">
        <ele>1805.3</ele>
        <time>2020-02-22T11:54:24Z</time>
      </trkpt>
      <trkpt lat="42.902001" lon="0.766465">
        <ele>1807.6</ele>
        <time>2020-02-22T11:54:35Z</time>
      </trkpt>
      <trkpt lat="42.901998" lon="0.766342">
        <ele>1808.4</ele>
        <time>2020-02-22T11:54:45Z</time>
      </trkpt>
      <trkpt lat="42.901989" lon="0.766210">
        <ele>1810.0</ele>
        <time>2020-02-22T11:54:57Z</time>
      </trkpt>
      <trkpt lat="42.901996" lon="0.766151">
        <ele>1812.3</ele>
        <time>2020-02-22T12:53:31Z</time>
      </trkpt>
      <trkpt lat="42.901999" lon="0.766047">
        <ele>1812.9</ele>
        <time>2020-02-22T12:56:17Z</time>
      </trkpt>
      <trkpt lat="42.902003" lon="0.765925">
        <ele>1812.8</ele>
        <time>2020-02-22T12:57:07Z</time>
      </trkpt>
      <trkpt lat="42.901964" lon="0.765815">
        <ele>1810.3</ele>
        <time>2020-02-22T12:57:17Z</time>
      </trkpt>
      <trkpt lat="42.901986" lon="0.765701">
        <ele>1808.4</ele>
        <time>2020-02-22T12:57:30Z</time>
      </trkpt>
      <trkpt lat="42.901969" lon="0.765574">
        <ele>1807.6</ele>
        <time>2020-02-22T12:57:42Z</time>
      </trkpt>
      <trkpt lat="42.901982" lon="0.765449">
        <ele>1806.6</ele>
        <time>2020-02-22T12:57:54Z</time>
      </trkpt>
      <trkpt lat="42.901984" lon="0.765325">
        <ele>1805.7</ele>
        <time>2020-02-22T12:58:07Z</time>
      </trkpt>
      <trkpt lat="42.901968" lon="0.765206">
        <ele>1803.2</ele>
        <time>2020-02-22T12:58:24Z</time>
      </trkpt>
      <trkpt lat="42.901958" lon="0.765083">
        <ele>1801.5</ele>
        <time>2020-02-22T12:58:35Z</time>
      </trkpt>
      <trkpt lat="42.901952" lon="0.764959">
        <ele>1799.7</ele>
        <time>2020-02-22T12:58:46Z</time>
      </trkpt>
      <trkpt lat="42.901945" lon="0.764832">
        <ele>1797.9</ele>
        <time>2020-02-22T12:58:59Z</time>
      </trkpt>
      <trkpt lat="42.901937" lon="0.764706">
        <ele>1794.4</ele>
        <time>2020-02-22T12:59:12Z</time>
      </trkpt>
      <trkpt lat="42.901930" lon="0.764571">
        <ele>1791.5</ele>
        <time>2020-02-22T12:59:24Z</time>
      </trkpt>
      <trkpt lat="42.901925" lon="0.764446">
        <ele>1787.9</ele>
        <time>2020-02-22T12:59:43Z</time>
      </trkpt>
      <trkpt lat="42.901906" lon="0.764346">
        <ele>1785.2</ele>
        <time>2020-02-22T13:00:12Z</time>
      </trkpt>
      <trkpt lat="42.901897" lon="0.764217">
        <ele>1781.3</ele>
        <time>2020-02-22T13:00:24Z</time>
      </trkpt>
      <trkpt lat="42.901896" lon="0.764090">
        <ele>1778.3</ele>
        <time>2020-02-22T13:00:35Z</time>
      </trkpt>
      <trkpt lat="42.901860" lon="0.763960">
        <ele>1775.7</ele>
        <time>2020-02-22T13:00:46Z</time>
      </trkpt>
      <trkpt lat="42.901818" lon="0.763832">
        <ele>1772.9</ele>
        <time>2020-02-22T13:00:58Z</time>
      </trkpt>
      <trkpt lat="42.901795" lon="0.763720">
        <ele>1770.2</ele>
        <time>2020-02-22T13:01:20Z</time>
      </trkpt>
      <trkpt lat="42.901769" lon="0.763598">
        <ele>1768.4</ele>
        <time>2020-02-22T13:01:31Z</time>
      </trkpt>
      <trkpt lat="42.901759" lon="0.763457">
        <ele>1767.7</ele>
        <time>2020-02-22T13:01:43Z</time>
      </trkpt>
      <trkpt lat="42.901763" lon="0.763336">
        <ele>1766.9</ele>
        <time>2020-02-22T13:01:52Z</time>
      </trkpt>
      <trkpt lat="42.901752" lon="0.763209">
        <ele>1764.9</ele>
        <time>2020-02-22T13:02:01Z</time>
      </trkpt>
      <trkpt lat="42.901742" lon="0.763076">
        <ele>1765.0</ele>
        <time>2020-02-22T13:02:11Z</time>
      </trkpt>
      <trkpt lat="42.901730" lon="0.762946">
        <ele>1765.0</ele>
        <time>2020-02-22T13:02:22Z</time>
      </trkpt>
      <trkpt lat="42.901706" lon="0.762813">
        <ele>1765.0</ele>
        <time>2020-02-22T13:02:34Z</time>
      </trkpt>
      <trkpt lat="42.901699" lon="0.762690">
        <ele>1768.2</ele>
        <time>2020-02-22T13:02:46Z</time>
      </trkpt>
      <trkpt lat="42.901683" lon="0.762573">
        <ele>1768.8</ele>
        <time>2020-02-22T13:03:06Z</time>
      </trkpt>
      <trkpt lat="42.901680" lon="0.762468">
        <ele>1769.7</ele>
        <time>2020-02-22T13:03:19Z</time>
      </trkpt>
      <trkpt lat="42.901654" lon="0.762452">
        <ele>1770.4</ele>
        <time>2020-02-22T13:04:23Z</time>
      </trkpt>
      <trkpt lat="42.901608" lon="0.762346">
        <ele>1771.3</ele>
        <time>2020-02-22T13:04:40Z</time>
      </trkpt>
      <trkpt lat="42.901575" lon="0.762226">
        <ele>1772.9</ele>
        <time>2020-02-22T13:04:52Z</time>
      </trkpt>
      <trkpt lat="42.901582" lon="0.762084">
        <ele>1776.8</ele>
        <time>2020-02-22T13:05:07Z</time>
      </trkpt>
      <trkpt lat="42.901580" lon="0.761953">
        <ele>1778.7</ele>
        <time>2020-02-22T13:05:20Z</time>
      </trkpt>
      <trkpt lat="42.901595" lon="0.761829">
        <ele>1779.4</ele>
        <time>2020-02-22T13:05:31Z</time>
      </trkpt>
      <trkpt lat="42.901588" lon="0.761692">
        <ele>1779.2</ele>
        <time>2020-02-22T13:05:42Z</time>
      </trkpt>
      <trkpt lat="42.901545" lon="0.761593">
        <ele>1780.0</ele>
        <time>2020-02-22T13:05:59Z</time>
      </trkpt>
      <trkpt lat="42.901477" lon="0.761517">
        <ele>1777.5</ele>
        <time>2020-02-22T13:06:12Z</time>
      </trkpt>
      <trkpt lat="42.901415" lon="0.761417">
        <ele>1776.7</ele>
        <time>2020-02-22T13:06:23Z</time>
      </trkpt>
      <trkpt lat="42.901364" lon="0.761309">
        <ele>1776.7</ele>
        <time>2020-02-22T13:06:33Z</time>
      </trkpt>
      <trkpt lat="42.901303" lon="0.761215">
        <ele>1776.0</ele>
        <time>2020-02-22T13:06:43Z</time>
      </trkpt>
      <trkpt lat="42.901239" lon="0.761122">
        <ele>1775.9</ele>
        <time>2020-02-22T13:06:53Z</time>
      </trkpt>
      <trkpt lat="42.901175" lon="0.761031">
        <ele>1775.9</ele>
        <time>2020-02-22T13:07:02Z</time>
      </trkpt>
      <trkpt lat="42.901106" lon="0.760931">
        <ele>1775.9</ele>
        <time>2020-02-22T13:07:13Z</time>
      </trkpt>
      <trkpt lat="42.901035" lon="0.760831">
        <ele>1775.0</ele>
        <time>2020-02-22T13:07:23Z</time>
      </trkpt>
      <trkpt lat="42.900950" lon="0.760771">
        <ele>1775.0</ele>
        <time>2020-02-22T13:07:35Z</time>
      </trkpt>
      <trkpt lat="42.900876" lon="0.760689">
        <ele>1777.9</ele>
        <time>2020-02-22T13:10:14Z</time>
      </trkpt>
      <trkpt lat="42.900878" lon="0.760584">
        <ele>1775.5</ele>
        <time>2020-02-22T13:10:27Z</time>
      </trkpt>
      <trkpt lat="42.900882" lon="0.760461">
        <ele>1772.3</ele>
        <time>2020-02-22T13:10:42Z</time>
      </trkpt>
      <trkpt lat="42.900879" lon="0.760334">
        <ele>1768.7</ele>
        <time>2020-02-22T13:10:55Z</time>
      </trkpt>
      <trkpt lat="42.900881" lon="0.760207">
        <ele>1766.0</ele>
        <time>2020-02-22T13:11:06Z</time>
      </trkpt>
      <trkpt lat="42.900853" lon="0.760082">
        <ele>1762.6</ele>
        <time>2020-02-22T13:11:17Z</time>
      </trkpt>
      <trkpt lat="42.900821" lon="0.759962">
        <ele>1758.7</ele>
        <time>2020-02-22T13:11:28Z</time>
      </trkpt>
      <trkpt lat="42.900785" lon="0.759853">
        <ele>1754.9</ele>
        <time>2020-02-22T13:11:40Z</time>
      </trkpt>
      <trkpt lat="42.900734" lon="0.759736">
        <ele>1751.3</ele>
        <time>2020-02-22T13:11:52Z</time>
      </trkpt>
      <trkpt lat="42.900693" lon="0.759627">
        <ele>1748.4</ele>
        <time>2020-02-22T13:12:04Z</time>
      </trkpt>
      <trkpt lat="42.900666" lon="0.759499">
        <ele>1744.8</ele>
        <time>2020-02-22T13:12:17Z</time>
      </trkpt>
      <trkpt lat="42.900621" lon="0.759384">
        <ele>1740.4</ele>
        <time>2020-02-22T13:12:32Z</time>
      </trkpt>
      <trkpt lat="42.900573" lon="0.759264">
        <ele>1737.2</ele>
        <time>2020-02-22T13:12:45Z</time>
      </trkpt>
      <trkpt lat="42.900508" lon="0.759154">
        <ele>1734.5</ele>
        <time>2020-02-22T13:12:57Z</time>
      </trkpt>
      <trkpt lat="42.900439" lon="0.759061">
        <ele>1732.7</ele>
        <time>2020-02-22T13:13:08Z</time>
      </trkpt>
      <trkpt lat="42.900416" lon="0.758946">
        <ele>1729.3</ele>
        <time>2020-02-22T13:13:21Z</time>
      </trkpt>
      <trkpt lat="42.900412" lon="0.758818">
        <ele>1726.9</ele>
        <time>2020-02-22T13:13:40Z</time>
      </trkpt>
      <trkpt lat="42.900374" lon="0.758695">
        <ele>1723.4</ele>
        <time>2020-02-22T13:13:53Z</time>
      </trkpt>
      <trkpt lat="42.900336" lon="0.758585">
        <ele>1719.7</ele>
        <time>2020-02-22T13:14:06Z</time>
      </trkpt>
      <trkpt lat="42.900267" lon="0.758512">
        <ele>1716.1</ele>
        <time>2020-02-22T13:14:19Z</time>
      </trkpt>
      <trkpt lat="42.900197" lon="0.758426">
        <ele>1712.8</ele>
        <time>2020-02-22T13:14:33Z</time>
      </trkpt>
      <trkpt lat="42.900137" lon="0.758336">
        <ele>1708.9</ele>
        <time>2020-02-22T13:14:52Z</time>
      </trkpt>
      <trkpt lat="42.900103" lon="0.758204">
        <ele>1705.4</ele>
        <time>2020-02-22T13:15:04Z</time>
      </trkpt>
      <trkpt lat="42.900043" lon="0.758092">
        <ele>1702.6</ele>
        <time>2020-02-22T13:15:15Z</time>
      </trkpt>
      <trkpt lat="42.899990" lon="0.757991">
        <ele>1700.2</ele>
        <time>2020-02-22T13:15:33Z</time>
      </trkpt>
      <trkpt lat="42.899945" lon="0.757882">
        <ele>1699.3</ele>
        <time>2020-02-22T13:15:47Z</time>
      </trkpt>
      <trkpt lat="42.899877" lon="0.757790">
        <ele>1696.6</ele>
        <time>2020-02-22T13:15:58Z</time>
      </trkpt>
      <trkpt lat="42.899808" lon="0.757696">
        <ele>1695.7</ele>
        <time>2020-02-22T13:16:08Z</time>
      </trkpt>
      <trkpt lat="42.899753" lon="0.757578">
        <ele>1694.0</ele>
        <time>2020-02-22T13:16:18Z</time>
      </trkpt>
      <trkpt lat="42.899685" lon="0.757477">
        <ele>1693.2</ele>
        <time>2020-02-22T13:16:27Z</time>
      </trkpt>
      <trkpt lat="42.899623" lon="0.757370">
        <ele>1693.2</ele>
        <time>2020-02-22T13:16:36Z</time>
      </trkpt>
      <trkpt lat="42.899577" lon="0.757248">
        <ele>1693.1</ele>
        <time>2020-02-22T13:17:33Z</time>
      </trkpt>
      <trkpt lat="42.899525" lon="0.757148">
        <ele>1693.1</ele>
        <time>2020-02-22T13:18:06Z</time>
      </trkpt>
      <trkpt lat="42.899457" lon="0.757065">
        <ele>1693.0</ele>
        <time>2020-02-22T13:18:16Z</time>
      </trkpt>
      <trkpt lat="42.899388" lon="0.756977">
        <ele>1693.0</ele>
        <time>2020-02-22T13:18:26Z</time>
      </trkpt>
      <trkpt lat="42.899321" lon="0.756882">
        <ele>1693.0</ele>
        <time>2020-02-22T13:18:35Z</time>
      </trkpt>
      <trkpt lat="42.899260" lon="0.756793">
        <ele>1693.0</ele>
        <time>2020-02-22T13:18:44Z</time>
      </trkpt>
      <trkpt lat="42.899208" lon="0.756689">
        <ele>1692.9</ele>
        <time>2020-02-22T13:18:54Z</time>
      </trkpt>
      <trkpt lat="42.899175" lon="0.756559">
        <ele>1695.4</ele>
        <time>2020-02-22T13:19:06Z</time>
      </trkpt>
      <trkpt lat="42.899144" lon="0.756444">
        <ele>1696.3</ele>
        <time>2020-02-22T13:19:16Z</time>
      </trkpt>
      <trkpt lat="42.899138" lon="0.756321">
        <ele>1699.5</ele>
        <time>2020-02-22T13:19:28Z</time>
      </trkpt>
      <trkpt lat="42.899117" lon="0.756192">
        <ele>1700.2</ele>
        <time>2020-02-22T13:19:38Z</time>
      </trkpt>
      <trkpt lat="42.899073" lon="0.756058">
        <ele>1702.1</ele>
        <time>2020-02-22T13:19:50Z</time>
      </trkpt>
      <trkpt lat="42.899013" lon="0.755960">
        <ele>1702.8</ele>
        <time>2020-02-22T13:19:59Z</time>
      </trkpt>
      <trkpt lat="42.898943" lon="0.755872">
        <ele>1704.5</ele>
        <time>2020-02-22T13:20:08Z</time>
      </trkpt>
      <trkpt lat="42.898877" lon="0.755763">
        <ele>1706.2</ele>
        <time>2020-02-22T13:20:20Z</time>
      </trkpt>
      <trkpt lat="42.898826" lon="0.755648">
        <ele>1709.2</ele>
        <time>2020-02-22T13:20:32Z</time>
      </trkpt>
      <trkpt lat="42.898753" lon="0.755548">
        <ele>1710.8</ele>
        <time>2020-02-22T13:20:43Z</time>
      </trkpt>
      <trkpt lat="42.898697" lon="0.755451">
        <ele>1712.4</ele>
        <time>2020-02-22T13:20:53Z</time>
      </trkpt>
      <trkpt lat="42.898629" lon="0.755357">
        <ele>1714.0</ele>
        <time>2020-02-22T13:21:03Z</time>
      </trkpt>
      <trkpt lat="42.898568" lon="0.755257">
        <ele>1714.8</ele>
        <time>2020-02-22T13:21:14Z</time>
      </trkpt>
      <trkpt lat="42.898504" lon="0.755160">
        <ele>1716.6</ele>
        <time>2020-02-22T13:21:24Z</time>
      </trkpt>
      <trkpt lat="42.898453" lon="0.755058">
        <ele>1718.2</ele>
        <time>2020-02-22T13:21:35Z</time>
      </trkpt>
      <trkpt lat="42.898455" lon="0.754925">
        <ele>1721.0</ele>
        <time>2020-02-22T13:21:48Z</time>
      </trkpt>
      <trkpt lat="42.898400" lon="0.754799">
        <ele>1723.9</ele>
        <time>2020-02-22T13:22:02Z</time>
      </trkpt>
      <trkpt lat="42.898350" lon="0.754688">
        <ele>1726.6</ele>
        <time>2020-02-22T13:22:14Z</time>
      </trkpt>
      <trkpt lat="42.898352" lon="0.754567">
        <ele>1727.4</ele>
        <time>2020-02-22T13:22:27Z</time>
      </trkpt>
      <trkpt lat="42.898384" lon="0.754445">
        <ele>1729.2</ele>
        <time>2020-02-22T13:22:39Z</time>
      </trkpt>
      <trkpt lat="42.898407" lon="0.754320">
        <ele>1730.1</ele>
        <time>2020-02-22T13:22:52Z</time>
      </trkpt>
      <trkpt lat="42.898418" lon="0.754196">
        <ele>1730.1</ele>
        <time>2020-02-22T13:23:07Z</time>
      </trkpt>
      <trkpt lat="42.898428" lon="0.754071">
        <ele>1730.1</ele>
        <time>2020-02-22T13:23:19Z</time>
      </trkpt>
      <trkpt lat="42.898480" lon="0.754032">
        <ele>1726.7</ele>
        <time>2020-02-22T13:25:31Z</time>
      </trkpt>
      <trkpt lat="42.898551" lon="0.753946">
        <ele>1724.7</ele>
        <time>2020-02-22T13:25:40Z</time>
      </trkpt>
      <trkpt lat="42.898613" lon="0.753831">
        <ele>1723.0</ele>
        <time>2020-02-22T13:25:49Z</time>
      </trkpt>
      <trkpt lat="42.898664" lon="0.753714">
        <ele>1722.2</ele>
        <time>2020-02-22T13:25:58Z</time>
      </trkpt>
      <trkpt lat="42.898721" lon="0.753621">
        <ele>1720.3</ele>
        <time>2020-02-22T13:26:06Z</time>
      </trkpt>
      <trkpt lat="42.898779" lon="0.753524">
        <ele>1718.6</ele>
        <time>2020-02-22T13:26:14Z</time>
      </trkpt>
      <trkpt lat="42.898833" lon="0.753413">
        <ele>1716.7</ele>
        <time>2020-02-22T13:26:23Z</time>
      </trkpt>
      <trkpt lat="42.898892" lon="0.753305">
        <ele>1713.2</ele>
        <time>2020-02-22T13:26:31Z</time>
      </trkpt>
      <trkpt lat="42.898942" lon="0.753189">
        <ele>1710.4</ele>
        <time>2020-02-22T13:26:39Z</time>
      </trkpt>
      <trkpt lat="42.898983" lon="0.753077">
        <ele>1708.8</ele>
        <time>2020-02-22T13:26:47Z</time>
      </trkpt>
      <trkpt lat="42.899014" lon="0.752966">
        <ele>1707.3</ele>
        <time>2020-02-22T13:26:55Z</time>
      </trkpt>
      <trkpt lat="42.899053" lon="0.752845">
        <ele>1704.7</ele>
        <time>2020-02-22T13:27:05Z</time>
      </trkpt>
      <trkpt lat="42.899089" lon="0.752734">
        <ele>1702.9</ele>
        <time>2020-02-22T13:27:14Z</time>
      </trkpt>
      <trkpt lat="42.899124" lon="0.752613">
        <ele>1700.9</ele>
        <time>2020-02-22T13:27:23Z</time>
      </trkpt>
      <trkpt lat="42.899162" lon="0.752498">
        <ele>1698.3</ele>
        <time>2020-02-22T13:27:32Z</time>
      </trkpt>
      <trkpt lat="42.899205" lon="0.752386">
        <ele>1695.5</ele>
        <time>2020-02-22T13:27:42Z</time>
      </trkpt>
      <trkpt lat="42.899235" lon="0.752264">
        <ele>1693.6</ele>
        <time>2020-02-22T13:27:51Z</time>
      </trkpt>
      <trkpt lat="42.899257" lon="0.752138">
        <ele>1690.3</ele>
        <time>2020-02-22T13:28:02Z</time>
      </trkpt>
      <trkpt lat="42.899252" lon="0.752000">
        <ele>1686.7</ele>
        <time>2020-02-22T13:28:14Z</time>
      </trkpt>
      <trkpt lat="42.899227" lon="0.751853">
        <ele>1682.6</ele>
        <time>2020-02-22T13:28:24Z</time>
      </trkpt>
      <trkpt lat="42.899219" lon="0.751714">
        <ele>1678.4</ele>
        <time>2020-02-22T13:28:34Z</time>
      </trkpt>
      <trkpt lat="42.899218" lon="0.751570">
        <ele>1673.8</ele>
        <time>2020-02-22T13:28:44Z</time>
      </trkpt>
      <trkpt lat="42.899221" lon="0.751431">
        <ele>1670.8</ele>
        <time>2020-02-22T13:28:53Z</time>
      </trkpt>
      <trkpt lat="42.899228" lon="0.751302">
        <ele>1667.8</ele>
        <time>2020-02-22T13:29:01Z</time>
      </trkpt>
      <trkpt lat="42.899232" lon="0.751164">
        <ele>1664.1</ele>
        <time>2020-02-22T13:29:10Z</time>
      </trkpt>
      <trkpt lat="42.899243" lon="0.751021">
        <ele>1660.9</ele>
        <time>2020-02-22T13:29:19Z</time>
      </trkpt>
      <trkpt lat="42.899245" lon="0.750897">
        <ele>1659.4</ele>
        <time>2020-02-22T13:29:36Z</time>
      </trkpt>
      <trkpt lat="42.899266" lon="0.750774">
        <ele>1658.6</ele>
        <time>2020-02-22T13:29:44Z</time>
      </trkpt>
      <trkpt lat="42.899290" lon="0.750647">
        <ele>1655.7</ele>
        <time>2020-02-22T13:29:53Z</time>
      </trkpt>
      <trkpt lat="42.899307" lon="0.750527">
        <ele>1651.9</ele>
        <time>2020-02-22T13:30:01Z</time>
      </trkpt>
      <trkpt lat="42.899319" lon="0.750390">
        <ele>1648.1</ele>
        <time>2020-02-22T13:30:10Z</time>
      </trkpt>
      <trkpt lat="42.899314" lon="0.750261">
        <ele>1644.9</ele>
        <time>2020-02-22T13:30:19Z</time>
      </trkpt>
      <trkpt lat="42.899303" lon="0.750129">
        <ele>1640.3</ele>
        <time>2020-02-22T13:30:28Z</time>
      </trkpt>
      <trkpt lat="42.899298" lon="0.749987">
        <ele>1635.8</ele>
        <time>2020-02-22T13:30:37Z</time>
      </trkpt>
      <trkpt lat="42.899288" lon="0.749848">
        <ele>1630.4</ele>
        <time>2020-02-22T13:30:45Z</time>
      </trkpt>
      <trkpt lat="42.899287" lon="0.749715">
        <ele>1626.2</ele>
        <time>2020-02-22T13:30:52Z</time>
      </trkpt>
      <trkpt lat="42.899299" lon="0.749571">
        <ele>1622.8</ele>
        <time>2020-02-22T13:30:59Z</time>
      </trkpt>
      <trkpt lat="42.899298" lon="0.749423">
        <ele>1618.6</ele>
        <time>2020-02-22T13:31:06Z</time>
      </trkpt>
      <trkpt lat="42.899286" lon="0.749286">
        <ele>1616.2</ele>
        <time>2020-02-22T13:31:12Z</time>
      </trkpt>
      <trkpt lat="42.899286" lon="0.749147">
        <ele>1612.6</ele>
        <time>2020-02-22T13:31:19Z</time>
      </trkpt>
      <trkpt lat="42.899293" lon="0.749013">
        <ele>1610.8</ele>
        <time>2020-02-22T13:31:26Z</time>
      </trkpt>
      <trkpt lat="42.899287" lon="0.748884">
        <ele>1609.1</ele>
        <time>2020-02-22T13:31:35Z</time>
      </trkpt>
      <trkpt lat="42.899292" lon="0.748837">
        <ele>1607.2</ele>
        <time>2020-02-22T13:34:17Z</time>
      </trkpt>
      <trkpt lat="42.899325" lon="0.748713">
        <ele>1606.2</ele>
        <time>2020-02-22T13:34:25Z</time>
      </trkpt>
      <trkpt lat="42.899386" lon="0.748605">
        <ele>1604.3</ele>
        <time>2020-02-22T13:34:34Z</time>
      </trkpt>
      <trkpt lat="42.899439" lon="0.748482">
        <ele>1601.7</ele>
        <time>2020-02-22T13:34:46Z</time>
      </trkpt>
      <trkpt lat="42.899511" lon="0.748327">
        <ele>1598.3</ele>
        <time>2020-02-22T13:34:58Z</time>
      </trkpt>
      <trkpt lat="42.899573" lon="0.748142">
        <ele>1595.5</ele>
        <time>2020-02-22T13:35:10Z</time>
      </trkpt>
      <trkpt lat="42.899615" lon="0.747992">
        <ele>1592.9</ele>
        <time>2020-02-22T13:35:22Z</time>
      </trkpt>
      <trkpt lat="42.899578" lon="0.747809">
        <ele>1592.1</ele>
        <time>2020-02-22T13:35:35Z</time>
      </trkpt>
      <trkpt lat="42.899635" lon="0.747675">
        <ele>1590.0</ele>
        <time>2020-02-22T13:35:48Z</time>
      </trkpt>
      <trkpt lat="42.899680" lon="0.747515">
        <ele>1589.1</ele>
        <time>2020-02-22T13:35:56Z</time>
      </trkpt>
      <trkpt lat="42.899736" lon="0.747334">
        <ele>1589.0</ele>
        <time>2020-02-22T13:36:06Z</time>
      </trkpt>
      <trkpt lat="42.899790" lon="0.747172">
        <ele>1588.2</ele>
        <time>2020-02-22T13:36:17Z</time>
      </trkpt>
      <trkpt lat="42.899854" lon="0.747023">
        <ele>1588.1</ele>
        <time>2020-02-22T13:36:27Z</time>
      </trkpt>
      <trkpt lat="42.899905" lon="0.746877">
        <ele>1588.0</ele>
        <time>2020-02-22T13:36:36Z</time>
      </trkpt>
      <trkpt lat="42.899945" lon="0.746706">
        <ele>1587.9</ele>
        <time>2020-02-22T13:36:46Z</time>
      </trkpt>
      <trkpt lat="42.900013" lon="0.746554">
        <ele>1587.9</ele>
        <time>2020-02-22T13:36:57Z</time>
      </trkpt>
      <trkpt lat="42.900052" lon="0.746397">
        <ele>1586.1</ele>
        <time>2020-02-22T13:37:07Z</time>
      </trkpt>
      <trkpt lat="42.900098" lon="0.746239">
        <ele>1585.3</ele>
        <time>2020-02-22T13:37:18Z</time>
      </trkpt>
      <trkpt lat="42.900139" lon="0.746071">
        <ele>1582.2</ele>
        <time>2020-02-22T13:37:29Z</time>
      </trkpt>
      <trkpt lat="42.900166" lon="0.745911">
        <ele>1579.5</ele>
        <time>2020-02-22T13:37:40Z</time>
      </trkpt>
      <trkpt lat="42.900186" lon="0.745760">
        <ele>1575.5</ele>
        <time>2020-02-22T13:37:53Z</time>
      </trkpt>
      <trkpt lat="42.900221" lon="0.745602">
        <ele>1572.0</ele>
        <time>2020-02-22T13:38:06Z</time>
      </trkpt>
      <trkpt lat="42.900191" lon="0.745405">
        <ele>1568.0</ele>
        <time>2020-02-22T13:38:19Z</time>
      </trkpt>
      <trkpt lat="42.900143" lon="0.745283">
        <ele>1565.4</ele>
        <time>2020-02-22T13:38:33Z</time>
      </trkpt>
      <trkpt lat="42.900153" lon="0.745056">
        <ele>1560.8</ele>
        <time>2020-02-22T13:38:47Z</time>
      </trkpt>
      <trkpt lat="42.900141" lon="0.744845">
        <ele>1557.9</ele>
        <time>2020-02-22T13:38:59Z</time>
      </trkpt>
      <trkpt lat="42.900153" lon="0.744679">
        <ele>1554.2</ele>
        <time>2020-02-22T13:39:13Z</time>
      </trkpt>
      <trkpt lat="42.900183" lon="0.744507">
        <ele>1550.4</ele>
        <time>2020-02-22T13:39:27Z</time>
      </trkpt>
      <trkpt lat="42.900237" lon="0.744295">
        <ele>1546.8</ele>
        <time>2020-02-22T13:39:42Z</time>
      </trkpt>
      <trkpt lat="42.900176" lon="0.744133">
        <ele>1545.9</ele>
        <time>2020-02-22T13:39:58Z</time>
      </trkpt>
      <trkpt lat="42.900172" lon="0.743967">
        <ele>1542.4</ele>
        <time>2020-02-22T13:40:14Z</time>
      </trkpt>
      <trkpt lat="42.900171" lon="0.743809">
        <ele>1539.7</ele>
        <time>2020-02-22T13:40:25Z</time>
      </trkpt>
      <trkpt lat="42.900196" lon="0.743643">
        <ele>1538.7</ele>
        <time>2020-02-22T13:40:36Z</time>
      </trkpt>
      <trkpt lat="42.900191" lon="0.743467">
        <ele>1537.0</ele>
        <time>2020-02-22T13:40:47Z</time>
      </trkpt>
      <trkpt lat="42.900174" lon="0.743238">
        <ele>1535.0</ele>
        <time>2020-02-22T13:40:59Z</time>
      </trkpt>
      <trkpt lat="42.900191" lon="0.743054">
        <ele>1532.9</ele>
        <time>2020-02-22T13:41:11Z</time>
      </trkpt>
      <trkpt lat="42.900198" lon="0.742850">
        <ele>1531.2</ele>
        <time>2020-02-22T13:41:21Z</time>
      </trkpt>
      <trkpt lat="42.900187" lon="0.742637">
        <ele>1530.1</ele>
        <time>2020-02-22T13:41:33Z</time>
      </trkpt>
      <trkpt lat="42.900228" lon="0.742445">
        <ele>1527.4</ele>
        <time>2020-02-22T13:41:46Z</time>
      </trkpt>
      <trkpt lat="42.900188" lon="0.742233">
        <ele>1524.1</ele>
        <time>2020-02-22T13:42:02Z</time>
      </trkpt>
      <trkpt lat="42.900138" lon="0.742111">
        <ele>1522.1</ele>
        <time>2020-02-22T13:42:14Z</time>
      </trkpt>
      <trkpt lat="42.900119" lon="0.741772">
        <ele>1518.8</ele>
        <time>2020-02-22T13:44:06Z</time>
      </trkpt>
      <trkpt lat="42.900053" lon="0.741699">
        <ele>1518.8</ele>
        <time>2020-02-22T13:44:56Z</time>
      </trkpt>
      <trkpt lat="42.899943" lon="0.741602">
        <ele>1517.9</ele>
        <time>2020-02-22T13:45:09Z</time>
      </trkpt>
      <trkpt lat="42.899836" lon="0.741522">
        <ele>1515.1</ele>
        <time>2020-02-22T13:45:20Z</time>
      </trkpt>
      <trkpt lat="42.899748" lon="0.741417">
        <ele>1513.4</ele>
        <time>2020-02-22T13:45:31Z</time>
      </trkpt>
      <trkpt lat="42.899666" lon="0.741287">
        <ele>1511.8</ele>
        <time>2020-02-22T13:45:41Z</time>
      </trkpt>
      <trkpt lat="42.899606" lon="0.741178">
        <ele>1511.0</ele>
        <time>2020-02-22T13:45:50Z</time>
      </trkpt>
      <trkpt lat="42.899524" lon="0.741043">
        <ele>1508.1</ele>
        <time>2020-02-22T13:46:03Z</time>
      </trkpt>
      <trkpt lat="42.899417" lon="0.740901">
        <ele>1505.5</ele>
        <time>2020-02-22T13:46:15Z</time>
      </trkpt>
      <trkpt lat="42.899359" lon="0.740741">
        <ele>1502.1</ele>
        <time>2020-02-22T13:46:26Z</time>
      </trkpt>
      <trkpt lat="42.899325" lon="0.740598">
        <ele>1500.3</ele>
        <time>2020-02-22T13:46:36Z</time>
      </trkpt>
      <trkpt lat="42.899302" lon="0.740438">
        <ele>1496.4</ele>
        <time>2020-02-22T13:46:47Z</time>
      </trkpt>
      <trkpt lat="42.899289" lon="0.740253">
        <ele>1494.6</ele>
        <time>2020-02-22T13:46:58Z</time>
      </trkpt>
      <trkpt lat="42.899259" lon="0.740079">
        <ele>1491.8</ele>
        <time>2020-02-22T13:47:10Z</time>
      </trkpt>
      <trkpt lat="42.899248" lon="0.739891">
        <ele>1489.4</ele>
        <time>2020-02-22T13:47:22Z</time>
      </trkpt>
      <trkpt lat="42.899206" lon="0.739742">
        <ele>1486.4</ele>
        <time>2020-02-22T13:47:32Z</time>
      </trkpt>
      <trkpt lat="42.899194" lon="0.739581">
        <ele>1483.9</ele>
        <time>2020-02-22T13:47:43Z</time>
      </trkpt>
      <trkpt lat="42.899182" lon="0.739410">
        <ele>1480.4</ele>
        <time>2020-02-22T13:47:54Z</time>
      </trkpt>
      <trkpt lat="42.899177" lon="0.739239">
        <ele>1477.9</ele>
        <time>2020-02-22T13:48:05Z</time>
      </trkpt>
      <trkpt lat="42.899171" lon="0.739054">
        <ele>1474.9</ele>
        <time>2020-02-22T13:48:16Z</time>
      </trkpt>
      <trkpt lat="42.899164" lon="0.738887">
        <ele>1471.9</ele>
        <time>2020-02-22T13:48:27Z</time>
      </trkpt>
      <trkpt lat="42.899135" lon="0.738739">
        <ele>1468.2</ele>
        <time>2020-02-22T13:48:39Z</time>
      </trkpt>
      <trkpt lat="42.899086" lon="0.738595">
        <ele>1464.7</ele>
        <time>2020-02-22T13:48:52Z</time>
      </trkpt>
      <trkpt lat="42.899026" lon="0.738413">
        <ele>1460.0</ele>
        <time>2020-02-22T13:49:05Z</time>
      </trkpt>
      <trkpt lat="42.898989" lon="0.738239">
        <ele>1457.0</ele>
        <time>2020-02-22T13:49:15Z</time>
      </trkpt>
      <trkpt lat="42.898988" lon="0.738058">
        <ele>1454.1</ele>
        <time>2020-02-22T13:49:24Z</time>
      </trkpt>
      <trkpt lat="42.898967" lon="0.737890">
        <ele>1452.5</ele>
        <time>2020-02-22T13:49:33Z</time>
      </trkpt>
      <trkpt lat="42.898960" lon="0.737731">
        <ele>1450.7</ele>
        <time>2020-02-22T13:49:41Z</time>
      </trkpt>
      <trkpt lat="42.898954" lon="0.737590">
        <ele>1449.9</ele>
        <time>2020-02-22T13:49:49Z</time>
      </trkpt>
      <trkpt lat="42.898925" lon="0.737418">
        <ele>1446.3</ele>
        <time>2020-02-22T13:49:59Z</time>
      </trkpt>
      <trkpt lat="42.898880" lon="0.737265">
        <ele>1443.5</ele>
        <time>2020-02-22T13:50:08Z</time>
      </trkpt>
      <trkpt lat="42.898861" lon="0.737127">
        <ele>1441.8</ele>
        <time>2020-02-22T13:50:16Z</time>
      </trkpt>
      <trkpt lat="42.898846" lon="0.736990">
        <ele>1440.2</ele>
        <time>2020-02-22T13:50:24Z</time>
      </trkpt>
      <trkpt lat="42.898846" lon="0.736840">
        <ele>1438.2</ele>
        <time>2020-02-22T13:50:33Z</time>
      </trkpt>
      <trkpt lat="42.898837" lon="0.736687">
        <ele>1436.4</ele>
        <time>2020-02-22T13:50:42Z</time>
      </trkpt>
      <trkpt lat="42.898860" lon="0.736543">
        <ele>1434.7</ele>
        <time>2020-02-22T13:50:51Z</time>
      </trkpt>
      <trkpt lat="42.898897" lon="0.736403">
        <ele>1432.4</ele>
        <time>2020-02-22T13:51:03Z</time>
      </trkpt>
      <trkpt lat="42.898921" lon="0.736240">
        <ele>1430.7</ele>
        <time>2020-02-22T13:51:13Z</time>
      </trkpt>
      <trkpt lat="42.898921" lon="0.736088">
        <ele>1427.9</ele>
        <time>2020-02-22T13:51:21Z</time>
      </trkpt>
      <trkpt lat="42.898922" lon="0.735929">
        <ele>1425.9</ele>
        <time>2020-02-22T13:51:30Z</time>
      </trkpt>
      <trkpt lat="42.898923" lon="0.735784">
        <ele>1422.8</ele>
        <time>2020-02-22T13:51:39Z</time>
      </trkpt>
      <trkpt lat="42.898921" lon="0.735651">
        <ele>1421.0</ele>
        <time>2020-02-22T13:51:48Z</time>
      </trkpt>
      <trkpt lat="42.898930" lon="0.735516">
        <ele>1419.1</ele>
        <time>2020-02-22T13:51:57Z</time>
      </trkpt>
      <trkpt lat="42.898942" lon="0.735384">
        <ele>1416.2</ele>
        <time>2020-02-22T13:52:06Z</time>
      </trkpt>
      <trkpt lat="42.898971" lon="0.735259">
        <ele>1413.8</ele>
        <time>2020-02-22T13:52:15Z</time>
      </trkpt>
      <trkpt lat="42.899025" lon="0.735141">
        <ele>1411.0</ele>
        <time>2020-02-22T13:52:25Z</time>
      </trkpt>
      <trkpt lat="42.899065" lon="0.734997">
        <ele>1408.4</ele>
        <time>2020-02-22T13:52:36Z</time>
      </trkpt>
      <trkpt lat="42.899091" lon="0.734866">
        <ele>1405.5</ele>
        <time>2020-02-22T13:52:46Z</time>
      </trkpt>
      <trkpt lat="42.899132" lon="0.734722">
        <ele>1402.7</ele>
        <time>2020-02-22T13:52:56Z</time>
      </trkpt>
      <trkpt lat="42.899169" lon="0.734574">
        <ele>1398.9</ele>
        <time>2020-02-22T13:53:06Z</time>
      </trkpt>
      <trkpt lat="42.899209" lon="0.734410">
        <ele>1396.2</ele>
        <time>2020-02-22T13:53:18Z</time>
      </trkpt>
      <trkpt lat="42.899243" lon="0.734241">
        <ele>1392.4</ele>
        <time>2020-02-22T13:53:31Z</time>
      </trkpt>
      <trkpt lat="42.899288" lon="0.734064">
        <ele>1388.9</ele>
        <time>2020-02-22T13:53:44Z</time>
      </trkpt>
      <trkpt lat="42.899386" lon="0.733940">
        <ele>1387.1</ele>
        <time>2020-02-22T13:53:56Z</time>
      </trkpt>
      <trkpt lat="42.899511" lon="0.733819">
        <ele>1384.3</ele>
        <time>2020-02-22T13:54:06Z</time>
      </trkpt>
      <trkpt lat="42.899582" lon="0.733708">
        <ele>1383.6</ele>
        <time>2020-02-22T13:54:16Z</time>
      </trkpt>
      <trkpt lat="42.899633" lon="0.733586">
        <ele>1381.9</ele>
        <time>2020-02-22T13:54:26Z</time>
      </trkpt>
      <trkpt lat="42.899642" lon="0.733444">
        <ele>1381.1</ele>
        <time>2020-02-22T13:54:37Z</time>
      </trkpt>
      <trkpt lat="42.899654" lon="0.733272">
        <ele>1379.5</ele>
        <time>2020-02-22T13:54:49Z</time>
      </trkpt>
      <trkpt lat="42.899686" lon="0.733054">
        <ele>1378.6</ele>
        <time>2020-02-22T13:55:00Z</time>
      </trkpt>
      <trkpt lat="42.899742" lon="0.732842">
        <ele>1377.5</ele>
        <time>2020-02-22T13:55:11Z</time>
      </trkpt>
      <trkpt lat="42.899830" lon="0.732645">
        <ele>1377.4</ele>
        <time>2020-02-22T13:55:21Z</time>
      </trkpt>
      <trkpt lat="42.899891" lon="0.732502">
        <ele>1376.5</ele>
        <time>2020-02-22T13:55:30Z</time>
      </trkpt>
      <trkpt lat="42.899949" lon="0.732362">
        <ele>1375.7</ele>
        <time>2020-02-22T13:55:39Z</time>
      </trkpt>
      <trkpt lat="42.899960" lon="0.732205">
        <ele>1374.8</ele>
        <time>2020-02-22T13:55:49Z</time>
      </trkpt>
      <trkpt lat="42.899965" lon="0.732030">
        <ele>1373.0</ele>
        <time>2020-02-22T13:56:01Z</time>
      </trkpt>
      <trkpt lat="42.900009" lon="0.731846">
        <ele>1371.0</ele>
        <time>2020-02-22T13:56:10Z</time>
      </trkpt>
      <trkpt lat="42.900076" lon="0.731684">
        <ele>1369.4</ele>
        <time>2020-02-22T13:56:19Z</time>
      </trkpt>
      <trkpt lat="42.900130" lon="0.731520">
        <ele>1368.4</ele>
        <time>2020-02-22T13:56:27Z</time>
      </trkpt>
      <trkpt lat="42.900176" lon="0.731349">
        <ele>1368.4</ele>
        <time>2020-02-22T13:56:36Z</time>
      </trkpt>
      <trkpt lat="42.900235" lon="0.731205">
        <ele>1367.3</ele>
        <time>2020-02-22T13:56:45Z</time>
      </trkpt>
      <trkpt lat="42.900257" lon="0.731064">
        <ele>1368.5</ele>
        <time>2020-02-22T13:56:55Z</time>
      </trkpt>
      <trkpt lat="42.900252" lon="0.731008">
        <ele>1366.3</ele>
        <time>2020-02-22T13:57:23Z</time>
      </trkpt>
      <trkpt lat="42.900296" lon="0.730967">
        <ele>1364.7</ele>
        <time>2020-02-22T13:59:17Z</time>
      </trkpt>
      <trkpt lat="42.900342" lon="0.730771">
        <ele>1362.2</ele>
        <time>2020-02-22T13:59:29Z</time>
      </trkpt>
      <trkpt lat="42.900400" lon="0.730610">
        <ele>1361.4</ele>
        <time>2020-02-22T13:59:40Z</time>
      </trkpt>
      <trkpt lat="42.900437" lon="0.730481">
        <ele>1360.4</ele>
        <time>2020-02-22T14:00:02Z</time>
      </trkpt>
      <trkpt lat="42.900443" lon="0.730334">
        <ele>1358.7</ele>
        <time>2020-02-22T14:00:15Z</time>
      </trkpt>
      <trkpt lat="42.900491" lon="0.730169">
        <ele>1356.0</ele>
        <time>2020-02-22T14:00:29Z</time>
      </trkpt>
      <trkpt lat="42.900572" lon="0.730030">
        <ele>1351.4</ele>
        <time>2020-02-22T14:00:40Z</time>
      </trkpt>
      <trkpt lat="42.900670" lon="0.729921">
        <ele>1349.5</ele>
        <time>2020-02-22T14:00:49Z</time>
      </trkpt>
      <trkpt lat="42.900716" lon="0.729774">
        <ele>1348.7</ele>
        <time>2020-02-22T14:01:00Z</time>
      </trkpt>
      <trkpt lat="42.900716" lon="0.729624">
        <ele>1347.7</ele>
        <time>2020-02-22T14:01:13Z</time>
      </trkpt>
      <trkpt lat="42.900740" lon="0.729499">
        <ele>1344.9</ele>
        <time>2020-02-22T14:01:25Z</time>
      </trkpt>
      <trkpt lat="42.900748" lon="0.729353">
        <ele>1341.3</ele>
        <time>2020-02-22T14:01:45Z</time>
      </trkpt>
      <trkpt lat="42.900744" lon="0.729198">
        <ele>1338.1</ele>
        <time>2020-02-22T14:01:57Z</time>
      </trkpt>
      <trkpt lat="42.900805" lon="0.728981">
        <ele>1335.3</ele>
        <time>2020-02-22T14:02:10Z</time>
      </trkpt>
      <trkpt lat="42.900913" lon="0.728838">
        <ele>1333.5</ele>
        <time>2020-02-22T14:02:20Z</time>
      </trkpt>
      <trkpt lat="42.901023" lon="0.728749">
        <ele>1331.6</ele>
        <time>2020-02-22T14:02:30Z</time>
      </trkpt>
      <trkpt lat="42.901111" lon="0.728646">
        <ele>1329.0</ele>
        <time>2020-02-22T14:02:41Z</time>
      </trkpt>
      <trkpt lat="42.901202" lon="0.728549">
        <ele>1325.8</ele>
        <time>2020-02-22T14:02:53Z</time>
      </trkpt>
      <trkpt lat="42.901330" lon="0.728579">
        <ele>1324.2</ele>
        <time>2020-02-22T14:03:07Z</time>
      </trkpt>
      <trkpt lat="42.901394" lon="0.728728">
        <ele>1324.1</ele>
        <time>2020-02-22T14:03:19Z</time>
      </trkpt>
      <trkpt lat="42.901429" lon="0.728869">
        <ele>1324.1</ele>
        <time>2020-02-22T14:03:29Z</time>
      </trkpt>
      <trkpt lat="42.901488" lon="0.729018">
        <ele>1324.0</ele>
        <time>2020-02-22T14:03:39Z</time>
      </trkpt>
      <trkpt lat="42.901561" lon="0.729185">
        <ele>1326.2</ele>
        <time>2020-02-22T14:03:50Z</time>
      </trkpt>
      <trkpt lat="42.901612" lon="0.729348">
        <ele>1327.8</ele>
        <time>2020-02-22T14:04:01Z</time>
      </trkpt>
      <trkpt lat="42.901700" lon="0.729536">
        <ele>1330.5</ele>
        <time>2020-02-22T14:04:15Z</time>
      </trkpt>
      <trkpt lat="42.901727" lon="0.729660">
        <ele>1330.2</ele>
        <time>2020-02-22T14:04:26Z</time>
      </trkpt>
      <trkpt lat="42.901763" lon="0.729797">
        <ele>1330.0</ele>
        <time>2020-02-22T14:04:37Z</time>
      </trkpt>
      <trkpt lat="42.901809" lon="0.729937">
        <ele>1330.0</ele>
        <time>2020-02-22T14:04:48Z</time>
      </trkpt>
      <trkpt lat="42.901819" lon="0.730105">
        <ele>1329.9</ele>
        <time>2020-02-22T14:04:58Z</time>
      </trkpt>
      <trkpt lat="42.901822" lon="0.730255">
        <ele>1329.7</ele>
        <time>2020-02-22T14:05:10Z</time>
      </trkpt>
      <trkpt lat="42.901783" lon="0.730436">
        <ele>1329.6</ele>
        <time>2020-02-22T14:05:23Z</time>
      </trkpt>
      <trkpt lat="42.901772" lon="0.730621">
        <ele>1329.5</ele>
        <time>2020-02-22T14:05:33Z</time>
      </trkpt>
      <trkpt lat="42.901765" lon="0.730799">
        <ele>1329.4</ele>
        <time>2020-02-22T14:05:44Z</time>
      </trkpt>
      <trkpt lat="42.901734" lon="0.730977">
        <ele>1329.3</ele>
        <time>2020-02-22T14:05:55Z</time>
      </trkpt>
      <trkpt lat="42.901728" lon="0.731202">
        <ele>1329.2</ele>
        <time>2020-02-22T14:06:08Z</time>
      </trkpt>
      <trkpt lat="42.901712" lon="0.731403">
        <ele>1329.1</ele>
        <time>2020-02-22T14:06:19Z</time>
      </trkpt>
      <trkpt lat="42.901712" lon="0.731607">
        <ele>1329.1</ele>
        <time>2020-02-22T14:06:30Z</time>
      </trkpt>
      <trkpt lat="42.901691" lon="0.731778">
        <ele>1329.1</ele>
        <time>2020-02-22T14:06:42Z</time>
      </trkpt>
      <trkpt lat="42.901650" lon="0.731980">
        <ele>1330.7</ele>
        <time>2020-02-22T14:06:54Z</time>
      </trkpt>
      <trkpt lat="42.901665" lon="0.732158">
        <ele>1331.3</ele>
        <time>2020-02-22T14:07:07Z</time>
      </trkpt>
      <trkpt lat="42.901701" lon="0.732298">
        <ele>1331.2</ele>
        <time>2020-02-22T14:07:16Z</time>
      </trkpt>
      <trkpt lat="42.901739" lon="0.732435">
        <ele>1331.2</ele>
        <time>2020-02-22T14:07:26Z</time>
      </trkpt>
      <trkpt lat="42.901755" lon="0.732573">
        <ele>1331.1</ele>
        <time>2020-02-22T14:07:37Z</time>
      </trkpt>
      <trkpt lat="42.901793" lon="0.732747">
        <ele>1331.1</ele>
        <time>2020-02-22T14:07:48Z</time>
      </trkpt>
      <trkpt lat="42.901823" lon="0.732925">
        <ele>1331.2</ele>
        <time>2020-02-22T14:07:58Z</time>
      </trkpt>
      <trkpt lat="42.901858" lon="0.733112">
        <ele>1332.0</ele>
        <time>2020-02-22T14:08:11Z</time>
      </trkpt>
      <trkpt lat="42.901915" lon="0.733258">
        <ele>1332.0</ele>
        <time>2020-02-22T14:08:23Z</time>
      </trkpt>
      <trkpt lat="42.901994" lon="0.733417">
        <ele>1332.8</ele>
        <time>2020-02-22T14:08:34Z</time>
      </trkpt>
      <trkpt lat="42.902078" lon="0.733561">
        <ele>1332.7</ele>
        <time>2020-02-22T14:08:45Z</time>
      </trkpt>
      <trkpt lat="42.902175" lon="0.733681">
        <ele>1333.5</ele>
        <time>2020-02-22T14:08:55Z</time>
      </trkpt>
      <trkpt lat="42.902238" lon="0.733809">
        <ele>1333.5</ele>
        <time>2020-02-22T14:09:05Z</time>
      </trkpt>
      <trkpt lat="42.902321" lon="0.733934">
        <ele>1334.3</ele>
        <time>2020-02-22T14:09:14Z</time>
      </trkpt>
      <trkpt lat="42.902414" lon="0.734047">
        <ele>1334.3</ele>
        <time>2020-02-22T14:09:24Z</time>
      </trkpt>
      <trkpt lat="42.902498" lon="0.734163">
        <ele>1335.2</ele>
        <time>2020-02-22T14:09:35Z</time>
      </trkpt>
      <trkpt lat="42.902598" lon="0.734273">
        <ele>1336.1</ele>
        <time>2020-02-22T14:09:47Z</time>
      </trkpt>
      <trkpt lat="42.902658" lon="0.734385">
        <ele>1337.8</ele>
        <time>2020-02-22T14:10:00Z</time>
      </trkpt>
      <trkpt lat="42.902723" lon="0.734489">
        <ele>1339.5</ele>
        <time>2020-02-22T14:10:12Z</time>
      </trkpt>
      <trkpt lat="42.902818" lon="0.734599">
        <ele>1339.5</ele>
        <time>2020-02-22T14:10:24Z</time>
      </trkpt>
      <trkpt lat="42.902897" lon="0.734725">
        <ele>1340.3</ele>
        <time>2020-02-22T14:10:36Z</time>
      </trkpt>
      <trkpt lat="42.902984" lon="0.734861">
        <ele>1340.2</ele>
        <time>2020-02-22T14:10:47Z</time>
      </trkpt>
      <trkpt lat="42.903075" lon="0.734991">
        <ele>1341.0</ele>
        <time>2020-02-22T14:10:58Z</time>
      </trkpt>
      <trkpt lat="42.903163" lon="0.735123">
        <ele>1341.8</ele>
        <time>2020-02-22T14:11:09Z</time>
      </trkpt>
      <trkpt lat="42.903213" lon="0.735265">
        <ele>1342.6</ele>
        <time>2020-02-22T14:11:20Z</time>
      </trkpt>
      <trkpt lat="42.903265" lon="0.735397">
        <ele>1343.4</ele>
        <time>2020-02-22T14:11:32Z</time>
      </trkpt>
      <trkpt lat="42.903326" lon="0.735550">
        <ele>1345.0</ele>
        <time>2020-02-22T14:11:43Z</time>
      </trkpt>
      <trkpt lat="42.903331" lon="0.735703">
        <ele>1345.0</ele>
        <time>2020-02-22T14:11:54Z</time>
      </trkpt>
      <trkpt lat="42.903358" lon="0.735865">
        <ele>1344.9</ele>
        <time>2020-02-22T14:12:04Z</time>
      </trkpt>
      <trkpt lat="42.903349" lon="0.736004">
        <ele>1345.7</ele>
        <time>2020-02-22T14:12:18Z</time>
      </trkpt>
      <trkpt lat="42.903281" lon="0.736166">
        <ele>1347.3</ele>
        <time>2020-02-22T14:12:33Z</time>
      </trkpt>
      <trkpt lat="42.903228" lon="0.736358">
        <ele>1348.9</ele>
        <time>2020-02-22T14:12:47Z</time>
      </trkpt>
      <trkpt lat="42.903226" lon="0.736560">
        <ele>1349.7</ele>
        <time>2020-02-22T14:13:02Z</time>
      </trkpt>
      <trkpt lat="42.903194" lon="0.736745">
        <ele>1350.3</ele>
        <time>2020-02-22T14:13:14Z</time>
      </trkpt>
      <trkpt lat="42.903218" lon="0.736932">
        <ele>1351.1</ele>
        <time>2020-02-22T14:13:28Z</time>
      </trkpt>
      <trkpt lat="42.903244" lon="0.737086">
        <ele>1351.9</ele>
        <time>2020-02-22T14:13:40Z</time>
      </trkpt>
      <trkpt lat="42.903266" lon="0.737269">
        <ele>1354.8</ele>
        <time>2020-02-22T14:13:55Z</time>
      </trkpt>
      <trkpt lat="42.903272" lon="0.737405">
        <ele>1356.4</ele>
        <time>2020-02-22T14:14:08Z</time>
      </trkpt>
      <trkpt lat="42.903275" lon="0.737593">
        <ele>1357.1</ele>
        <time>2020-02-22T14:14:21Z</time>
      </trkpt>
      <trkpt lat="42.903279" lon="0.737796">
        <ele>1358.6</ele>
        <time>2020-02-22T14:14:33Z</time>
      </trkpt>
      <trkpt lat="42.903276" lon="0.737977">
        <ele>1360.3</ele>
        <time>2020-02-22T14:14:46Z</time>
      </trkpt>
      <trkpt lat="42.903265" lon="0.738145">
        <ele>1361.9</ele>
        <time>2020-02-22T14:14:59Z</time>
      </trkpt>
      <trkpt lat="42.903263" lon="0.738352">
        <ele>1362.8</ele>
        <time>2020-02-22T14:15:12Z</time>
      </trkpt>
      <trkpt lat="42.903237" lon="0.738571">
        <ele>1363.5</ele>
        <time>2020-02-22T14:15:27Z</time>
      </trkpt>
      <trkpt lat="42.903206" lon="0.738762">
        <ele>1364.2</ele>
        <time>2020-02-22T14:15:41Z</time>
      </trkpt>
      <trkpt lat="42.903177" lon="0.738952">
        <ele>1365.0</ele>
        <time>2020-02-22T14:15:55Z</time>
      </trkpt>
      <trkpt lat="42.903103" lon="0.739090">
        <ele>1365.7</ele>
        <time>2020-02-22T14:16:07Z</time>
      </trkpt>
      <trkpt lat="42.903025" lon="0.739219">
        <ele>1365.7</ele>
        <time>2020-02-22T14:16:19Z</time>
      </trkpt>
      <trkpt lat="42.902991" lon="0.739370">
        <ele>1365.5</ele>
        <time>2020-02-22T14:16:30Z</time>
      </trkpt>
      <trkpt lat="42.903006" lon="0.739537">
        <ele>1365.4</ele>
        <time>2020-02-22T14:16:40Z</time>
      </trkpt>
      <trkpt lat="42.902994" lon="0.739721">
        <ele>1366.2</ele>
        <time>2020-02-22T14:16:51Z</time>
      </trkpt>
      <trkpt lat="42.902974" lon="0.739894">
        <ele>1366.2</ele>
        <time>2020-02-22T14:17:02Z</time>
      </trkpt>
      <trkpt lat="42.902975" lon="0.740040">
        <ele>1367.0</ele>
        <time>2020-02-22T14:17:14Z</time>
      </trkpt>
      <trkpt lat="42.902941" lon="0.740268">
        <ele>1367.8</ele>
        <time>2020-02-22T14:17:27Z</time>
      </trkpt>
      <trkpt lat="42.902923" lon="0.740436">
        <ele>1368.5</ele>
        <time>2020-02-22T14:17:38Z</time>
      </trkpt>
      <trkpt lat="42.902912" lon="0.740574">
        <ele>1369.2</ele>
        <time>2020-02-22T14:17:47Z</time>
      </trkpt>
      <trkpt lat="42.902939" lon="0.740758">
        <ele>1369.9</ele>
        <time>2020-02-22T14:18:00Z</time>
      </trkpt>
      <trkpt lat="42.902960" lon="0.740934">
        <ele>1369.8</ele>
        <time>2020-02-22T14:18:14Z</time>
      </trkpt>
      <trkpt lat="42.902963" lon="0.741126">
        <ele>1370.5</ele>
        <time>2020-02-22T14:18:28Z</time>
      </trkpt>
      <trkpt lat="42.902963" lon="0.741331">
        <ele>1371.1</ele>
        <time>2020-02-22T14:18:41Z</time>
      </trkpt>
      <trkpt lat="42.902998" lon="0.741496">
        <ele>1371.7</ele>
        <time>2020-02-22T14:18:53Z</time>
      </trkpt>
      <trkpt lat="42.903032" lon="0.741697">
        <ele>1372.4</ele>
        <time>2020-02-22T14:19:06Z</time>
      </trkpt>
      <trkpt lat="42.903080" lon="0.741894">
        <ele>1373.0</ele>
        <time>2020-02-22T14:19:19Z</time>
      </trkpt>
      <trkpt lat="42.903126" lon="0.742059">
        <ele>1373.7</ele>
        <time>2020-02-22T14:19:31Z</time>
      </trkpt>
      <trkpt lat="42.903161" lon="0.742213">
        <ele>1374.3</ele>
        <time>2020-02-22T14:19:44Z</time>
      </trkpt>
      <trkpt lat="42.903241" lon="0.742384">
        <ele>1375.0</ele>
        <time>2020-02-22T14:19:55Z</time>
      </trkpt>
      <trkpt lat="42.903311" lon="0.742543">
        <ele>1375.7</ele>
        <time>2020-02-22T14:20:06Z</time>
      </trkpt>
      <trkpt lat="42.903367" lon="0.742665">
        <ele>1376.4</ele>
        <time>2020-02-22T14:20:16Z</time>
      </trkpt>
      <trkpt lat="42.903437" lon="0.742785">
        <ele>1377.1</ele>
        <time>2020-02-22T14:20:26Z</time>
      </trkpt>
      <trkpt lat="42.903496" lon="0.742935">
        <ele>1377.8</ele>
        <time>2020-02-22T14:20:38Z</time>
      </trkpt>
      <trkpt lat="42.903550" lon="0.743077">
        <ele>1378.6</ele>
        <time>2020-02-22T14:20:50Z</time>
      </trkpt>
      <trkpt lat="42.903611" lon="0.743216">
        <ele>1379.6</ele>
        <time>2020-02-22T14:21:02Z</time>
      </trkpt>
      <trkpt lat="42.903644" lon="0.743386">
        <ele>1381.2</ele>
        <time>2020-02-22T14:21:15Z</time>
      </trkpt>
      <trkpt lat="42.903684" lon="0.743606">
        <ele>1382.0</ele>
        <time>2020-02-22T14:21:27Z</time>
      </trkpt>
      <trkpt lat="42.903709" lon="0.743757">
        <ele>1382.7</ele>
        <time>2020-02-22T14:21:38Z</time>
      </trkpt>
      <trkpt lat="42.903744" lon="0.743906">
        <ele>1382.7</ele>
        <time>2020-02-22T14:21:48Z</time>
      </trkpt>
      <trkpt lat="42.903757" lon="0.744059">
        <ele>1382.7</ele>
        <time>2020-02-22T14:21:58Z</time>
      </trkpt>
      <trkpt lat="42.903766" lon="0.744221">
        <ele>1382.7</ele>
        <time>2020-02-22T14:22:08Z</time>
      </trkpt>
      <trkpt lat="42.903756" lon="0.744376">
        <ele>1382.7</ele>
        <time>2020-02-22T14:22:18Z</time>
      </trkpt>
      <trkpt lat="42.903734" lon="0.744540">
        <ele>1383.4</ele>
        <time>2020-02-22T14:22:30Z</time>
      </trkpt>
      <trkpt lat="42.903723" lon="0.744720">
        <ele>1384.2</ele>
        <time>2020-02-22T14:22:42Z</time>
      </trkpt>
      <trkpt lat="42.903739" lon="0.744872">
        <ele>1385.8</ele>
        <time>2020-02-22T14:22:53Z</time>
      </trkpt>
      <trkpt lat="42.903742" lon="0.745034">
        <ele>1386.6</ele>
        <time>2020-02-22T14:23:05Z</time>
      </trkpt>
      <trkpt lat="42.903747" lon="0.745236">
        <ele>1387.4</ele>
        <time>2020-02-22T14:23:19Z</time>
      </trkpt>
      <trkpt lat="42.903732" lon="0.745425">
        <ele>1389.8</ele>
        <time>2020-02-22T14:23:31Z</time>
      </trkpt>
      <trkpt lat="42.903740" lon="0.745602">
        <ele>1390.8</ele>
        <time>2020-02-22T14:23:43Z</time>
      </trkpt>
      <trkpt lat="42.903780" lon="0.745735">
        <ele>1391.5</ele>
        <time>2020-02-22T14:23:54Z</time>
      </trkpt>
      <trkpt lat="42.903788" lon="0.745894">
        <ele>1391.5</ele>
        <time>2020-02-22T14:24:05Z</time>
      </trkpt>
      <trkpt lat="42.903825" lon="0.746060">
        <ele>1392.3</ele>
        <time>2020-02-22T14:24:15Z</time>
      </trkpt>
      <trkpt lat="42.903827" lon="0.746212">
        <ele>1393.2</ele>
        <time>2020-02-22T14:24:26Z</time>
      </trkpt>
      <trkpt lat="42.903823" lon="0.746367">
        <ele>1394.1</ele>
        <time>2020-02-22T14:24:37Z</time>
      </trkpt>
      <trkpt lat="42.903853" lon="0.746528">
        <ele>1395.0</ele>
        <time>2020-02-22T14:24:49Z</time>
      </trkpt>
      <trkpt lat="42.903866" lon="0.746751">
        <ele>1396.5</ele>
        <time>2020-02-22T14:25:03Z</time>
      </trkpt>
      <trkpt lat="42.903847" lon="0.746933">
        <ele>1398.3</ele>
        <time>2020-02-22T14:25:16Z</time>
      </trkpt>
      <trkpt lat="42.903800" lon="0.747077">
        <ele>1400.7</ele>
        <time>2020-02-22T14:25:30Z</time>
      </trkpt>
      <trkpt lat="42.903742" lon="0.747263">
        <ele>1401.5</ele>
        <time>2020-02-22T14:25:43Z</time>
      </trkpt>
      <trkpt lat="42.903674" lon="0.747413">
        <ele>1402.2</ele>
        <time>2020-02-22T14:25:58Z</time>
      </trkpt>
      <trkpt lat="42.903564" lon="0.747505">
        <ele>1402.1</ele>
        <time>2020-02-22T14:26:11Z</time>
      </trkpt>
      <trkpt lat="42.903435" lon="0.747646">
        <ele>1402.1</ele>
        <time>2020-02-22T14:26:23Z</time>
      </trkpt>
      <trkpt lat="42.903332" lon="0.747785">
        <ele>1399.7</ele>
        <time>2020-02-22T14:26:36Z</time>
      </trkpt>
      <trkpt lat="42.903234" lon="0.747902">
        <ele>1398.8</ele>
        <time>2020-02-22T14:26:46Z</time>
      </trkpt>
      <trkpt lat="42.903116" lon="0.748001">
        <ele>1398.7</ele>
        <time>2020-02-22T14:26:59Z</time>
      </trkpt>
      <trkpt lat="42.903011" lon="0.748152">
        <ele>1398.6</ele>
        <time>2020-02-22T14:27:11Z</time>
      </trkpt>
      <trkpt lat="42.902931" lon="0.748335">
        <ele>1398.4</ele>
        <time>2020-02-22T14:27:23Z</time>
      </trkpt>
      <trkpt lat="42.902958" lon="0.748529">
        <ele>1398.3</ele>
        <time>2020-02-22T14:27:34Z</time>
      </trkpt>
      <trkpt lat="42.902989" lon="0.748705">
        <ele>1398.3</ele>
        <time>2020-02-22T14:27:44Z</time>
      </trkpt>
      <trkpt lat="42.903035" lon="0.748850">
        <ele>1398.2</ele>
        <time>2020-02-22T14:27:53Z</time>
      </trkpt>
      <trkpt lat="42.903072" lon="0.748986">
        <ele>1397.2</ele>
        <time>2020-02-22T14:28:03Z</time>
      </trkpt>
      <trkpt lat="42.903111" lon="0.749124">
        <ele>1396.3</ele>
        <time>2020-02-22T14:28:13Z</time>
      </trkpt>
      <trkpt lat="42.903160" lon="0.749274">
        <ele>1396.3</ele>
        <time>2020-02-22T14:28:23Z</time>
      </trkpt>
      <trkpt lat="42.903212" lon="0.749412">
        <ele>1396.5</ele>
        <time>2020-02-22T14:28:34Z</time>
      </trkpt>
      <trkpt lat="42.903272" lon="0.749543">
        <ele>1395.1</ele>
        <time>2020-02-22T14:28:45Z</time>
      </trkpt>
      <trkpt lat="42.903343" lon="0.749649">
        <ele>1395.0</ele>
        <time>2020-02-22T14:28:56Z</time>
      </trkpt>
      <trkpt lat="42.903398" lon="0.749782">
        <ele>1397.4</ele>
        <time>2020-02-22T14:29:07Z</time>
      </trkpt>
      <trkpt lat="42.903448" lon="0.749907">
        <ele>1398.1</ele>
        <time>2020-02-22T14:29:19Z</time>
      </trkpt>
      <trkpt lat="42.903517" lon="0.750069">
        <ele>1398.1</ele>
        <time>2020-02-22T14:29:31Z</time>
      </trkpt>
      <trkpt lat="42.903567" lon="0.750177">
        <ele>1399.6</ele>
        <time>2020-02-22T14:29:42Z</time>
      </trkpt>
      <trkpt lat="42.903631" lon="0.750279">
        <ele>1400.5</ele>
        <time>2020-02-22T14:30:12Z</time>
      </trkpt>
      <trkpt lat="42.903685" lon="0.750361">
        <ele>1400.5</ele>
        <time>2020-02-22T14:30:27Z</time>
      </trkpt>
      <trkpt lat="42.903675" lon="0.750361">
        <ele>1400.6</ele>
        <time>2020-02-22T14:30:59Z</time>
      </trkpt>
      <trkpt lat="42.903722" lon="0.750436">
        <ele>1401.7</ele>
        <time>2020-02-22T14:31:30Z</time>
      </trkpt>
      <trkpt lat="42.903764" lon="0.750580">
        <ele>1402.7</ele>
        <time>2020-02-22T14:31:44Z</time>
      </trkpt>
      <trkpt lat="42.903808" lon="0.750689">
        <ele>1403.6</ele>
        <time>2020-02-22T14:31:55Z</time>
      </trkpt>
      <trkpt lat="42.903842" lon="0.750817">
        <ele>1404.5</ele>
        <time>2020-02-22T14:32:07Z</time>
      </trkpt>
      <trkpt lat="42.903873" lon="0.750965">
        <ele>1404.6</ele>
        <time>2020-02-22T14:32:18Z</time>
      </trkpt>
      <trkpt lat="42.903887" lon="0.751124">
        <ele>1404.6</ele>
        <time>2020-02-22T14:32:30Z</time>
      </trkpt>
      <trkpt lat="42.903865" lon="0.751291">
        <ele>1405.6</ele>
        <time>2020-02-22T14:32:43Z</time>
      </trkpt>
      <trkpt lat="42.903794" lon="0.751414">
        <ele>1405.6</ele>
        <time>2020-02-22T14:32:57Z</time>
      </trkpt>
      <trkpt lat="42.903753" lon="0.751575">
        <ele>1406.5</ele>
        <time>2020-02-22T14:33:08Z</time>
      </trkpt>
      <trkpt lat="42.903703" lon="0.751765">
        <ele>1406.6</ele>
        <time>2020-02-22T14:33:19Z</time>
      </trkpt>
      <trkpt lat="42.903691" lon="0.751920">
        <ele>1406.6</ele>
        <time>2020-02-22T14:33:27Z</time>
      </trkpt>
      <trkpt lat="42.903703" lon="0.752078">
        <ele>1406.6</ele>
        <time>2020-02-22T14:33:36Z</time>
      </trkpt>
      <trkpt lat="42.903655" lon="0.752218">
        <ele>1406.6</ele>
        <time>2020-02-22T14:33:45Z</time>
      </trkpt>
      <trkpt lat="42.903614" lon="0.752392">
        <ele>1406.7</ele>
        <time>2020-02-22T14:33:54Z</time>
      </trkpt>
      <trkpt lat="42.903592" lon="0.752537">
        <ele>1406.7</ele>
        <time>2020-02-22T14:34:02Z</time>
      </trkpt>
      <trkpt lat="42.903583" lon="0.752669">
        <ele>1406.7</ele>
        <time>2020-02-22T14:34:11Z</time>
      </trkpt>
      <trkpt lat="42.903543" lon="0.752871">
        <ele>1406.7</ele>
        <time>2020-02-22T14:34:23Z</time>
      </trkpt>
      <trkpt lat="42.903582" lon="0.752986">
        <ele>1406.7</ele>
        <time>2020-02-22T14:34:38Z</time>
      </trkpt>
      <trkpt lat="42.903573" lon="0.753031">
        <ele>1406.7</ele>
        <time>2020-02-22T14:35:02Z</time>
      </trkpt>
      <trkpt lat="42.903622" lon="0.752975">
        <ele>1406.6</ele>
        <time>2020-02-22T14:35:31Z</time>
      </trkpt>
      <trkpt lat="42.903581" lon="0.752994">
        <ele>1406.6</ele>
        <time>2020-02-22T14:36:07Z</time>
      </trkpt>
      <trkpt lat="42.903545" lon="0.753175">
        <ele>1406.6</ele>
        <time>2020-02-22T14:36:21Z</time>
      </trkpt>
      <trkpt lat="42.903498" lon="0.753369">
        <ele>1404.3</ele>
        <time>2020-02-22T14:36:32Z</time>
      </trkpt>
      <trkpt lat="42.903548" lon="0.753505">
        <ele>1404.3</ele>
        <time>2020-02-22T14:36:44Z</time>
      </trkpt>
      <trkpt lat="42.903625" lon="0.753625">
        <ele>1404.3</ele>
        <time>2020-02-22T14:36:55Z</time>
      </trkpt>
      <trkpt lat="42.903709" lon="0.753756">
        <ele>1406.6</ele>
        <time>2020-02-22T14:37:07Z</time>
      </trkpt>
      <trkpt lat="42.903784" lon="0.753841">
        <ele>1407.6</ele>
        <time>2020-02-22T14:37:17Z</time>
      </trkpt>
      <trkpt lat="42.903886" lon="0.753957">
        <ele>1409.2</ele>
        <time>2020-02-22T14:37:31Z</time>
      </trkpt>
      <trkpt lat="42.903961" lon="0.754069">
        <ele>1410.1</ele>
        <time>2020-02-22T14:37:43Z</time>
      </trkpt>
      <trkpt lat="42.904018" lon="0.754166">
        <ele>1411.9</ele>
        <time>2020-02-22T14:37:54Z</time>
      </trkpt>
      <trkpt lat="42.904104" lon="0.754308">
        <ele>1413.4</ele>
        <time>2020-02-22T14:38:08Z</time>
      </trkpt>
      <trkpt lat="42.904192" lon="0.754394">
        <ele>1416.4</ele>
        <time>2020-02-22T14:38:25Z</time>
      </trkpt>
      <trkpt lat="42.904304" lon="0.754464">
        <ele>1418.0</ele>
        <time>2020-02-22T14:38:38Z</time>
      </trkpt>
      <trkpt lat="42.904416" lon="0.754556">
        <ele>1418.7</ele>
        <time>2020-02-22T14:38:50Z</time>
      </trkpt>
      <trkpt lat="42.904567" lon="0.754645">
        <ele>1420.1</ele>
        <time>2020-02-22T14:39:06Z</time>
      </trkpt>
      <trkpt lat="42.904619" lon="0.754733">
        <ele>1420.8</ele>
        <time>2020-02-22T14:39:21Z</time>
      </trkpt>
      <trkpt lat="42.904700" lon="0.754807">
        <ele>1421.5</ele>
        <time>2020-02-22T14:39:34Z</time>
      </trkpt>
      <trkpt lat="42.904811" lon="0.754903">
        <ele>1421.4</ele>
        <time>2020-02-22T14:39:46Z</time>
      </trkpt>
      <trkpt lat="42.904933" lon="0.754946">
        <ele>1421.4</ele>
        <time>2020-02-22T14:39:57Z</time>
      </trkpt>
      <trkpt lat="42.905001" lon="0.755053">
        <ele>1421.3</ele>
        <time>2020-02-22T14:40:08Z</time>
      </trkpt>
      <trkpt lat="42.905078" lon="0.755187">
        <ele>1421.3</ele>
        <time>2020-02-22T14:40:20Z</time>
      </trkpt>
      <trkpt lat="42.905139" lon="0.755322">
        <ele>1422.1</ele>
        <time>2020-02-22T14:40:33Z</time>
      </trkpt>
      <trkpt lat="42.905226" lon="0.755449">
        <ele>1422.9</ele>
        <time>2020-02-22T14:40:46Z</time>
      </trkpt>
      <trkpt lat="42.905315" lon="0.755575">
        <ele>1424.5</ele>
        <time>2020-02-22T14:40:58Z</time>
      </trkpt>
      <trkpt lat="42.905411" lon="0.755704">
        <ele>1425.2</ele>
        <time>2020-02-22T14:41:10Z</time>
      </trkpt>
      <trkpt lat="42.905510" lon="0.755828">
        <ele>1425.1</ele>
        <time>2020-02-22T14:41:21Z</time>
      </trkpt>
      <trkpt lat="42.905578" lon="0.755940">
        <ele>1425.8</ele>
        <time>2020-02-22T14:41:31Z</time>
      </trkpt>
      <trkpt lat="42.905653" lon="0.756059">
        <ele>1425.8</ele>
        <time>2020-02-22T14:41:42Z</time>
      </trkpt>
      <trkpt lat="42.905709" lon="0.756221">
        <ele>1426.5</ele>
        <time>2020-02-22T14:41:53Z</time>
      </trkpt>
      <trkpt lat="42.905785" lon="0.756366">
        <ele>1426.4</ele>
        <time>2020-02-22T14:42:06Z</time>
      </trkpt>
      <trkpt lat="42.905887" lon="0.756533">
        <ele>1426.3</ele>
        <time>2020-02-22T14:42:18Z</time>
      </trkpt>
      <trkpt lat="42.905947" lon="0.756654">
        <ele>1427.1</ele>
        <time>2020-02-22T14:42:30Z</time>
      </trkpt>
      <trkpt lat="42.906081" lon="0.756756">
        <ele>1428.6</ele>
        <time>2020-02-22T14:42:42Z</time>
      </trkpt>
      <trkpt lat="42.906201" lon="0.756841">
        <ele>1429.3</ele>
        <time>2020-02-22T14:42:53Z</time>
      </trkpt>
      <trkpt lat="42.906266" lon="0.756959">
        <ele>1430.0</ele>
        <time>2020-02-22T14:43:04Z</time>
      </trkpt>
      <trkpt lat="42.906355" lon="0.757076">
        <ele>1430.9</ele>
        <time>2020-02-22T14:43:16Z</time>
      </trkpt>
      <trkpt lat="42.906457" lon="0.757201">
        <ele>1431.6</ele>
        <time>2020-02-22T14:43:28Z</time>
      </trkpt>
      <trkpt lat="42.906560" lon="0.757322">
        <ele>1432.3</ele>
        <time>2020-02-22T14:43:40Z</time>
      </trkpt>
      <trkpt lat="42.906639" lon="0.757387">
        <ele>1432.3</ele>
        <time>2020-02-22T14:43:48Z</time>
      </trkpt>
      <trkpt lat="42.906711" lon="0.757433">
        <ele>1432.2</ele>
        <time>2020-02-22T14:43:58Z</time>
      </trkpt>
      <trkpt lat="42.906745" lon="0.757560">
        <ele>1432.3</ele>
        <time>2020-02-22T14:44:09Z</time>
      </trkpt>
      <trkpt lat="42.906750" lon="0.757773">
        <ele>1432.2</ele>
        <time>2020-02-22T14:44:21Z</time>
      </trkpt>
      <trkpt lat="42.906835" lon="0.757990">
        <ele>1427.8</ele>
        <time>2020-02-22T14:44:35Z</time>
      </trkpt>
      <trkpt lat="42.906952" lon="0.758125">
        <ele>1427.0</ele>
        <time>2020-02-22T14:44:50Z</time>
      </trkpt>
      <trkpt lat="42.907041" lon="0.758187">
        <ele>1427.0</ele>
        <time>2020-02-22T14:45:01Z</time>
      </trkpt>
      <trkpt lat="42.907098" lon="0.758327">
        <ele>1426.9</ele>
        <time>2020-02-22T14:45:14Z</time>
      </trkpt>
      <trkpt lat="42.907163" lon="0.758431">
        <ele>1426.7</ele>
        <time>2020-02-22T14:45:24Z</time>
      </trkpt>
      <trkpt lat="42.907258" lon="0.758555">
        <ele>1426.9</ele>
        <time>2020-02-22T14:45:35Z</time>
      </trkpt>
      <trkpt lat="42.907356" lon="0.758639">
        <ele>1429.0</ele>
        <time>2020-02-22T14:45:44Z</time>
      </trkpt>
      <trkpt lat="42.907433" lon="0.758742">
        <ele>1429.0</ele>
        <time>2020-02-22T14:45:54Z</time>
      </trkpt>
      <trkpt lat="42.907524" lon="0.758840">
        <ele>1429.0</ele>
        <time>2020-02-22T14:46:04Z</time>
      </trkpt>
      <trkpt lat="42.907625" lon="0.758939">
        <ele>1429.1</ele>
        <time>2020-02-22T14:46:15Z</time>
      </trkpt>
      <trkpt lat="42.907677" lon="0.759071">
        <ele>1430.0</ele>
        <time>2020-02-22T14:46:25Z</time>
      </trkpt>
      <trkpt lat="42.907763" lon="0.759149">
        <ele>1429.9</ele>
        <time>2020-02-22T14:46:33Z</time>
      </trkpt>
      <trkpt lat="42.907838" lon="0.759284">
        <ele>1429.8</ele>
        <time>2020-02-22T14:46:45Z</time>
      </trkpt>
      <trkpt lat="42.907945" lon="0.759467">
        <ele>1431.6</ele>
        <time>2020-02-22T14:46:59Z</time>
      </trkpt>
      <trkpt lat="42.908011" lon="0.759672">
        <ele>1434.2</ele>
        <time>2020-02-22T14:47:17Z</time>
      </trkpt>
      <trkpt lat="42.908107" lon="0.759805">
        <ele>1435.0</ele>
        <time>2020-02-22T14:47:29Z</time>
      </trkpt>
      <trkpt lat="42.908220" lon="0.759887">
        <ele>1434.8</ele>
        <time>2020-02-22T14:47:39Z</time>
      </trkpt>
      <trkpt lat="42.908297" lon="0.759966">
        <ele>1434.7</ele>
        <time>2020-02-22T14:47:50Z</time>
      </trkpt>
      <trkpt lat="42.908383" lon="0.760116">
        <ele>1432.2</ele>
        <time>2020-02-22T14:48:01Z</time>
      </trkpt>
      <trkpt lat="42.908457" lon="0.760272">
        <ele>1430.4</ele>
        <time>2020-02-22T14:48:11Z</time>
      </trkpt>
      <trkpt lat="42.908554" lon="0.760430">
        <ele>1427.9</ele>
        <time>2020-02-22T14:48:22Z</time>
      </trkpt>
      <trkpt lat="42.908598" lon="0.760584">
        <ele>1425.9</ele>
        <time>2020-02-22T14:48:34Z</time>
      </trkpt>
      <trkpt lat="42.908636" lon="0.760797">
        <ele>1423.1</ele>
        <time>2020-02-22T14:48:49Z</time>
      </trkpt>
      <trkpt lat="42.908668" lon="0.760902">
        <ele>1421.9</ele>
        <time>2020-02-22T14:49:08Z</time>
      </trkpt>
      <trkpt lat="42.908768" lon="0.760885">
        <ele>1421.6</ele>
        <time>2020-02-22T14:49:46Z</time>
      </trkpt>
      <trkpt lat="42.908807" lon="0.761006">
        <ele>1420.5</ele>
        <time>2020-02-22T14:50:09Z</time>
      </trkpt>
      <trkpt lat="42.908843" lon="0.761132">
        <ele>1419.5</ele>
        <time>2020-02-22T14:50:19Z</time>
      </trkpt>
      <trkpt lat="42.908895" lon="0.761262">
        <ele>1417.6</ele>
        <time>2020-02-22T14:50:29Z</time>
      </trkpt>
      <trkpt lat="42.908957" lon="0.761360">
        <ele>1415.8</ele>
        <time>2020-02-22T14:50:39Z</time>
      </trkpt>
      <trkpt lat="42.908988" lon="0.761568">
        <ele>1412.9</ele>
        <time>2020-02-22T14:50:53Z</time>
      </trkpt>
      <trkpt lat="42.909001" lon="0.761755">
        <ele>1412.7</ele>
        <time>2020-02-22T14:51:04Z</time>
      </trkpt>
      <trkpt lat="42.909033" lon="0.761905">
        <ele>1411.9</ele>
        <time>2020-02-22T14:51:15Z</time>
      </trkpt>
      <trkpt lat="42.909063" lon="0.762080">
        <ele>1411.0</ele>
        <time>2020-02-22T14:51:25Z</time>
      </trkpt>
      <trkpt lat="42.909111" lon="0.762268">
        <ele>1410.0</ele>
        <time>2020-02-22T14:51:36Z</time>
      </trkpt>
      <trkpt lat="42.909166" lon="0.762423">
        <ele>1410.0</ele>
        <time>2020-02-22T14:51:46Z</time>
      </trkpt>
      <trkpt lat="42.909239" lon="0.762538">
        <ele>1409.9</ele>
        <time>2020-02-22T14:51:55Z</time>
      </trkpt>
      <trkpt lat="42.909270" lon="0.762706">
        <ele>1409.8</ele>
        <time>2020-02-22T14:52:08Z</time>
      </trkpt>
      <trkpt lat="42.909207" lon="0.762888">
        <ele>1409.4</ele>
        <time>2020-02-22T14:52:43Z</time>
      </trkpt>
      <trkpt lat="42.909109" lon="0.763024">
        <ele>1411.6</ele>
        <time>2020-02-22T14:52:59Z</time>
      </trkpt>
      <trkpt lat="42.909099" lon="0.763215">
        <ele>1411.5</ele>
        <time>2020-02-22T14:53:11Z</time>
      </trkpt>
      <trkpt lat="42.909083" lon="0.763415">
        <ele>1411.4</ele>
        <time>2020-02-22T14:53:23Z</time>
      </trkpt>
      <trkpt lat="42.909119" lon="0.763598">
        <ele>1409.0</ele>
        <time>2020-02-22T14:53:34Z</time>
      </trkpt>
      <trkpt lat="42.909159" lon="0.763793">
        <ele>1408.9</ele>
        <time>2020-02-22T14:53:47Z</time>
      </trkpt>
      <trkpt lat="42.909169" lon="0.763967">
        <ele>1410.9</ele>
        <time>2020-02-22T14:53:59Z</time>
      </trkpt>
      <trkpt lat="42.909192" lon="0.764146">
        <ele>1411.5</ele>
        <time>2020-02-22T14:54:10Z</time>
      </trkpt>
      <trkpt lat="42.909259" lon="0.764333">
        <ele>1412.2</ele>
        <time>2020-02-22T14:54:21Z</time>
      </trkpt>
      <trkpt lat="42.909361" lon="0.764429">
        <ele>1412.8</ele>
        <time>2020-02-22T14:54:31Z</time>
      </trkpt>
      <trkpt lat="42.909452" lon="0.764541">
        <ele>1413.5</ele>
        <time>2020-02-22T14:54:40Z</time>
      </trkpt>
      <trkpt lat="42.909522" lon="0.764665">
        <ele>1414.1</ele>
        <time>2020-02-22T14:54:49Z</time>
      </trkpt>
      <trkpt lat="42.909723" lon="0.764770">
        <ele>1415.8</ele>
        <time>2020-02-22T14:54:59Z</time>
      </trkpt>
      <trkpt lat="42.909802" lon="0.764889">
        <ele>1416.5</ele>
        <time>2020-02-22T14:55:09Z</time>
      </trkpt>
      <trkpt lat="42.909868" lon="0.764978">
        <ele>1418.1</ele>
        <time>2020-02-22T14:55:19Z</time>
      </trkpt>
      <trkpt lat="42.909884" lon="0.765077">
        <ele>1418.8</ele>
        <time>2020-02-22T14:55:29Z</time>
      </trkpt>
      <trkpt lat="42.909913" lon="0.765213">
        <ele>1419.6</ele>
        <time>2020-02-22T14:55:37Z</time>
      </trkpt>
      <trkpt lat="42.909950" lon="0.765341">
        <ele>1420.4</ele>
        <time>2020-02-22T14:55:45Z</time>
      </trkpt>
      <trkpt lat="42.909987" lon="0.765453">
        <ele>1422.0</ele>
        <time>2020-02-22T14:55:54Z</time>
      </trkpt>
      <trkpt lat="42.910027" lon="0.765548">
        <ele>1422.0</ele>
        <time>2020-02-22T14:56:02Z</time>
      </trkpt>
      <trkpt lat="42.910108" lon="0.765583">
        <ele>1422.7</ele>
        <time>2020-02-22T14:56:10Z</time>
      </trkpt>
      <trkpt lat="42.910192" lon="0.765587">
        <ele>1423.5</ele>
        <time>2020-02-22T14:56:19Z</time>
      </trkpt>
      <trkpt lat="42.910290" lon="0.765569">
        <ele>1424.4</ele>
        <time>2020-02-22T14:56:27Z</time>
      </trkpt>
      <trkpt lat="42.910380" lon="0.765576">
        <ele>1425.2</ele>
        <time>2020-02-22T14:56:35Z</time>
      </trkpt>
      <trkpt lat="42.910475" lon="0.765583">
        <ele>1426.0</ele>
        <time>2020-02-22T14:56:43Z</time>
      </trkpt>
      <trkpt lat="42.910577" lon="0.765596">
        <ele>1426.8</ele>
        <time>2020-02-22T14:56:51Z</time>
      </trkpt>
      <trkpt lat="42.910685" lon="0.765618">
        <ele>1428.4</ele>
        <time>2020-02-22T14:57:00Z</time>
      </trkpt>
      <trkpt lat="42.910779" lon="0.765620">
        <ele>1429.2</ele>
        <time>2020-02-22T14:57:09Z</time>
      </trkpt>
      <trkpt lat="42.910885" lon="0.765613">
        <ele>1430.2</ele>
        <time>2020-02-22T14:57:18Z</time>
      </trkpt>
      <trkpt lat="42.910996" lon="0.765609">
        <ele>1431.9</ele>
        <time>2020-02-22T14:57:27Z</time>
      </trkpt>
      <trkpt lat="42.911093" lon="0.765613">
        <ele>1432.8</ele>
        <time>2020-02-22T14:57:36Z</time>
      </trkpt>
      <trkpt lat="42.911196" lon="0.765595">
        <ele>1436.3</ele>
        <time>2020-02-22T14:57:48Z</time>
      </trkpt>
      <trkpt lat="42.911293" lon="0.765607">
        <ele>1439.3</ele>
        <time>2020-02-22T14:58:03Z</time>
      </trkpt>
      <trkpt lat="42.911352" lon="0.765632">
        <ele>1439.4</ele>
        <time>2020-02-22T14:58:23Z</time>
      </trkpt>
      <trkpt lat="42.911354" lon="0.765648">
        <ele>1439.6</ele>
        <time>2020-02-22T14:58:42Z</time>
      </trkpt>
      <trkpt lat="42.911364" lon="0.765601">
        <ele>1439.9</ele>
        <time>2020-02-22T14:59:15Z</time>
      </trkpt>
      <trkpt lat="42.911459" lon="0.765647">
        <ele>1440.0</ele>
        <time>2020-02-22T14:59:25Z</time>
      </trkpt>
      <trkpt lat="42.911551" lon="0.765695">
        <ele>1440.0</ele>
        <time>2020-02-22T14:59:34Z</time>
      </trkpt>
      <trkpt lat="42.911626" lon="0.765788">
        <ele>1440.1</ele>
        <time>2020-02-22T14:59:43Z</time>
      </trkpt>
      <trkpt lat="42.911686" lon="0.765910">
        <ele>1440.2</ele>
        <time>2020-02-22T14:59:52Z</time>
      </trkpt>
      <trkpt lat="42.911698" lon="0.766048">
        <ele>1440.2</ele>
        <time>2020-02-22T15:00:01Z</time>
      </trkpt>
      <trkpt lat="42.911690" lon="0.766181">
        <ele>1440.2</ele>
        <time>2020-02-22T15:00:10Z</time>
      </trkpt>
      <trkpt lat="42.911692" lon="0.766325">
        <ele>1440.3</ele>
        <time>2020-02-22T15:00:19Z</time>
      </trkpt>
      <trkpt lat="42.911705" lon="0.766451">
        <ele>1440.4</ele>
        <time>2020-02-22T15:00:27Z</time>
      </trkpt>
      <trkpt lat="42.911716" lon="0.766577">
        <ele>1440.4</ele>
        <time>2020-02-22T15:00:35Z</time>
      </trkpt>
      <trkpt lat="42.911735" lon="0.766704">
        <ele>1440.4</ele>
        <time>2020-02-22T15:00:43Z</time>
      </trkpt>
      <trkpt lat="42.911765" lon="0.766822">
        <ele>1438.2</ele>
        <time>2020-02-22T15:00:51Z</time>
      </trkpt>
      <trkpt lat="42.911795" lon="0.766940">
        <ele>1437.4</ele>
        <time>2020-02-22T15:00:59Z</time>
      </trkpt>
      <trkpt lat="42.911821" lon="0.767064">
        <ele>1437.5</ele>
        <time>2020-02-22T15:01:07Z</time>
      </trkpt>
      <trkpt lat="42.911866" lon="0.767191">
        <ele>1436.6</ele>
        <time>2020-02-22T15:01:15Z</time>
      </trkpt>
      <trkpt lat="42.911886" lon="0.767324">
        <ele>1436.7</ele>
        <time>2020-02-22T15:01:23Z</time>
      </trkpt>
      <trkpt lat="42.911911" lon="0.767459">
        <ele>1435.9</ele>
        <time>2020-02-22T15:01:31Z</time>
      </trkpt>
      <trkpt lat="42.911938" lon="0.767594">
        <ele>1435.9</ele>
        <time>2020-02-22T15:01:39Z</time>
      </trkpt>
      <trkpt lat="42.911970" lon="0.767720">
        <ele>1435.1</ele>
        <time>2020-02-22T15:01:47Z</time>
      </trkpt>
      <trkpt lat="42.912010" lon="0.767845">
        <ele>1434.3</ele>
        <time>2020-02-22T15:01:56Z</time>
      </trkpt>
      <trkpt lat="42.912056" lon="0.767962">
        <ele>1432.7</ele>
        <time>2020-02-22T15:02:06Z</time>
      </trkpt>
      <trkpt lat="42.912112" lon="0.768121">
        <ele>1432.0</ele>
        <time>2020-02-22T15:02:15Z</time>
      </trkpt>
      <trkpt lat="42.912191" lon="0.768238">
        <ele>1432.0</ele>
        <time>2020-02-22T15:02:24Z</time>
      </trkpt>
      <trkpt lat="42.912242" lon="0.768348">
        <ele>1431.2</ele>
        <time>2020-02-22T15:02:32Z</time>
      </trkpt>
      <trkpt lat="42.912302" lon="0.768460">
        <ele>1430.4</ele>
        <time>2020-02-22T15:02:41Z</time>
      </trkpt>
      <trkpt lat="42.912354" lon="0.768585">
        <ele>1430.4</ele>
        <time>2020-02-22T15:02:50Z</time>
      </trkpt>
      <trkpt lat="42.912388" lon="0.768700">
        <ele>1429.7</ele>
        <time>2020-02-22T15:02:58Z</time>
      </trkpt>
      <trkpt lat="42.912414" lon="0.768828">
        <ele>1428.9</ele>
        <time>2020-02-22T15:03:06Z</time>
      </trkpt>
      <trkpt lat="42.912430" lon="0.768961">
        <ele>1428.1</ele>
        <time>2020-02-22T15:03:14Z</time>
      </trkpt>
      <trkpt lat="42.912442" lon="0.769084">
        <ele>1427.3</ele>
        <time>2020-02-22T15:03:21Z</time>
      </trkpt>
      <trkpt lat="42.912442" lon="0.769215">
        <ele>1427.4</ele>
        <time>2020-02-22T15:03:29Z</time>
      </trkpt>
      <trkpt lat="42.912423" lon="0.769347">
        <ele>1426.6</ele>
        <time>2020-02-22T15:03:37Z</time>
      </trkpt>
      <trkpt lat="42.912409" lon="0.769484">
        <ele>1426.6</ele>
        <time>2020-02-22T15:03:45Z</time>
      </trkpt>
      <trkpt lat="42.912456" lon="0.769603">
        <ele>1425.8</ele>
        <time>2020-02-22T15:03:54Z</time>
      </trkpt>
      <trkpt lat="42.912532" lon="0.769680">
        <ele>1423.2</ele>
        <time>2020-02-22T15:04:03Z</time>
      </trkpt>
      <trkpt lat="42.912594" lon="0.769773">
        <ele>1423.3</ele>
        <time>2020-02-22T15:04:11Z</time>
      </trkpt>
      <trkpt lat="42.912618" lon="0.769902">
        <ele>1423.3</ele>
        <time>2020-02-22T15:04:22Z</time>
      </trkpt>
      <trkpt lat="42.912717" lon="0.769895">
        <ele>1420.7</ele>
        <time>2020-02-22T15:04:32Z</time>
      </trkpt>
      <trkpt lat="42.912805" lon="0.769895">
        <ele>1416.5</ele>
        <time>2020-02-22T15:04:41Z</time>
      </trkpt>
      <trkpt lat="42.912819" lon="0.769963">
        <ele>1414.6</ele>
        <time>2020-02-22T15:04:49Z</time>
      </trkpt>
      <trkpt lat="42.912797" lon="0.770078">
        <ele>1413.8</ele>
        <time>2020-02-22T15:04:56Z</time>
      </trkpt>
      <trkpt lat="42.912788" lon="0.770190">
        <ele>1412.9</ele>
        <time>2020-02-22T15:05:03Z</time>
      </trkpt>
      <trkpt lat="42.912816" lon="0.770346">
        <ele>1413.0</ele>
        <time>2020-02-22T15:05:11Z</time>
      </trkpt>
      <trkpt lat="42.912832" lon="0.770462">
        <ele>1412.2</ele>
        <time>2020-02-22T15:05:19Z</time>
      </trkpt>
      <trkpt lat="42.912816" lon="0.770594">
        <ele>1412.3</ele>
        <time>2020-02-22T15:05:27Z</time>
      </trkpt>
      <trkpt lat="42.912819" lon="0.770731">
        <ele>1412.3</ele>
        <time>2020-02-22T15:05:35Z</time>
      </trkpt>
      <trkpt lat="42.912798" lon="0.770862">
        <ele>1412.4</ele>
        <time>2020-02-22T15:05:44Z</time>
      </trkpt>
      <trkpt lat="42.912767" lon="0.770954">
        <ele>1412.4</ele>
        <time>2020-02-22T15:05:54Z</time>
      </trkpt>
    </trkseg>
  </trk>
</gpx>

